Darstellungsparameter: Aktuell verwendete Einstellungen:
Skalierung der Graphiken ... ?
xyx+y,   Skalierungsfaktor:      Skalierung: Modus: x, Faktor: 1
Darstellungszeitraum ... ?
Vom - - bis: - -   Zeitraum: 27.07.2010 - 26.08.2010
Min/Max/Avg-Anzeige ... ?
Zeige MMA aktuell
Zeige MMA Monat
Zeige MMA alles
Zeige --A aktuell
Zeige --A Monat
Zeige --A alles
Keine MMA-Anzeige
MMA:
Average (ber die Originaldaten)
MMA-Basis: 27.07.2010 - 26.08.2010
Quicknavigation für Darstellung... ?
Tage:      1T, 2T, 3T, 5T -1T -2T -3T -5T +1T +2T +3T +5T
Wochen: 1W, 2W, 3W -1W -2W -3W +1W +2W +3W
Monate: 1M, 3M, 6M -1M -3M -6M +1M +3M +6M
Jahre:    1J, 3J, 5J, 10J -1J -3J -5J -10J +1J +3J +5J +10J
Nutze für die Darstellung ... ?
Originaldaten oder Mittelwerte auf ...
Stundenbasis Tagesbasis Wochenbasis
Monatsbasis Jahresbasis      Datenbasis: Original-Daten
Darstellen als:
Statistik (Auto) Statistik J:M      Darstellung:
Zur Graphik,    zurück zur Übersicht aller Sensoren.
 
Tabellarische Datenbersicht: ?
 
Sensor: Nr:Datum:Temp:Abs-Feuchte:Windchill:Wind:
Aussen-T/F 1 27-07-2010 00:03:04 15.4 C 11.04 g/m*3 15.4 C 0 km/h
2 27-07-2010 00:15:04 15.4 C 11.04 g/m*3 15.4 C 0 km/h
3 27-07-2010 00:27:04 15.3 C 11.1 g/m*3 15.3 C 0 km/h
4 27-07-2010 00:39:05 15.4 C 11.3 g/m*3 15.4 C 0 km/h
5 27-07-2010 00:51:05 15.2 C 11.16 g/m*3 15.2 C 0 km/h
6 27-07-2010 01:03:05 15.3 C 11.23 g/m*3 15.3 C 0 km/h
7 27-07-2010 01:15:05 15.3 C 11.23 g/m*3 15.3 C 0 km/h
8 27-07-2010 01:27:05 15.6 C 11.3 g/m*3 15.6 C 0 km/h
9 27-07-2010 01:39:05 15.6 C 11.17 g/m*3 15.6 C 0 km/h
10 27-07-2010 01:51:05 15.6 C 11.04 g/m*3 15.6 C 0 km/h
11 27-07-2010 02:03:05 15.6 C 11.04 g/m*3 15.6 C 0 km/h
12 27-07-2010 02:15:05 15.6 C 11.04 g/m*3 15.6 C 0 km/h
13 27-07-2010 02:27:05 15.6 C 11.04 g/m*3 15.6 C 0 km/h
14 27-07-2010 02:39:05 15.6 C 11.04 g/m*3 15.6 C 0 km/h
15 27-07-2010 02:51:05 15.6 C 11.04 g/m*3 15.6 C 0 km/h
16 27-07-2010 03:03:05 15.6 C 11.04 g/m*3 15.6 C 0 km/h
17 27-07-2010 03:15:05 15.5 C 10.97 g/m*3 15.5 C 0 km/h
18 27-07-2010 03:27:05 15.4 C 10.9 g/m*3 15.4 C 0 km/h
19 27-07-2010 03:39:05 15.3 C 10.84 g/m*3 15.3 C 0 km/h
20 27-07-2010 03:51:05 15.3 C 11.1 g/m*3 15.3 C 0 km/h
21 27-07-2010 04:03:05 15.4 C 11.04 g/m*3 15.4 C 0 km/h
22 27-07-2010 04:15:05 15.3 C 10.84 g/m*3 15.3 C 0 km/h
23 27-07-2010 04:27:05 15.4 C 10.9 g/m*3 15.4 C 0 km/h
24 27-07-2010 04:39:06 15.2 C 10.77 g/m*3 15.2 C 0 km/h
25 27-07-2010 04:51:06 15 C 10.64 g/m*3 15 C 0 km/h
Sensor: Nr:Datum:Temp:Abs-Feuchte:Windchill:Wind:
Aussen-T/F 26 27-07-2010 05:03:06 15.2 C 10.9 g/m*3 15.2 C 0 km/h
27 27-07-2010 05:15:06 15.2 C 10.9 g/m*3 15.2 C 0 km/h
28 27-07-2010 05:27:06 15.2 C 10.9 g/m*3 15.2 C 0 km/h
29 27-07-2010 05:39:06 15 C 10.77 g/m*3 15 C 0 km/h
30 27-07-2010 05:51:06 15.1 C 10.71 g/m*3 15.1 C 0 km/h
31 27-07-2010 06:03:06 15.2 C 10.77 g/m*3 15.2 C 0 km/h
32 27-07-2010 06:15:06 15.3 C 10.84 g/m*3 15.3 C 0 km/h
33 27-07-2010 06:27:06 15.3 C 10.84 g/m*3 15.3 C 0 km/h
34 27-07-2010 06:39:06 15.3 C 10.71 g/m*3 15.3 C 0 km/h
35 27-07-2010 06:51:02 15.3 C 10.71 g/m*3 15.3 C 0 km/h
36 27-07-2010 07:03:01 15.4 C 10.64 g/m*3 15.4 C 0 km/h
37 27-07-2010 07:15:01 15.6 C 10.77 g/m*3 15.6 C 0 km/h
38 27-07-2010 07:27:01 15.6 C 10.51 g/m*3 15.6 C 0 km/h
39 27-07-2010 07:39:02 15.8 C 10.63 g/m*3 15.8 C 0 km/h
40 27-07-2010 07:51:02 16 C 10.63 g/m*3 16 C 0 km/h
41 27-07-2010 08:03:02 16.1 C 10.55 g/m*3 16.1 C 0 km/h
42 27-07-2010 08:15:02 16.1 C 10.55 g/m*3 16.1 C 0 km/h
43 27-07-2010 08:27:02 16.4 C 10.75 g/m*3 16.4 C 0 km/h
44 27-07-2010 08:39:02 16.3 C 10.54 g/m*3 16.3 C 0 km/h
45 27-07-2010 08:51:02 16.2 C 10.62 g/m*3 16.2 C 0 km/h
46 27-07-2010 09:03:02 16.5 C 10.67 g/m*3 16.5 C 0 km/h
47 27-07-2010 09:15:03 16.6 C 10.59 g/m*3 16.6 C 0 km/h
48 27-07-2010 09:27:03 16.6 C 10.45 g/m*3 16.6 C 0 km/h
49 27-07-2010 09:39:02 17.3 C 10.61 g/m*3 17.3 C 0 km/h
50 27-07-2010 09:51:01 17.4 C 10.37 g/m*3 17.4 C 0 km/h
Sensor: Nr:Datum:Temp:Abs-Feuchte:Windchill:Wind:
Aussen-T/F 51 27-07-2010 10:03:01 18 C 10.29 g/m*3 18 C 0 km/h
52 27-07-2010 10:15:02 17.9 C 10.23 g/m*3 17.9 C 0 km/h
53 27-07-2010 10:27:02 18.5 C 10.28 g/m*3 18.5 C 0 km/h
54 27-07-2010 10:39:01 19.2 C 9.89 g/m*3 19.2 C 0 km/h
55 27-07-2010 10:51:01 19 C 9.61 g/m*3 19 C 0 km/h
56 27-07-2010 11:03:01 19.2 C 9.73 g/m*3 19.2 C 0 km/h
57 27-07-2010 11:15:02 19.8 C 9.74 g/m*3 19.8 C 0 km/h
58 27-07-2010 11:27:02 20.4 C 9.73 g/m*3 20.4 C 0 km/h
59 27-07-2010 11:39:01 20.5 C 9.25 g/m*3 20.5 C 0 km/h
60 27-07-2010 11:51:02 21 C 9.34 g/m*3 21 C 0 km/h
61 27-07-2010 12:03:02 21.8 C 9.4 g/m*3 21.8 C 0 km/h
62 27-07-2010 12:15:02 22.5 C 8.99 g/m*3 22.5 C 0 km/h
63 27-07-2010 12:27:02 21.8 C 8.83 g/m*3 21.8 C 0 km/h
64 27-07-2010 12:39:02 21.6 C 9.29 g/m*3 21.6 C 0 km/h
65 27-07-2010 12:51:02 22.7 C 8.89 g/m*3 22.7 C 0 km/h
66 27-07-2010 13:03:02 23.5 C 8.46 g/m*3 23.5 C 0 km/h
67 27-07-2010 13:15:01 22.7 C 7.88 g/m*3 22.7 C 0 km/h
68 27-07-2010 13:27:01 23.1 C 8.27 g/m*3 23.1 C 0 km/h
69 27-07-2010 13:39:02 25.5 C 7.1 g/m*3 25.5 C 0 km/h
70 27-07-2010 13:51:02 25 C 7.6 g/m*3 25 C 0 km/h
71 27-07-2010 14:03:02 23.8 C 7.53 g/m*3 23.8 C 0 km/h
72 27-07-2010 14:15:01 24.4 C 7.79 g/m*3 24.4 C 0 km/h
73 27-07-2010 14:27:01 25.2 C 7.68 g/m*3 25.2 C 0 km/h
74 27-07-2010 14:39:02 24.4 C 7.57 g/m*3 24.4 C 0 km/h
75 27-07-2010 14:51:01 24.3 C 7.75 g/m*3 24.3 C 0 km/h
Sensor: Nr:Datum:Temp:Abs-Feuchte:Windchill:Wind:
Aussen-T/F 76 27-07-2010 15:03:02 24.3 C 7.75 g/m*3 24.3 C 0 km/h
77 27-07-2010 15:15:02 25.6 C 7.86 g/m*3 25.6 C 0 km/h
78 27-07-2010 15:27:02 25.4 C 7.53 g/m*3 25.4 C 0 km/h
79 27-07-2010 15:39:01 25.7 C 7.42 g/m*3 25.7 C 0 km/h
80 27-07-2010 15:51:02 25.9 C 7.26 g/m*3 25.9 C 0 km/h
81 27-07-2010 16:03:01 26.6 C 7.05 g/m*3 26.6 C 0 km/h
82 27-07-2010 16:15:02 28.5 C 7.27 g/m*3 28.5 C 0 km/h
83 27-07-2010 16:27:03 28.2 C 6.87 g/m*3 28.2 C 0 km/h
84 27-07-2010 16:39:01 28 C 6.8 g/m*3 28 C 0 km/h
85 27-07-2010 16:51:02 28.2 C 6.05 g/m*3 28.2 C 0 km/h
86 27-07-2010 17:03:02 28.7 C 5.93 g/m*3 28.7 C 0 km/h
87 27-07-2010 17:15:02 29.4 C 6.16 g/m*3 29.4 C 0 km/h
88 27-07-2010 17:27:02 28 C 5.71 g/m*3 28 C 0 km/h
89 27-07-2010 17:39:03 28.2 C 5.77 g/m*3 28.2 C 0 km/h
90 27-07-2010 17:51:02 27.3 C 7.33 g/m*3 27.3 C 0 km/h
91 27-07-2010 18:03:02 26.1 C 6.37 g/m*3 26.1 C 0 km/h
92 27-07-2010 18:15:01 25.8 C 7.46 g/m*3 25.8 C 0 km/h
93 27-07-2010 18:27:01 24.8 C 8.19 g/m*3 24.8 C 0 km/h
94 27-07-2010 18:39:02 24.3 C 7.97 g/m*3 24.3 C 0 km/h
95 27-07-2010 18:51:02 24.3 C 8.19 g/m*3 24.3 C 0 km/h
96 27-07-2010 19:03:02 24.2 C 8.58 g/m*3 24.2 C 0 km/h
97 27-07-2010 19:15:01 23.6 C 8.72 g/m*3 23.6 C 0 km/h
98 27-07-2010 19:27:01 23.3 C 8.78 g/m*3 23.3 C 0 km/h
99 27-07-2010 19:39:02 23 C 8.63 g/m*3 23 C 0 km/h
100 27-07-2010 19:51:01 23 C 8.43 g/m*3 23 C 0 km/h
Sensor: Nr:Datum:Temp:Abs-Feuchte:Windchill:Wind:
Aussen-T/F 101 27-07-2010 20:03:02 22.9 C 8.38 g/m*3 22.9 C 0 km/h
102 27-07-2010 20:15:02 22.2 C 8.25 g/m*3 22.2 C 0 km/h
103 27-07-2010 20:27:02 21.7 C 8.2 g/m*3 21.7 C 0 km/h
104 27-07-2010 20:39:01 21.7 C 8.58 g/m*3 21.7 C 0 km/h
105 27-07-2010 20:51:02 21.5 C 8.49 g/m*3 21.5 C 0 km/h
106 27-07-2010 21:03:01 21.2 C 8.52 g/m*3 21.2 C 0 km/h
107 27-07-2010 21:15:02 21 C 8.79 g/m*3 21 C 0 km/h
108 27-07-2010 21:27:03 20.4 C 8.49 g/m*3 20.4 C 0 km/h
109 27-07-2010 21:39:01 20 C 8.47 g/m*3 20 C 0 km/h
110 27-07-2010 21:51:03 19.7 C 9.17 g/m*3 19.7 C 0 km/h
111 27-07-2010 22:04:04 19.7 C 9.34 g/m*3 19.7 C 0 km/h
112 27-07-2010 22:16:04 19.3 C 9.12 g/m*3 19.3 C 0 km/h
113 27-07-2010 22:28:04 19 C 8.8 g/m*3 19 C 0 km/h
114 27-07-2010 22:40:05 18.8 C 9.18 g/m*3 18.8 C 0 km/h
115 27-07-2010 22:52:05 18.8 C 9.34 g/m*3 18.8 C 0 km/h
116 27-07-2010 23:04:05 18.6 C 9.39 g/m*3 18.6 C 0 km/h
117 27-07-2010 23:16:05 18.4 C 9.28 g/m*3 18.4 C 0 km/h
118 27-07-2010 23:28:05 18.4 C 9.44 g/m*3 18.4 C 0 km/h
119 27-07-2010 23:40:05 18.4 C 9.12 g/m*3 18.4 C 0 km/h
120 27-07-2010 23:52:05 18.4 C 9.44 g/m*3 18.4 C 0 km/h
121 28-07-2010 00:04:05 18.5 C 9.65 g/m*3 18.5 C 0 km/h
122 28-07-2010 00:16:05 18.5 C 9.81 g/m*3 18.5 C 0 km/h
123 28-07-2010 00:28:05 18.3 C 9.85 g/m*3 18.3 C 0 km/h
124 28-07-2010 00:40:05 18 C 9.83 g/m*3 18 C 0 km/h
125 28-07-2010 00:52:05 17.7 C 9.81 g/m*3 17.7 C 0 km/h
Sensor: Nr:Datum:Temp:Abs-Feuchte:Windchill:Wind:
Aussen-T/F 126 28-07-2010 01:04:05 17.5 C 9.69 g/m*3 17.5 C 0 km/h
127 28-07-2010 01:16:05 17.3 C 9.58 g/m*3 17.3 C 0 km/h
128 28-07-2010 01:28:05 17.2 C 9.81 g/m*3 17.2 C 0 km/h
129 28-07-2010 01:40:05 17.1 C 10.04 g/m*3 17.1 C 0 km/h
130 28-07-2010 01:52:05 16.7 C 10.09 g/m*3 16.7 C 0 km/h
131 28-07-2010 02:04:05 16.9 C 10.21 g/m*3 16.9 C 0 km/h
132 28-07-2010 02:16:05 17 C 9.98 g/m*3 17 C 0 km/h
133 28-07-2010 02:28:05 16.9 C 10.36 g/m*3 16.9 C 0 km/h
134 28-07-2010 02:40:05 17 C 10.27 g/m*3 17 C 0 km/h
135 28-07-2010 02:52:06 17 C 10.27 g/m*3 17 C 0 km/h
136 28-07-2010 03:04:06 17 C 10.27 g/m*3 17 C 0 km/h
137 28-07-2010 03:16:06 17 C 10.13 g/m*3 17 C 0 km/h
138 28-07-2010 03:28:06 17 C 10.27 g/m*3 17 C 0 km/h
139 28-07-2010 03:40:06 17.1 C 10.48 g/m*3 17.1 C 0 km/h
140 28-07-2010 03:52:06 17.1 C 10.48 g/m*3 17.1 C 0 km/h
141 28-07-2010 04:04:06 17 C 10.42 g/m*3 17 C 0 km/h
142 28-07-2010 04:16:06 17.1 C 10.48 g/m*3 17.1 C 0 km/h
143 28-07-2010 04:28:06 17 C 10.42 g/m*3 17 C 0 km/h
144 28-07-2010 04:40:06 16.9 C 10.5 g/m*3 16.9 C 0 km/h
145 28-07-2010 04:52:06 16.8 C 10.58 g/m*3 16.8 C 0 km/h
146 28-07-2010 05:04:06 16.8 C 10.58 g/m*3 16.8 C 0 km/h
147 28-07-2010 05:16:06 16.8 C 10.58 g/m*3 16.8 C 0 km/h
148 28-07-2010 05:28:06 16.8 C 10.58 g/m*3 16.8 C 0 km/h
149 28-07-2010 05:40:06 16.8 C 10.58 g/m*3 16.8 C 0 km/h
150 28-07-2010 05:52:06 17 C 10.56 g/m*3 17 C 0 km/h
Sensor: Nr:Datum:Temp:Abs-Feuchte:Windchill:Wind:
Aussen-T/F 151 28-07-2010 06:04:06 17.1 C 10.48 g/m*3 17.1 C 0 km/h
152 28-07-2010 06:16:06 17.2 C 10.54 g/m*3 17.2 C 0 km/h
153 28-07-2010 06:28:06 17.2 C 10.54 g/m*3 17.2 C 0 km/h
154 28-07-2010 06:40:06 16.9 C 11.08 g/m*3 16.9 C 0 km/h
155 28-07-2010 06:52:07 16.7 C 11.37 g/m*3 16.7 C 0 km/h
156 28-07-2010 07:04:04 16.4 C 11.58 g/m*3 16.4 C 0 km/h
157 28-07-2010 07:16:03 16.2 C 11.86 g/m*3 16.2 C 0 km/h
158 28-07-2010 07:28:03 16.3 C 12.21 g/m*3 16.3 C 0 km/h
159 28-07-2010 07:40:04 16.3 C 12.35 g/m*3 16.3 C 0 km/h
160 28-07-2010 07:52:01 16.4 C 12.56 g/m*3 16.4 C 0 km/h
161 28-07-2010 08:04:02 16.5 C 12.64 g/m*3 16.5 C 0 km/h
162 28-07-2010 08:16:02 16.6 C 12.71 g/m*3 16.6 C 0 km/h
163 28-07-2010 08:28:02 17 C 13.02 g/m*3 17 C 0 km/h
164 28-07-2010 08:40:01 17.6 C 13.5 g/m*3 17.6 C 0 km/h
165 28-07-2010 08:52:02 17.8 C 13.2 g/m*3 17.8 C 0 km/h
166 28-07-2010 09:04:01 18.1 C 12.98 g/m*3 18.1 C 0 km/h
167 28-07-2010 09:16:02 17.9 C 12.83 g/m*3 17.9 C 0 km/h
168 28-07-2010 09:28:02 17.4 C 12.6 g/m*3 17.4 C 0 km/h
169 28-07-2010 09:40:01 17.1 C 12.66 g/m*3 17.1 C 0 km/h
170 28-07-2010 09:52:02 17.3 C 12.82 g/m*3 17.3 C 0 km/h
171 28-07-2010 10:04:02 17.3 C 12.96 g/m*3 17.3 C 0 km/h
172 28-07-2010 10:16:02 17.6 C 13.2 g/m*3 17.6 C 0 km/h
173 28-07-2010 10:28:02 17.6 C 13.05 g/m*3 17.6 C 0 km/h
174 28-07-2010 10:40:02 17.9 C 13.59 g/m*3 17.9 C 0 km/h
175 28-07-2010 10:52:01 18.1 C 13.44 g/m*3 18.1 C 0 km/h
Sensor: Nr:Datum:Temp:Abs-Feuchte:Windchill:Wind:
Aussen-T/F 176 28-07-2010 11:04:02 18.8 C 14.01 g/m*3 18.8 C 0 km/h
177 28-07-2010 11:16:01 19.7 C 13.92 g/m*3 19.7 C 0 km/h
178 28-07-2010 11:28:01 20.6 C 13.24 g/m*3 20.6 C 0 km/h
179 28-07-2010 11:40:01 20.7 C 13.14 g/m*3 20.7 C 0 km/h
180 28-07-2010 11:52:01 21.5 C 13.39 g/m*3 21.5 C 0 km/h
181 28-07-2010 12:04:01 21.3 C 13.23 g/m*3 21.3 C 0 km/h
182 28-07-2010 12:16:02 20.8 C 12.86 g/m*3 20.8 C 0 km/h
183 28-07-2010 12:28:02 21.5 C 12.82 g/m*3 21.5 C 0 km/h
184 28-07-2010 12:40:01 21.4 C 13.12 g/m*3 21.4 C 0 km/h
185 28-07-2010 12:52:02 21.1 C 13.08 g/m*3 21.1 C 0 km/h
186 28-07-2010 13:04:02 21 C 12.82 g/m*3 21 C 0 km/h
187 28-07-2010 13:16:02 21.5 C 13.39 g/m*3 21.5 C 0 km/h
188 28-07-2010 13:28:02 24.7 C 12.9 g/m*3 24.7 C 0 km/h
189 28-07-2010 13:40:02 25.7 C 11.25 g/m*3 25.7 C 0 km/h
190 28-07-2010 13:52:02 25.8 C 9.87 g/m*3 25.8 C 0 km/h
191 28-07-2010 14:04:02 24.7 C 10.41 g/m*3 24.7 C 0 km/h
192 28-07-2010 14:16:02 25.4 C 9.89 g/m*3 25.4 C 0 km/h
193 28-07-2010 14:28:02 25.8 C 9.15 g/m*3 25.8 C 0 km/h
194 28-07-2010 14:40:02 26.3 C 8.66 g/m*3 26.3 C 0 km/h
195 28-07-2010 14:52:02 26.5 C 8.26 g/m*3 26.5 C 0 km/h
196 28-07-2010 15:04:02 26.4 C 8.21 g/m*3 26.4 C 0 km/h
197 28-07-2010 15:16:02 26.4 C 8.46 g/m*3 26.4 C 0 km/h
198 28-07-2010 15:28:02 25.8 C 7.46 g/m*3 25.8 C 0 km/h
199 28-07-2010 15:40:02 25.2 C 7.22 g/m*3 25.2 C 0 km/h
200 28-07-2010 15:52:02 26.2 C 7.14 g/m*3 26.2 C 0 km/h
Sensor: Nr:Datum:Temp:Abs-Feuchte:Windchill:Wind:
Aussen-T/F 201 28-07-2010 16:04:02 27.1 C 6.73 g/m*3 27.1 C 0 km/h
202 28-07-2010 16:16:03 27.2 C 7.29 g/m*3 27.2 C 0 km/h
203 28-07-2010 16:28:03 27.7 C 7.22 g/m*3 27.7 C 0 km/h
204 28-07-2010 16:40:02 28.2 C 6.87 g/m*3 28.2 C 0 km/h
205 28-07-2010 16:52:03 28.7 C 7.06 g/m*3 28.7 C 0 km/h
206 28-07-2010 17:04:02 28.7 C 6.78 g/m*3 28.7 C 0 km/h
207 28-07-2010 17:16:02 29.6 C 7.12 g/m*3 29.6 C 0 km/h
208 28-07-2010 17:28:02 29 C 6.61 g/m*3 29 C 0 km/h
209 28-07-2010 17:40:02 28.9 C 6.57 g/m*3 28.9 C 0 km/h
210 28-07-2010 17:52:02 27.8 C 6.19 g/m*3 27.8 C 0 km/h
211 28-07-2010 18:04:01 28.4 C 6.67 g/m*3 28.4 C 0 km/h
212 28-07-2010 18:16:02 28.2 C 6.6 g/m*3 28.2 C 0 km/h
213 28-07-2010 18:28:02 26.2 C 6.4 g/m*3 26.2 C 0 km/h
214 28-07-2010 18:40:02 25.6 C 6.67 g/m*3 25.6 C 0 km/h
215 28-07-2010 18:52:01 25.3 C 7.02 g/m*3 25.3 C 0 km/h
216 28-07-2010 19:04:02 24.5 C 8.73 g/m*3 24.5 C 0 km/h
217 28-07-2010 19:16:01 22.6 C 9.44 g/m*3 22.6 C 0 km/h
218 28-07-2010 19:28:01 21.7 C 10.87 g/m*3 21.7 C 0 km/h
219 28-07-2010 19:40:01 21.8 C 10.55 g/m*3 21.8 C 0 km/h
220 28-07-2010 19:52:01 21.9 C 10.42 g/m*3 21.9 C 0 km/h
221 28-07-2010 20:04:02 21.9 C 10.23 g/m*3 21.9 C 0 km/h
222 28-07-2010 20:16:01 22 C 9.9 g/m*3 22 C 0 km/h
223 28-07-2010 20:28:01 22.1 C 9.96 g/m*3 22.1 C 0 km/h
224 28-07-2010 20:40:02 21.6 C 10.24 g/m*3 21.6 C 0 km/h
225 28-07-2010 20:52:02 21.3 C 10.62 g/m*3 21.3 C 0 km/h
Sensor: Nr:Datum:Temp:Abs-Feuchte:Windchill:Wind:
Aussen-T/F 226 28-07-2010 21:04:02 21 C 10.44 g/m*3 21 C 0 km/h
227 28-07-2010 21:16:02 20.8 C 10.5 g/m*3 20.8 C 0 km/h
228 28-07-2010 21:28:02 20.7 C 10.62 g/m*3 20.7 C 0 km/h
229 28-07-2010 21:40:02 20.4 C 10.79 g/m*3 20.4 C 0 km/h
230 28-07-2010 21:52:02 20.1 C 10.78 g/m*3 20.1 C 0 km/h
231 28-07-2010 22:04:02 20 C 11.06 g/m*3 20 C 0 km/h
232 28-07-2010 22:17:02 19.8 C 11.44 g/m*3 19.8 C 0 km/h
233 28-07-2010 22:29:02 19.8 C 11.1 g/m*3 19.8 C 0 km/h
234 28-07-2010 22:41:02 19.7 C 11.38 g/m*3 19.7 C 0 km/h
235 28-07-2010 22:53:02 19.6 C 11.31 g/m*3 19.6 C 0 km/h
236 28-07-2010 23:05:02 19.3 C 11.78 g/m*3 19.3 C 0 km/h
237 28-07-2010 23:17:02 18.3 C 12.98 g/m*3 18.3 C 0 km/h
238 28-07-2010 23:29:02 18.2 C 13.37 g/m*3 18.2 C 0 km/h
239 28-07-2010 23:41:02 18.1 C 13.44 g/m*3 18.1 C 0 km/h
240 28-07-2010 23:53:02 18 C 13.36 g/m*3 18 C 0 km/h
241 29-07-2010 00:05:02 17.7 C 13.43 g/m*3 17.7 C 0 km/h
242 29-07-2010 00:17:02 17.5 C 13.27 g/m*3 17.5 C 0 km/h
243 29-07-2010 00:29:02 17.2 C 13.03 g/m*3 17.2 C 0 km/h
244 29-07-2010 00:41:02 16.9 C 13.09 g/m*3 16.9 C 0 km/h
245 29-07-2010 00:53:02 16.5 C 12.78 g/m*3 16.5 C 0 km/h
246 29-07-2010 01:05:02 16.4 C 12.84 g/m*3 16.4 C 0 km/h
247 29-07-2010 01:17:02 16.2 C 12.69 g/m*3 16.2 C 0 km/h
248 29-07-2010 01:29:02 16.1 C 12.61 g/m*3 16.1 C 0 km/h
249 29-07-2010 01:41:02 15.9 C 12.59 g/m*3 15.9 C 0 km/h
250 29-07-2010 01:53:02 15.7 C 12.44 g/m*3 15.7 C 0 km/h
Sensor: Nr:Datum:Temp:Abs-Feuchte:Windchill:Wind:
Aussen-T/F 251 29-07-2010 02:05:02 15.4 C 12.22 g/m*3 15.4 C 0 km/h
252 29-07-2010 02:17:03 15.2 C 12.07 g/m*3 15.2 C 0 km/h
253 29-07-2010 02:29:03 15.1 C 12 g/m*3 15.1 C 0 km/h
254 29-07-2010 02:41:03 15 C 11.93 g/m*3 15 C 0 km/h
255 29-07-2010 02:53:03 15.1 C 12 g/m*3 15.1 C 0 km/h
256 29-07-2010 03:05:03 15 C 11.93 g/m*3 15 C 0 km/h
257 29-07-2010 03:17:03 14.8 C 11.91 g/m*3 14.8 C 0 km/h
258 29-07-2010 03:29:03 14.7 C 11.83 g/m*3 14.7 C 0 km/h
259 29-07-2010 03:41:03 14.6 C 11.76 g/m*3 14.6 C 0 km/h
260 29-07-2010 03:53:03 14.7 C 11.83 g/m*3 14.7 C 0 km/h
261 29-07-2010 04:05:03 14.6 C 11.76 g/m*3 14.6 C 0 km/h
262 29-07-2010 04:17:03 14.4 C 11.62 g/m*3 14.4 C 0 km/h
263 29-07-2010 04:29:03 14.3 C 11.55 g/m*3 14.3 C 0 km/h
264 29-07-2010 04:41:03 14.6 C 11.76 g/m*3 14.6 C 0 km/h
265 29-07-2010 04:53:03 14.3 C 11.55 g/m*3 14.3 C 0 km/h
266 29-07-2010 05:05:03 14.1 C 11.41 g/m*3 14.1 C 0 km/h
267 29-07-2010 05:17:03 14.1 C 11.41 g/m*3 14.1 C 0 km/h
268 29-07-2010 05:29:03 14.4 C 11.62 g/m*3 14.4 C 0 km/h
269 29-07-2010 05:41:03 14.7 C 11.83 g/m*3 14.7 C 0 km/h
270 29-07-2010 05:53:03 14.4 C 11.74 g/m*3 14.4 C 0 km/h
271 29-07-2010 06:05:03 14.5 C 11.82 g/m*3 14.5 C 0 km/h
272 29-07-2010 06:17:03 14.6 C 11.89 g/m*3 14.6 C 0 km/h
273 29-07-2010 06:29:04 14.7 C 11.96 g/m*3 14.7 C 0 km/h
274 29-07-2010 06:41:04 14.7 C 11.96 g/m*3 14.7 C 0 km/h
275 29-07-2010 06:53:04 14.6 C 11.89 g/m*3 14.6 C 0 km/h
Sensor: Nr:Datum:Temp:Abs-Feuchte:Windchill:Wind:
Aussen-T/F 276 29-07-2010 07:05:02 14.7 C 11.96 g/m*3 14.7 C 0 km/h
277 29-07-2010 07:17:02 14.8 C 12.03 g/m*3 14.8 C 0 km/h
278 29-07-2010 07:29:02 15 C 12.05 g/m*3 15 C 0 km/h
279 29-07-2010 07:41:02 15 C 12.18 g/m*3 15 C 0 km/h
280 29-07-2010 07:53:02 14.9 C 12.11 g/m*3 14.9 C 0 km/h
281 29-07-2010 08:05:02 14.8 C 12.03 g/m*3 14.8 C 0 km/h
282 29-07-2010 08:17:02 15.2 C 12.33 g/m*3 15.2 C 0 km/h
283 29-07-2010 08:29:02 15.7 C 12.71 g/m*3 15.7 C 0 km/h
284 29-07-2010 08:41:02 15.6 C 12.63 g/m*3 15.6 C 0 km/h
285 29-07-2010 08:53:02 15.6 C 12.63 g/m*3 15.6 C 0 km/h
286 29-07-2010 09:05:02 15.6 C 12.5 g/m*3 15.6 C 0 km/h
287 29-07-2010 09:17:02 15.3 C 12.14 g/m*3 15.3 C 0 km/h
288 29-07-2010 09:29:02 15.4 C 12.22 g/m*3 15.4 C 0 km/h
289 29-07-2010 09:41:02 15.7 C 12.31 g/m*3 15.7 C 0 km/h
290 29-07-2010 09:53:02 15.4 C 11.96 g/m*3 15.4 C 0 km/h
291 29-07-2010 10:05:01 15.2 C 11.68 g/m*3 15.2 C 0 km/h
292 29-07-2010 10:17:02 15.4 C 11.82 g/m*3 15.4 C 0 km/h
293 29-07-2010 10:29:02 15.7 C 12.04 g/m*3 15.7 C 0 km/h
294 29-07-2010 10:41:02 15.1 C 11.48 g/m*3 15.1 C 0 km/h
295 29-07-2010 10:53:02 14.7 C 11.33 g/m*3 14.7 C 0 km/h
296 29-07-2010 11:05:03 14.8 C 11.53 g/m*3 14.8 C 0 km/h
297 29-07-2010 11:17:02 13.9 C 10.91 g/m*3 13.9 C 0 km/h
298 29-07-2010 11:29:02 14.3 C 11.18 g/m*3 14.3 C 0 km/h
299 29-07-2010 11:41:02 15.1 C 11.74 g/m*3 15.1 C 0 km/h
300 29-07-2010 11:53:01 15.1 C 11.74 g/m*3 15.1 C 0 km/h
Sensor: Nr:Datum:Temp:Abs-Feuchte:Windchill:Wind:
Aussen-T/F 301 29-07-2010 12:05:02 16.2 C 12.41 g/m*3 16.2 C 0 km/h
302 29-07-2010 12:17:01 17.2 C 12.89 g/m*3 17.2 C 0 km/h
303 29-07-2010 12:29:01 17.5 C 12.82 g/m*3 17.5 C 0 km/h
304 29-07-2010 12:41:01 17.7 C 12.52 g/m*3 17.7 C 0 km/h
305 29-07-2010 12:53:01 17.8 C 12.29 g/m*3 17.8 C 0 km/h
306 29-07-2010 13:05:01 18.1 C 12.05 g/m*3 18.1 C 0 km/h
307 29-07-2010 13:17:02 19.1 C 11.97 g/m*3 19.1 C 0 km/h
308 29-07-2010 13:29:02 19.9 C 11 g/m*3 19.9 C 0 km/h
309 29-07-2010 13:41:01 18.7 C 10.25 g/m*3 18.7 C 0 km/h
310 29-07-2010 13:53:03 16.4 C 10.19 g/m*3 16.4 C 0 km/h
311 29-07-2010 14:05:02 16.4 C 11.03 g/m*3 16.4 C 0 km/h
312 29-07-2010 14:17:02 16.6 C 11.16 g/m*3 16.6 C 0 km/h
313 29-07-2010 14:29:02 17.4 C 11.12 g/m*3 17.4 C 0 km/h
314 29-07-2010 14:41:02 19.1 C 11.31 g/m*3 19.1 C 0 km/h
315 29-07-2010 14:53:02 19.3 C 9.79 g/m*3 19.3 C 0 km/h
316 29-07-2010 15:05:01 19.2 C 9.73 g/m*3 19.2 C 0 km/h
317 29-07-2010 15:17:02 19 C 9.94 g/m*3 19 C 0 km/h
318 29-07-2010 15:29:02 17.5 C 10.59 g/m*3 17.5 C 0 km/h
319 29-07-2010 15:41:02 17.3 C 11.05 g/m*3 17.3 C 0 km/h
320 29-07-2010 15:53:02 18.2 C 12.28 g/m*3 18.2 C 0 km/h
321 29-07-2010 16:05:03 19.7 C 12.57 g/m*3 19.7 C 0 km/h
322 29-07-2010 16:17:02 21.1 C 11.61 g/m*3 21.1 C 0 km/h
323 29-07-2010 16:29:02 21.8 C 11.13 g/m*3 21.8 C 0 km/h
324 29-07-2010 16:41:02 18.8 C 9.66 g/m*3 18.8 C 0 km/h
325 29-07-2010 16:53:01 16.8 C 9.72 g/m*3 16.8 C 0 km/h
Sensor: Nr:Datum:Temp:Abs-Feuchte:Windchill:Wind:
Aussen-T/F 326 29-07-2010 17:05:02 16.1 C 10.01 g/m*3 16.1 C 0 km/h
327 29-07-2010 17:17:01 16.7 C 11.37 g/m*3 16.7 C 0 km/h
328 29-07-2010 17:29:01 17.7 C 11.92 g/m*3 17.7 C 0 km/h
329 29-07-2010 17:41:01 17.8 C 11.38 g/m*3 17.8 C 0 km/h
330 29-07-2010 17:53:01 17.3 C 11.2 g/m*3 17.3 C 0 km/h
331 29-07-2010 18:05:01 17.3 C 11.05 g/m*3 17.3 C 0 km/h
332 29-07-2010 18:17:02 17.4 C 11.12 g/m*3 17.4 C 0 km/h
333 29-07-2010 18:29:02 17.8 C 11.38 g/m*3 17.8 C 0 km/h
334 29-07-2010 18:41:01 18.1 C 11.59 g/m*3 18.1 C 0 km/h
335 29-07-2010 18:53:03 18.5 C 11.39 g/m*3 18.5 C 0 km/h
336 29-07-2010 19:05:02 18.1 C 10.51 g/m*3 18.1 C 0 km/h
337 29-07-2010 19:17:02 18 C 9.52 g/m*3 18 C 0 km/h
338 29-07-2010 19:29:02 18.5 C 9.65 g/m*3 18.5 C 0 km/h
339 29-07-2010 19:41:02 18.7 C 9.45 g/m*3 18.7 C 0 km/h
340 29-07-2010 19:53:02 18.4 C 9.28 g/m*3 18.4 C 0 km/h
341 29-07-2010 20:05:02 17.9 C 9.77 g/m*3 17.9 C 0 km/h
342 29-07-2010 20:17:02 17.7 C 9.66 g/m*3 17.7 C 0 km/h
343 29-07-2010 20:29:02 17.7 C 9.66 g/m*3 17.7 C 0 km/h
344 29-07-2010 20:41:02 17.5 C 9.39 g/m*3 17.5 C 0 km/h
345 29-07-2010 20:53:02 17.2 C 9.08 g/m*3 17.2 C 0 km/h
346 29-07-2010 21:05:02 16.8 C 9.15 g/m*3 16.8 C 0 km/h
347 29-07-2010 21:17:02 16.1 C 9.6 g/m*3 16.1 C 0 km/h
348 29-07-2010 21:29:02 15.9 C 10.16 g/m*3 15.9 C 0 km/h
349 29-07-2010 21:41:01 15.8 C 10.36 g/m*3 15.8 C 0 km/h
350 29-07-2010 21:53:02 15.6 C 10.24 g/m*3 15.6 C 0 km/h
Sensor: Nr:Datum:Temp:Abs-Feuchte:Windchill:Wind:
Aussen-T/F 351 29-07-2010 22:06:03 15.6 C 10.37 g/m*3 15.6 C 0 km/h
352 29-07-2010 22:18:03 15.6 C 9.97 g/m*3 15.6 C 0 km/h
353 29-07-2010 22:30:03 15.7 C 9.77 g/m*3 15.7 C 0 km/h
354 29-07-2010 22:42:03 15.7 C 9.77 g/m*3 15.7 C 0 km/h
355 29-07-2010 22:54:03 15.7 C 9.63 g/m*3 15.7 C 0 km/h
356 29-07-2010 23:06:03 15.7 C 9.63 g/m*3 15.7 C 0 km/h
357 29-07-2010 23:18:03 15.8 C 9.56 g/m*3 15.8 C 0 km/h
358 29-07-2010 23:30:03 15.8 C 9.56 g/m*3 15.8 C 0 km/h
359 29-07-2010 23:42:03 15.8 C 9.56 g/m*3 15.8 C 0 km/h
360 29-07-2010 23:54:03 15.4 C 9.72 g/m*3 15.4 C 0 km/h
361 30-07-2010 00:06:03 15.2 C 9.73 g/m*3 15.2 C 0 km/h
362 30-07-2010 00:18:04 15.2 C 9.86 g/m*3 15.2 C 0 km/h
363 30-07-2010 00:30:04 15.2 C 9.86 g/m*3 15.2 C 0 km/h
364 30-07-2010 00:42:04 15.2 C 9.86 g/m*3 15.2 C 0 km/h
365 30-07-2010 00:54:04 15.2 C 9.86 g/m*3 15.2 C 0 km/h
366 30-07-2010 01:06:04 15.2 C 9.86 g/m*3 15.2 C 0 km/h
367 30-07-2010 01:18:04 15.3 C 9.92 g/m*3 15.3 C 0 km/h
368 30-07-2010 01:30:04 15.2 C 9.86 g/m*3 15.2 C 0 km/h
369 30-07-2010 01:42:04 15.2 C 9.86 g/m*3 15.2 C 0 km/h
370 30-07-2010 01:54:04 15.1 C 9.8 g/m*3 15.1 C 0 km/h
371 30-07-2010 02:06:04 15.1 C 9.8 g/m*3 15.1 C 0 km/h
372 30-07-2010 02:18:04 14.9 C 9.94 g/m*3 14.9 C 0 km/h
373 30-07-2010 02:30:04 14.8 C 10.01 g/m*3 14.8 C 0 km/h
374 30-07-2010 02:42:04 14.5 C 9.83 g/m*3 14.5 C 0 km/h
375 30-07-2010 02:54:04 14.4 C 9.89 g/m*3 14.4 C 0 km/h
Sensor: Nr:Datum:Temp:Abs-Feuchte:Windchill:Wind:
Aussen-T/F 376 30-07-2010 03:06:04 14.4 C 10.01 g/m*3 14.4 C 0 km/h
377 30-07-2010 03:18:04 14.6 C 10.26 g/m*3 14.6 C 0 km/h
378 30-07-2010 03:30:04 14.8 C 10.39 g/m*3 14.8 C 0 km/h
379 30-07-2010 03:42:04 14.6 C 10.26 g/m*3 14.6 C 0 km/h
380 30-07-2010 03:54:04 14.6 C 10.26 g/m*3 14.6 C 0 km/h
381 30-07-2010 04:06:04 14.5 C 10.32 g/m*3 14.5 C 0 km/h
382 30-07-2010 04:18:05 14.5 C 10.32 g/m*3 14.5 C 0 km/h
383 30-07-2010 04:30:05 14.4 C 10.38 g/m*3 14.4 C 0 km/h
384 30-07-2010 04:42:05 14.3 C 10.44 g/m*3 14.3 C 0 km/h
385 30-07-2010 04:54:05 14.4 C 10.51 g/m*3 14.4 C 0 km/h
386 30-07-2010 05:06:05 14.6 C 10.64 g/m*3 14.6 C 0 km/h
387 30-07-2010 05:18:05 14.7 C 10.58 g/m*3 14.7 C 0 km/h
388 30-07-2010 05:30:05 14.7 C 10.58 g/m*3 14.7 C 0 km/h
389 30-07-2010 05:42:05 14.7 C 10.58 g/m*3 14.7 C 0 km/h
390 30-07-2010 05:54:05 14.8 C 10.64 g/m*3 14.8 C 0 km/h
391 30-07-2010 06:06:05 14.8 C 10.51 g/m*3 14.8 C 0 km/h
392 30-07-2010 06:18:02 14.7 C 10.45 g/m*3 14.7 C 0 km/h
393 30-07-2010 06:30:02 14.7 C 10.58 g/m*3 14.7 C 0 km/h
394 30-07-2010 06:42:03 14.8 C 10.51 g/m*3 14.8 C 0 km/h
395 30-07-2010 06:54:02 14.8 C 10.51 g/m*3 14.8 C 0 km/h
396 30-07-2010 07:06:02 14.9 C 10.58 g/m*3 14.9 C 0 km/h
397 30-07-2010 07:18:02 15.1 C 10.45 g/m*3 15.1 C 0 km/h
398 30-07-2010 07:30:02 15.3 C 10.58 g/m*3 15.3 C 0 km/h
399 30-07-2010 07:42:02 15.2 C 10.38 g/m*3 15.2 C 0 km/h
400 30-07-2010 07:54:02 15.4 C 10.64 g/m*3 15.4 C 0 km/h
Sensor: Nr:Datum:Temp:Abs-Feuchte:Windchill:Wind:
Aussen-T/F 401 30-07-2010 08:06:02 15.6 C 10.64 g/m*3 15.6 C 0 km/h
402 30-07-2010 08:18:02 15.8 C 10.63 g/m*3 15.8 C 0 km/h
403 30-07-2010 08:30:02 16.2 C 10.62 g/m*3 16.2 C 0 km/h
404 30-07-2010 08:42:01 16.6 C 10.59 g/m*3 16.6 C 0 km/h
405 30-07-2010 08:54:02 17.2 C 10.25 g/m*3 17.2 C 0 km/h
406 30-07-2010 09:06:01 17.3 C 9.72 g/m*3 17.3 C 0 km/h
407 30-07-2010 09:18:01 16.7 C 9.81 g/m*3 16.7 C 0 km/h
408 30-07-2010 09:30:01 16.4 C 9.91 g/m*3 16.4 C 0 km/h
409 30-07-2010 09:42:02 17.7 C 10.11 g/m*3 17.7 C 0 km/h
410 30-07-2010 09:54:02 18.2 C 9.33 g/m*3 18.2 C 0 km/h
411 30-07-2010 10:06:01 18 C 9.06 g/m*3 18 C 0 km/h
412 30-07-2010 10:18:01 19.5 C 9.06 g/m*3 19.5 C 0 km/h
413 30-07-2010 10:30:02 19.1 C 9.02 g/m*3 19.1 C 0 km/h
414 30-07-2010 10:42:01 18.9 C 8.91 g/m*3 18.9 C 0 km/h
415 30-07-2010 10:54:02 19.5 C 8.89 g/m*3 19.5 C 0 km/h
416 30-07-2010 11:06:02 19.8 C 8.71 g/m*3 19.8 C 0 km/h
417 30-07-2010 11:18:02 21.1 C 8.66 g/m*3 21.1 C 0 km/h
418 30-07-2010 11:30:02 22.6 C 8.64 g/m*3 22.6 C 0 km/h
419 30-07-2010 11:42:02 23.8 C 8.17 g/m*3 23.8 C 0 km/h
420 30-07-2010 11:54:01 22.7 C 7.27 g/m*3 22.7 C 0 km/h
421 30-07-2010 12:06:02 21.1 C 7.74 g/m*3 21.1 C 0 km/h
422 30-07-2010 12:18:01 21 C 8.24 g/m*3 21 C 0 km/h
423 30-07-2010 12:30:01 21.3 C 8.39 g/m*3 21.3 C 0 km/h
424 30-07-2010 12:42:01 21.7 C 8.97 g/m*3 21.7 C 0 km/h
425 30-07-2010 12:54:01 22.6 C 8.24 g/m*3 22.6 C 0 km/h
Sensor: Nr:Datum:Temp:Abs-Feuchte:Windchill:Wind:
Aussen-T/F 426 30-07-2010 13:06:02 24.5 C 7.61 g/m*3 24.5 C 0 km/h
427 30-07-2010 13:18:01 26.3 C 7.43 g/m*3 26.3 C 0 km/h
428 30-07-2010 13:30:01 24.2 C 7.26 g/m*3 24.2 C 0 km/h
429 30-07-2010 13:42:01 22.5 C 7.39 g/m*3 22.5 C 0 km/h
430 30-07-2010 13:54:01 22.5 C 7.59 g/m*3 22.5 C 0 km/h
431 30-07-2010 14:06:02 23.3 C 7.32 g/m*3 23.3 C 0 km/h
432 30-07-2010 14:18:02 24.3 C 7.52 g/m*3 24.3 C 0 km/h
433 30-07-2010 14:30:02 24.7 C 7.7 g/m*3 24.7 C 0 km/h
434 30-07-2010 14:42:01 24.8 C 7.97 g/m*3 24.8 C 0 km/h
435 30-07-2010 14:54:02 25.3 C 7.49 g/m*3 25.3 C 0 km/h
436 30-07-2010 15:06:01 25.7 C 7.18 g/m*3 25.7 C 0 km/h
437 30-07-2010 15:18:02 25.5 C 7.1 g/m*3 25.5 C 0 km/h
438 30-07-2010 15:30:02 25.4 C 7.3 g/m*3 25.4 C 0 km/h
439 30-07-2010 15:42:01 24.8 C 7.28 g/m*3 24.8 C 0 km/h
440 30-07-2010 15:54:03 24.3 C 6.86 g/m*3 24.3 C 0 km/h
441 30-07-2010 16:06:02 24.8 C 7.06 g/m*3 24.8 C 0 km/h
442 30-07-2010 16:18:02 26.4 C 6.47 g/m*3 26.4 C 0 km/h
443 30-07-2010 16:30:03 26.4 C 6.47 g/m*3 26.4 C 0 km/h
444 30-07-2010 16:42:02 26.5 C 6.76 g/m*3 26.5 C 0 km/h
445 30-07-2010 16:54:02 25.6 C 6.19 g/m*3 25.6 C 0 km/h
446 30-07-2010 17:06:01 26.9 C 6.91 g/m*3 26.9 C 0 km/h
447 30-07-2010 17:18:02 28.3 C 6.08 g/m*3 28.3 C 0 km/h
448 30-07-2010 17:30:02 26.9 C 6.4 g/m*3 26.9 C 0 km/h
449 30-07-2010 17:42:02 25.8 C 6.26 g/m*3 25.8 C 0 km/h
450 30-07-2010 17:54:02 26.2 C 6.4 g/m*3 26.2 C 0 km/h
Sensor: Nr:Datum:Temp:Abs-Feuchte:Windchill:Wind:
Aussen-T/F 451 30-07-2010 18:06:02 26.6 C 6.04 g/m*3 26.6 C 0 km/h
452 30-07-2010 18:18:02 26.2 C 6.15 g/m*3 26.2 C 0 km/h
453 30-07-2010 18:30:02 26.5 C 6.26 g/m*3 26.5 C 0 km/h
454 30-07-2010 18:42:02 26.8 C 5.85 g/m*3 26.8 C 0 km/h
455 30-07-2010 18:54:01 27.9 C 5.95 g/m*3 27.9 C 0 km/h
456 30-07-2010 19:06:02 27.9 C 6.49 g/m*3 27.9 C 0 km/h
457 30-07-2010 19:18:01 27 C 6.69 g/m*3 27 C 0 km/h
458 30-07-2010 19:30:01 25.9 C 6.54 g/m*3 25.9 C 0 km/h
459 30-07-2010 19:42:01 24.7 C 7.02 g/m*3 24.7 C 0 km/h
460 30-07-2010 19:54:01 24.6 C 7.88 g/m*3 24.6 C 0 km/h
461 30-07-2010 20:06:02 23.7 C 7.49 g/m*3 23.7 C 0 km/h
462 30-07-2010 20:18:02 23.2 C 7.28 g/m*3 23.2 C 0 km/h
463 30-07-2010 20:30:02 22.6 C 7.43 g/m*3 22.6 C 0 km/h
464 30-07-2010 20:42:01 21.9 C 7.72 g/m*3 21.9 C 0 km/h
465 30-07-2010 20:54:01 21.3 C 7.64 g/m*3 21.3 C 0 km/h
466 30-07-2010 21:06:01 20.5 C 7.65 g/m*3 20.5 C 0 km/h
467 30-07-2010 21:18:02 20.2 C 7.87 g/m*3 20.2 C 0 km/h
468 30-07-2010 21:30:02 19.9 C 7.73 g/m*3 19.9 C 0 km/h
469 30-07-2010 21:42:01 19.5 C 7.72 g/m*3 19.5 C 0 km/h
470 30-07-2010 21:54:03 19.1 C 7.54 g/m*3 19.1 C 0 km/h
471 30-07-2010 22:07:51 18.9 C 7.45 g/m*3 18.9 C 0 km/h
472 30-07-2010 22:19:51 18.6 C 7.32 g/m*3 18.6 C 0 km/h
473 30-07-2010 22:31:51 18.6 C 7.32 g/m*3 18.6 C 0 km/h
474 30-07-2010 22:43:51 18.3 C 7.66 g/m*3 18.3 C 0 km/h
475 30-07-2010 22:55:51 18.1 C 7.57 g/m*3 18.1 C 0 km/h
Sensor: Nr:Datum:Temp:Abs-Feuchte:Windchill:Wind:
Aussen-T/F 476 30-07-2010 23:07:52 17.6 C 8.4 g/m*3 17.6 C 0 km/h
477 30-07-2010 23:19:52 17.2 C 8.35 g/m*3 17.2 C 0 km/h
478 30-07-2010 23:31:52 17 C 8.54 g/m*3 17 C 0 km/h
479 30-07-2010 23:43:52 16.7 C 8.81 g/m*3 16.7 C 0 km/h
480 30-07-2010 23:55:52 16.5 C 8.57 g/m*3 16.5 C 0 km/h
481 31-07-2010 00:07:52 16.3 C 8.74 g/m*3 16.3 C 0 km/h
482 31-07-2010 00:19:52 16.2 C 8.69 g/m*3 16.2 C 0 km/h
483 31-07-2010 00:31:52 16 C 8.58 g/m*3 16 C 0 km/h
484 31-07-2010 00:43:52 15.6 C 8.78 g/m*3 15.6 C 0 km/h
485 31-07-2010 00:55:52 15.5 C 8.86 g/m*3 15.5 C 0 km/h
486 31-07-2010 01:07:52 15.3 C 8.88 g/m*3 15.3 C 0 km/h
487 31-07-2010 01:19:52 15 C 8.85 g/m*3 15 C 0 km/h
488 31-07-2010 01:31:52 14.8 C 8.87 g/m*3 14.8 C 0 km/h
489 31-07-2010 01:43:52 14.6 C 8.63 g/m*3 14.6 C 0 km/h
490 31-07-2010 01:55:52 14.5 C 8.71 g/m*3 14.5 C 0 km/h
491 31-07-2010 02:07:52 14.3 C 8.6 g/m*3 14.3 C 0 km/h
492 31-07-2010 02:19:52 14.2 C 8.67 g/m*3 14.2 C 0 km/h
493 31-07-2010 02:31:52 13.9 C 8.63 g/m*3 13.9 C 0 km/h
494 31-07-2010 02:43:52 14 C 8.68 g/m*3 14 C 0 km/h
495 31-07-2010 02:55:52 13.8 C 8.7 g/m*3 13.8 C 0 km/h
496 31-07-2010 03:07:52 13.6 C 8.71 g/m*3 13.6 C 0 km/h
497 31-07-2010 03:19:53 13.4 C 8.6 g/m*3 13.4 C 0 km/h
498 31-07-2010 03:31:53 13.4 C 8.72 g/m*3 13.4 C 0 km/h
499 31-07-2010 03:43:53 13.2 C 8.61 g/m*3 13.2 C 0 km/h
500 31-07-2010 03:55:53 13.1 C 8.56 g/m*3 13.1 C 0 km/h
Sensor: Nr:Datum:Temp:Abs-Feuchte:Windchill:Wind:
Aussen-T/F 501 31-07-2010 04:07:53 12.9 C 8.68 g/m*3 12.9 C 0 km/h
502 31-07-2010 04:19:53 12.8 C 8.62 g/m*3 12.8 C 0 km/h
503 31-07-2010 04:31:53 12.7 C 8.68 g/m*3 12.7 C 0 km/h
504 31-07-2010 04:43:53 12.6 C 8.63 g/m*3 12.6 C 0 km/h
505 31-07-2010 04:55:53 12.5 C 8.69 g/m*3 12.5 C 0 km/h
506 31-07-2010 05:07:53 12.4 C 8.63 g/m*3 12.4 C 0 km/h
507 31-07-2010 05:19:53 12.4 C 8.74 g/m*3 12.4 C 0 km/h
508 31-07-2010 05:31:53 12.2 C 8.63 g/m*3 12.2 C 0 km/h
509 31-07-2010 05:43:53 12.2 C 8.63 g/m*3 12.2 C 0 km/h
510 31-07-2010 05:55:53 12.1 C 8.69 g/m*3 12.1 C 0 km/h
511 31-07-2010 06:07:53 12.1 C 8.79 g/m*3 12.1 C 0 km/h
512 31-07-2010 06:19:53 12 C 8.74 g/m*3 12 C 0 km/h
513 31-07-2010 06:31:53 11.9 C 8.79 g/m*3 11.9 C 0 km/h
514 31-07-2010 06:43:53 12 C 8.74 g/m*3 12 C 0 km/h
515 31-07-2010 06:55:53 12.1 C 8.79 g/m*3 12.1 C 0 km/h
516 31-07-2010 07:07:53 12.1 C 8.9 g/m*3 12.1 C 0 km/h
517 31-07-2010 07:19:54 12.3 C 9.01 g/m*3 12.3 C 0 km/h
518 31-07-2010 07:31:54 12.7 C 9.24 g/m*3 12.7 C 0 km/h
519 31-07-2010 07:43:54 12.9 C 9.24 g/m*3 12.9 C 0 km/h
520 31-07-2010 07:55:54 13 C 9.19 g/m*3 13 C 0 km/h
521 31-07-2010 08:07:54 13.1 C 9.24 g/m*3 13.1 C 0 km/h
522 31-07-2010 08:19:54 13.5 C 9.36 g/m*3 13.5 C 0 km/h
523 31-07-2010 08:31:54 14.1 C 9.34 g/m*3 14.1 C 0 km/h
524 31-07-2010 08:43:54 14.1 C 9.1 g/m*3 14.1 C 0 km/h
525 31-07-2010 08:55:02 14.4 C 9.27 g/m*3 14.4 C 0 km/h
Sensor: Nr:Datum:Temp:Abs-Feuchte:Windchill:Wind:
Aussen-T/F 526 31-07-2010 09:07:02 15.1 C 9.55 g/m*3 15.1 C 0 km/h
527 31-07-2010 09:19:01 15.6 C 9.58 g/m*3 15.6 C 0 km/h
528 31-07-2010 09:31:02 16 C 9.4 g/m*3 16 C 0 km/h
529 31-07-2010 09:43:02 17.2 C 9.67 g/m*3 17.2 C 0 km/h
530 31-07-2010 09:55:02 17.9 C 9.47 g/m*3 17.9 C 0 km/h
531 31-07-2010 10:07:02 19.7 C 9.51 g/m*3 19.7 C 0 km/h
532 31-07-2010 10:19:02 21.2 C 9.45 g/m*3 21.2 C 0 km/h
533 31-07-2010 10:31:02 22.5 C 9.19 g/m*3 22.5 C 0 km/h
534 31-07-2010 10:43:02 23.3 C 8.57 g/m*3 23.3 C 0 km/h
535 31-07-2010 10:55:01 23.3 C 8.15 g/m*3 23.3 C 0 km/h
536 31-07-2010 11:07:01 23.6 C 7.66 g/m*3 23.6 C 0 km/h
537 31-07-2010 11:19:01 23.5 C 7.4 g/m*3 23.5 C 0 km/h
538 31-07-2010 11:31:01 23.2 C 7.28 g/m*3 23.2 C 0 km/h
539 31-07-2010 11:43:01 23.5 C 7.4 g/m*3 23.5 C 0 km/h
540 31-07-2010 11:55:01 23.6 C 7.44 g/m*3 23.6 C 0 km/h
541 31-07-2010 12:07:01 23.6 C 7.02 g/m*3 23.6 C 0 km/h
542 31-07-2010 12:19:02 23.7 C 6.84 g/m*3 23.7 C 0 km/h
543 31-07-2010 12:31:01 24.4 C 6.9 g/m*3 24.4 C 0 km/h
544 31-07-2010 12:43:01 24.4 C 6.68 g/m*3 24.4 C 0 km/h
545 31-07-2010 12:55:02 24.5 C 6.71 g/m*3 24.5 C 0 km/h
546 31-07-2010 13:07:02 25.2 C 6.29 g/m*3 25.2 C 0 km/h
547 31-07-2010 13:19:02 25.3 C 6.55 g/m*3 25.3 C 0 km/h
548 31-07-2010 13:31:03 25.4 C 6.59 g/m*3 25.4 C 0 km/h
549 31-07-2010 13:43:03 25.8 C 6.74 g/m*3 25.8 C 0 km/h
550 31-07-2010 13:55:02 26.1 C 6.61 g/m*3 26.1 C 0 km/h
Sensor: Nr:Datum:Temp:Abs-Feuchte:Windchill:Wind:
Aussen-T/F 551 31-07-2010 14:07:02 26.8 C 6.36 g/m*3 26.8 C 0 km/h
552 31-07-2010 14:19:02 26.3 C 6.44 g/m*3 26.3 C 0 km/h
553 31-07-2010 14:31:02 27 C 6.69 g/m*3 27 C 0 km/h
554 31-07-2010 14:43:02 26.9 C 6.91 g/m*3 26.9 C 0 km/h
555 31-07-2010 14:55:02 27.2 C 6.77 g/m*3 27.2 C 0 km/h
556 31-07-2010 15:07:02 27.1 C 6.73 g/m*3 27.1 C 0 km/h
557 31-07-2010 15:19:02 27.9 C 6.76 g/m*3 27.9 C 0 km/h
558 31-07-2010 15:31:02 28.1 C 5.74 g/m*3 28.1 C 0 km/h
559 31-07-2010 15:43:02 27.7 C 6.15 g/m*3 27.7 C 0 km/h
560 31-07-2010 15:55:01 28.6 C 6.18 g/m*3 28.6 C 0 km/h
561 31-07-2010 16:07:01 29.3 C 6.13 g/m*3 29.3 C 0 km/h
562 31-07-2010 16:19:02 28.9 C 6 g/m*3 28.9 C 0 km/h
563 31-07-2010 16:31:01 29.4 C 5.87 g/m*3 29.4 C 0 km/h
564 31-07-2010 16:43:01 30.1 C 6.1 g/m*3 30.1 C 0 km/h
565 31-07-2010 16:55:01 29.5 C 5.9 g/m*3 29.5 C 0 km/h
566 31-07-2010 17:07:01 29 C 5.74 g/m*3 29 C 0 km/h
567 31-07-2010 17:19:02 30.1 C 6.1 g/m*3 30.1 C 0 km/h
568 31-07-2010 17:31:01 30 C 6.06 g/m*3 30 C 0 km/h
569 31-07-2010 17:43:01 30 C 6.06 g/m*3 30 C 0 km/h
570 31-07-2010 17:55:02 30.1 C 6.1 g/m*3 30.1 C 0 km/h
571 31-07-2010 18:07:02 30.2 C 6.13 g/m*3 30.2 C 0 km/h
572 31-07-2010 18:19:02 30.1 C 6.1 g/m*3 30.1 C 0 km/h
573 31-07-2010 18:31:02 29.9 C 6.03 g/m*3 29.9 C 0 km/h
574 31-07-2010 18:43:02 29.6 C 5.94 g/m*3 29.6 C 0 km/h
575 31-07-2010 18:55:02 29.5 C 6.2 g/m*3 29.5 C 0 km/h
Sensor: Nr:Datum:Temp:Abs-Feuchte:Windchill:Wind:
Aussen-T/F 576 31-07-2010 19:07:02 29.9 C 6.33 g/m*3 29.9 C 0 km/h
577 31-07-2010 19:19:02 29 C 6.61 g/m*3 29 C 0 km/h
578 31-07-2010 19:31:02 27.6 C 7.45 g/m*3 27.6 C 0 km/h
579 31-07-2010 19:43:02 26.8 C 7.89 g/m*3 26.8 C 0 km/h
580 31-07-2010 19:55:02 26.1 C 7.59 g/m*3 26.1 C 0 km/h
581 31-07-2010 20:07:02 25.6 C 8.09 g/m*3 25.6 C 0 km/h
582 31-07-2010 20:19:02 25.2 C 7.92 g/m*3 25.2 C 0 km/h
583 31-07-2010 20:31:02 24.5 C 8.28 g/m*3 24.5 C 0 km/h
584 31-07-2010 20:43:02 24 C 8.27 g/m*3 24 C 0 km/h
585 31-07-2010 20:55:02 23.7 C 8.34 g/m*3 23.7 C 0 km/h
586 31-07-2010 21:07:02 23.3 C 8.36 g/m*3 23.3 C 0 km/h
587 31-07-2010 21:19:02 23.1 C 8.27 g/m*3 23.1 C 0 km/h
588 31-07-2010 21:31:02 23.1 C 8.27 g/m*3 23.1 C 0 km/h
589 31-07-2010 21:43:02 23 C 8.43 g/m*3 23 C 0 km/h
590 31-07-2010 21:55:01 22.7 C 8.69 g/m*3 22.7 C 0 km/h
591 31-07-2010 22:07:01 22.5 C 8.99 g/m*3 22.5 C 0 km/h
592 31-07-2010 22:19:01 22.2 C 8.83 g/m*3 22.2 C 0 km/h
593 31-07-2010 22:31:01 22.2 C 8.64 g/m*3 22.2 C 0 km/h
594 31-07-2010 22:43:01 22.4 C 8.74 g/m*3 22.4 C 0 km/h
595 31-07-2010 22:55:02 20.8 C 10.5 g/m*3 20.8 C 0 km/h
596 31-07-2010 23:07:02 19.9 C 12.03 g/m*3 19.9 C 0 km/h
597 31-07-2010 23:19:02 20.3 C 11.78 g/m*3 20.3 C 0 km/h
598 31-07-2010 23:31:02 20.7 C 11.88 g/m*3 20.7 C 0 km/h
599 31-07-2010 23:43:02 20.8 C 11.59 g/m*3 20.8 C 0 km/h
600 31-07-2010 23:55:01 20.8 C 11.41 g/m*3 20.8 C 0 km/h
Sensor: Nr:Datum:Temp:Abs-Feuchte:Windchill:Wind:
Aussen-T/F 601 01-08-2010 00:07:02 19.5 C 11.92 g/m*3 19.5 C 0 km/h
602 01-08-2010 00:20:02 19.3 C 12.44 g/m*3 19.3 C 0 km/h
603 01-08-2010 00:32:02 19.6 C 12.66 g/m*3 19.6 C 0 km/h
604 01-08-2010 00:44:02 19.5 C 12.42 g/m*3 19.5 C 0 km/h
605 01-08-2010 00:56:02 19.1 C 12.46 g/m*3 19.1 C 0 km/h
606 01-08-2010 01:08:02 18.3 C 12.66 g/m*3 18.3 C 0 km/h
607 01-08-2010 01:20:02 18.1 C 12.98 g/m*3 18.1 C 0 km/h
608 01-08-2010 01:32:02 18.3 C 13.29 g/m*3 18.3 C 0 km/h
609 01-08-2010 01:44:02 18.5 C 13.45 g/m*3 18.5 C 0 km/h
610 01-08-2010 01:56:02 18.1 C 13.13 g/m*3 18.1 C 0 km/h
611 01-08-2010 02:08:02 18.1 C 13.29 g/m*3 18.1 C 0 km/h
612 01-08-2010 02:20:02 18.2 C 13.52 g/m*3 18.2 C 0 km/h
613 01-08-2010 02:32:02 18.1 C 13.29 g/m*3 18.1 C 0 km/h
614 01-08-2010 02:44:02 18.2 C 13.52 g/m*3 18.2 C 0 km/h
615 01-08-2010 02:56:03 17.9 C 13.28 g/m*3 17.9 C 0 km/h
616 01-08-2010 03:08:03 18 C 13.21 g/m*3 18 C 0 km/h
617 01-08-2010 03:20:03 18 C 13.21 g/m*3 18 C 0 km/h
618 01-08-2010 03:32:03 18 C 13.21 g/m*3 18 C 0 km/h
619 01-08-2010 03:44:03 17.9 C 13.13 g/m*3 17.9 C 0 km/h
620 01-08-2010 03:56:03 18 C 13.06 g/m*3 18 C 0 km/h
621 01-08-2010 04:08:03 17.9 C 12.98 g/m*3 17.9 C 0 km/h
622 01-08-2010 04:20:03 17.9 C 12.98 g/m*3 17.9 C 0 km/h
623 01-08-2010 04:32:03 17.8 C 12.9 g/m*3 17.8 C 0 km/h
624 01-08-2010 04:44:03 17.8 C 12.9 g/m*3 17.8 C 0 km/h
625 01-08-2010 04:56:03 17.8 C 12.9 g/m*3 17.8 C 0 km/h
Sensor: Nr:Datum:Temp:Abs-Feuchte:Windchill:Wind:
Aussen-T/F 626 01-08-2010 05:08:03 18 C 12.9 g/m*3 18 C 0 km/h
627 01-08-2010 05:20:03 18 C 12.75 g/m*3 18 C 0 km/h
628 01-08-2010 05:32:03 17.8 C 12.75 g/m*3 17.8 C 0 km/h
629 01-08-2010 05:44:03 17.6 C 12.75 g/m*3 17.6 C 0 km/h
630 01-08-2010 05:56:03 17.2 C 12.74 g/m*3 17.2 C 0 km/h
631 01-08-2010 06:08:04 17.3 C 12.96 g/m*3 17.3 C 0 km/h
632 01-08-2010 06:20:04 17.2 C 12.89 g/m*3 17.2 C 0 km/h
633 01-08-2010 06:32:04 17.3 C 13.11 g/m*3 17.3 C 0 km/h
634 01-08-2010 06:44:04 17.6 C 13.35 g/m*3 17.6 C 0 km/h
635 01-08-2010 06:56:04 17.7 C 13.43 g/m*3 17.7 C 0 km/h
636 01-08-2010 07:08:04 17.9 C 13.59 g/m*3 17.9 C 0 km/h
637 01-08-2010 07:20:04 18.1 C 13.6 g/m*3 18.1 C 0 km/h
638 01-08-2010 07:32:04 18.4 C 13.84 g/m*3 18.4 C 0 km/h
639 01-08-2010 07:44:04 18.4 C 13.68 g/m*3 18.4 C 0 km/h
640 01-08-2010 07:56:04 18.9 C 13.93 g/m*3 18.9 C 0 km/h
641 01-08-2010 08:08:04 19.2 C 13.85 g/m*3 19.2 C 0 km/h
642 01-08-2010 08:20:04 19.5 C 13.93 g/m*3 19.5 C 0 km/h
643 01-08-2010 08:32:04 19.6 C 13.84 g/m*3 19.6 C 0 km/h
644 01-08-2010 08:44:04 20 C 13.65 g/m*3 20 C 0 km/h
645 01-08-2010 08:56:04 20.1 C 13.56 g/m*3 20.1 C 0 km/h
646 01-08-2010 09:08:03 20.2 C 13.46 g/m*3 20.2 C 0 km/h
647 01-08-2010 09:20:02 20.9 C 13.84 g/m*3 20.9 C 0 km/h
648 01-08-2010 09:32:03 21.1 C 13.63 g/m*3 21.1 C 0 km/h
649 01-08-2010 09:44:03 21 C 13.37 g/m*3 21 C 0 km/h
650 01-08-2010 09:56:01 21.1 C 13.45 g/m*3 21.1 C 0 km/h
Sensor: Nr:Datum:Temp:Abs-Feuchte:Windchill:Wind:
Aussen-T/F 651 01-08-2010 10:08:02 21.2 C 13.53 g/m*3 21.2 C 0 km/h
652 01-08-2010 10:20:02 21.5 C 13.77 g/m*3 21.5 C 0 km/h
653 01-08-2010 10:32:01 21.6 C 13.66 g/m*3 21.6 C 0 km/h
654 01-08-2010 10:44:01 22.2 C 13.35 g/m*3 22.2 C 0 km/h
655 01-08-2010 10:56:03 23.2 C 13.51 g/m*3 23.2 C 0 km/h
656 01-08-2010 11:08:03 23.3 C 13.38 g/m*3 23.3 C 0 km/h
657 01-08-2010 11:20:02 23.6 C 12.97 g/m*3 23.6 C 0 km/h
658 01-08-2010 11:32:02 24.3 C 13.06 g/m*3 24.3 C 0 km/h
659 01-08-2010 11:44:02 24.5 C 12.98 g/m*3 24.5 C 0 km/h
660 01-08-2010 11:56:02 24.6 C 12.15 g/m*3 24.6 C 0 km/h
661 01-08-2010 12:08:02 24.8 C 12.29 g/m*3 24.8 C 0 km/h
662 01-08-2010 12:20:01 24.6 C 10.13 g/m*3 24.6 C 0 km/h
663 01-08-2010 12:32:02 25.3 C 10.77 g/m*3 25.3 C 0 km/h
664 01-08-2010 12:44:02 25.9 C 10.17 g/m*3 25.9 C 0 km/h
665 01-08-2010 12:56:02 26.7 C 10.12 g/m*3 26.7 C 0 km/h
666 01-08-2010 13:08:02 27 C 9.52 g/m*3 27 C 0 km/h
667 01-08-2010 13:20:02 26.8 C 9.42 g/m*3 26.8 C 0 km/h
668 01-08-2010 13:32:02 27.6 C 9.58 g/m*3 27.6 C 0 km/h
669 01-08-2010 13:44:02 28.8 C 9.94 g/m*3 28.8 C 0 km/h
670 01-08-2010 13:56:02 29 C 8.62 g/m*3 29 C 0 km/h
671 01-08-2010 14:08:02 29.4 C 8.81 g/m*3 29.4 C 0 km/h
672 01-08-2010 14:20:02 28.6 C 8.15 g/m*3 28.6 C 0 km/h
673 01-08-2010 14:32:02 28.6 C 7.87 g/m*3 28.6 C 0 km/h
674 01-08-2010 14:44:02 29.4 C 7.63 g/m*3 29.4 C 0 km/h
675 01-08-2010 14:56:02 29.1 C 7.22 g/m*3 29.1 C 0 km/h
Sensor: Nr:Datum:Temp:Abs-Feuchte:Windchill:Wind:
Aussen-T/F 676 01-08-2010 15:08:02 29 C 7.47 g/m*3 29 C 0 km/h
677 01-08-2010 15:20:02 30 C 7.28 g/m*3 30 C 0 km/h
678 01-08-2010 15:32:02 30 C 6.97 g/m*3 30 C 0 km/h
679 01-08-2010 15:44:02 30.2 C 7.36 g/m*3 30.2 C 0 km/h
680 01-08-2010 15:56:02 31 C 7.04 g/m*3 31 C 0 km/h
681 01-08-2010 16:08:01 30.9 C 6.68 g/m*3 30.9 C 0 km/h
682 01-08-2010 16:20:02 30.7 C 6.93 g/m*3 30.7 C 0 km/h
683 01-08-2010 16:32:02 30.2 C 7.36 g/m*3 30.2 C 0 km/h
684 01-08-2010 16:44:02 30.6 C 7.2 g/m*3 30.6 C 0 km/h
685 01-08-2010 16:56:01 30.9 C 7.32 g/m*3 30.9 C 0 km/h
686 01-08-2010 17:08:02 31 C 6.72 g/m*3 31 C 0 km/h
687 01-08-2010 17:20:01 30.7 C 7.24 g/m*3 30.7 C 0 km/h
688 01-08-2010 17:32:01 30 C 7.58 g/m*3 30 C 0 km/h
689 01-08-2010 17:44:02 29.3 C 7.88 g/m*3 29.3 C 0 km/h
690 01-08-2010 17:56:02 29.5 C 7.67 g/m*3 29.5 C 0 km/h
691 01-08-2010 18:08:02 29 C 7.47 g/m*3 29 C 0 km/h
692 01-08-2010 18:20:02 29.4 C 7.93 g/m*3 29.4 C 0 km/h
693 01-08-2010 18:32:02 28.7 C 7.63 g/m*3 28.7 C 0 km/h
694 01-08-2010 18:44:02 27.6 C 9.31 g/m*3 27.6 C 0 km/h
695 01-08-2010 18:56:02 27.1 C 9.32 g/m*3 27.1 C 0 km/h
696 01-08-2010 19:08:02 26.8 C 9.42 g/m*3 26.8 C 0 km/h
697 01-08-2010 19:20:02 26.4 C 9.21 g/m*3 26.4 C 0 km/h
698 01-08-2010 19:32:02 25.5 C 9.47 g/m*3 25.5 C 0 km/h
699 01-08-2010 19:44:02 25.3 C 9.6 g/m*3 25.3 C 0 km/h
700 01-08-2010 19:56:01 25.4 C 9.65 g/m*3 25.4 C 0 km/h
Sensor: Nr:Datum:Temp:Abs-Feuchte:Windchill:Wind:
Aussen-T/F 701 01-08-2010 20:08:01 25.2 C 9.78 g/m*3 25.2 C 0 km/h
702 01-08-2010 20:20:02 24.8 C 10.02 g/m*3 24.8 C 0 km/h
703 01-08-2010 20:32:01 24.5 C 10.3 g/m*3 24.5 C 0 km/h
704 01-08-2010 20:44:01 24.4 C 10.46 g/m*3 24.4 C 0 km/h
705 01-08-2010 20:56:03 24.3 C 10.62 g/m*3 24.3 C 0 km/h
706 01-08-2010 21:08:02 23.7 C 9.84 g/m*3 23.7 C 0 km/h
707 01-08-2010 21:20:02 23.6 C 10 g/m*3 23.6 C 0 km/h
708 01-08-2010 21:32:03 23.3 C 10.04 g/m*3 23.3 C 0 km/h
709 01-08-2010 21:44:03 22.7 C 9.7 g/m*3 22.7 C 0 km/h
710 01-08-2010 21:57:02 22.5 C 9.59 g/m*3 22.5 C 0 km/h
711 01-08-2010 22:09:02 22.3 C 9.48 g/m*3 22.3 C 0 km/h
712 01-08-2010 22:21:02 22.2 C 9.42 g/m*3 22.2 C 0 km/h
713 01-08-2010 22:33:03 22 C 9.32 g/m*3 22 C 0 km/h
714 01-08-2010 22:45:03 21.6 C 9.67 g/m*3 21.6 C 0 km/h
715 01-08-2010 22:57:03 21.7 C 9.73 g/m*3 21.7 C 0 km/h
716 01-08-2010 23:09:03 21.6 C 9.86 g/m*3 21.6 C 0 km/h
717 01-08-2010 23:21:03 21.4 C 9.94 g/m*3 21.4 C 0 km/h
718 01-08-2010 23:33:03 21.2 C 10.01 g/m*3 21.2 C 0 km/h
719 01-08-2010 23:45:03 20.8 C 9.96 g/m*3 20.8 C 0 km/h
720 01-08-2010 23:57:03 20.4 C 10.08 g/m*3 20.4 C 0 km/h
721 02-08-2010 00:09:03 20 C 9.85 g/m*3 20 C 0 km/h
722 02-08-2010 00:21:03 19.7 C 10.02 g/m*3 19.7 C 0 km/h
723 02-08-2010 00:33:03 19.7 C 10.02 g/m*3 19.7 C 0 km/h
724 02-08-2010 00:45:03 19.7 C 10.19 g/m*3 19.7 C 0 km/h
725 02-08-2010 00:57:03 19.6 C 9.96 g/m*3 19.6 C 0 km/h
Sensor: Nr:Datum:Temp:Abs-Feuchte:Windchill:Wind:
Aussen-T/F 726 02-08-2010 01:09:03 19.4 C 10.01 g/m*3 19.4 C 0 km/h
727 02-08-2010 01:21:03 19.4 C 10.34 g/m*3 19.4 C 0 km/h
728 02-08-2010 01:33:03 19.3 C 10.45 g/m*3 19.3 C 0 km/h
729 02-08-2010 01:45:03 19.1 C 10.33 g/m*3 19.1 C 0 km/h
730 02-08-2010 01:57:03 19 C 10.27 g/m*3 19 C 0 km/h
731 02-08-2010 02:09:03 18.9 C 10.37 g/m*3 18.9 C 0 km/h
732 02-08-2010 02:21:03 18.8 C 10.63 g/m*3 18.8 C 0 km/h
733 02-08-2010 02:33:03 18.6 C 10.5 g/m*3 18.6 C 0 km/h
734 02-08-2010 02:45:03 18.5 C 10.6 g/m*3 18.5 C 0 km/h
735 02-08-2010 02:57:03 18.4 C 10.54 g/m*3 18.4 C 0 km/h
736 02-08-2010 03:09:04 18.2 C 10.57 g/m*3 18.2 C 0 km/h
737 02-08-2010 03:21:04 18 C 10.6 g/m*3 18 C 0 km/h
738 02-08-2010 03:33:04 18 C 10.44 g/m*3 18 C 0 km/h
739 02-08-2010 03:45:04 17.8 C 10.78 g/m*3 17.8 C 0 km/h
740 02-08-2010 03:57:04 17.7 C 10.71 g/m*3 17.7 C 0 km/h
741 02-08-2010 04:09:04 17.5 C 10.88 g/m*3 17.5 C 0 km/h
742 02-08-2010 04:21:04 17.1 C 10.92 g/m*3 17.1 C 0 km/h
743 02-08-2010 04:33:04 17.2 C 10.84 g/m*3 17.2 C 0 km/h
744 02-08-2010 04:45:04 16.9 C 10.79 g/m*3 16.9 C 0 km/h
745 02-08-2010 04:57:04 16.8 C 10.87 g/m*3 16.8 C 0 km/h
746 02-08-2010 05:09:02 16.6 C 10.74 g/m*3 16.6 C 0 km/h
747 02-08-2010 05:21:02 16.5 C 10.67 g/m*3 16.5 C 0 km/h
748 02-08-2010 05:33:02 16.3 C 10.54 g/m*3 16.3 C 0 km/h
749 02-08-2010 05:45:02 16 C 10.49 g/m*3 16 C 0 km/h
750 02-08-2010 05:57:02 16.2 C 10.76 g/m*3 16.2 C 0 km/h
Sensor: Nr:Datum:Temp:Abs-Feuchte:Windchill:Wind:
Aussen-T/F 751 02-08-2010 06:09:02 16.4 C 10.89 g/m*3 16.4 C 0 km/h
752 02-08-2010 06:21:02 16.6 C 11.02 g/m*3 16.6 C 0 km/h
753 02-08-2010 06:33:01 16.6 C 10.88 g/m*3 16.6 C 0 km/h
754 02-08-2010 06:45:02 16.4 C 10.89 g/m*3 16.4 C 0 km/h
755 02-08-2010 06:57:02 16.4 C 10.89 g/m*3 16.4 C 0 km/h
756 02-08-2010 07:09:01 16.3 C 10.82 g/m*3 16.3 C 0 km/h
757 02-08-2010 07:21:01 16.4 C 11.03 g/m*3 16.4 C 0 km/h
758 02-08-2010 07:33:02 16.4 C 10.89 g/m*3 16.4 C 0 km/h
759 02-08-2010 07:45:02 16.4 C 11.03 g/m*3 16.4 C 0 km/h
760 02-08-2010 07:57:02 16.4 C 11.03 g/m*3 16.4 C 0 km/h
761 02-08-2010 08:09:02 16.5 C 11.09 g/m*3 16.5 C 0 km/h
762 02-08-2010 08:21:01 16.6 C 11.16 g/m*3 16.6 C 0 km/h
763 02-08-2010 08:33:02 16.9 C 11.36 g/m*3 16.9 C 0 km/h
764 02-08-2010 08:45:02 17 C 11 g/m*3 17 C 0 km/h
765 02-08-2010 08:57:02 17.3 C 11.2 g/m*3 17.3 C 0 km/h
766 02-08-2010 09:09:02 17.8 C 11.38 g/m*3 17.8 C 0 km/h
767 02-08-2010 09:21:02 18.3 C 11.26 g/m*3 18.3 C 0 km/h
768 02-08-2010 09:33:02 18.6 C 11.3 g/m*3 18.6 C 0 km/h
769 02-08-2010 09:45:02 19.1 C 10.82 g/m*3 19.1 C 0 km/h
770 02-08-2010 09:57:02 19.6 C 10.97 g/m*3 19.6 C 0 km/h
771 02-08-2010 10:09:02 20 C 10.89 g/m*3 20 C 0 km/h
772 02-08-2010 10:21:02 20.5 C 10.85 g/m*3 20.5 C 0 km/h
773 02-08-2010 10:33:01 20.8 C 10.68 g/m*3 20.8 C 0 km/h
774 02-08-2010 10:45:02 21.2 C 9.64 g/m*3 21.2 C 0 km/h
775 02-08-2010 10:57:03 21.9 C 10.81 g/m*3 21.9 C 0 km/h
Sensor: Nr:Datum:Temp:Abs-Feuchte:Windchill:Wind:
Aussen-T/F 776 02-08-2010 11:09:02 22.6 C 9.84 g/m*3 22.6 C 0 km/h
777 02-08-2010 11:21:02 23.5 C 9.52 g/m*3 23.5 C 0 km/h
778 02-08-2010 11:33:02 24.1 C 9.19 g/m*3 24.1 C 0 km/h
779 02-08-2010 11:45:01 24.4 C 9.12 g/m*3 24.4 C 0 km/h
780 02-08-2010 11:57:01 24.6 C 8.78 g/m*3 24.6 C 0 km/h
781 02-08-2010 12:09:02 24.8 C 9.1 g/m*3 24.8 C 0 km/h
782 02-08-2010 12:21:01 25.1 C 8.57 g/m*3 25.1 C 0 km/h
783 02-08-2010 12:33:02 25.5 C 8.05 g/m*3 25.5 C 0 km/h
784 02-08-2010 12:45:01 26.1 C 7.59 g/m*3 26.1 C 0 km/h
785 02-08-2010 12:57:01 26.2 C 7.39 g/m*3 26.2 C 0 km/h
786 02-08-2010 13:09:02 25.1 C 7.41 g/m*3 25.1 C 0 km/h
787 02-08-2010 13:21:02 24.2 C 8.14 g/m*3 24.2 C 0 km/h
788 02-08-2010 13:33:01 23.3 C 8.57 g/m*3 23.3 C 0 km/h
789 02-08-2010 13:45:02 22.3 C 9.08 g/m*3 22.3 C 0 km/h
790 02-08-2010 13:57:02 21.5 C 9.62 g/m*3 21.5 C 0 km/h
791 02-08-2010 14:09:01 19.7 C 11.21 g/m*3 19.7 C 0 km/h
792 02-08-2010 14:21:01 19.7 C 11.89 g/m*3 19.7 C 0 km/h
793 02-08-2010 14:33:01 21.1 C 11.24 g/m*3 21.1 C 0 km/h
794 02-08-2010 14:45:02 21.2 C 11.12 g/m*3 21.2 C 0 km/h
795 02-08-2010 14:57:03 20.7 C 10.62 g/m*3 20.7 C 0 km/h
796 02-08-2010 15:09:01 20.6 C 10.92 g/m*3 20.6 C 0 km/h
797 02-08-2010 15:21:02 21.1 C 11.61 g/m*3 21.1 C 0 km/h
798 02-08-2010 15:33:02 21.7 C 11.06 g/m*3 21.7 C 0 km/h
799 02-08-2010 15:45:01 21.7 C 11.06 g/m*3 21.7 C 0 km/h
800 02-08-2010 15:57:01 21.5 C 11.5 g/m*3 21.5 C 0 km/h
Sensor: Nr:Datum:Temp:Abs-Feuchte:Windchill:Wind:
Aussen-T/F 801 02-08-2010 16:09:01 22.4 C 11.92 g/m*3 22.4 C 0 km/h
802 02-08-2010 16:21:01 22.9 C 11.04 g/m*3 22.9 C 0 km/h
803 02-08-2010 16:33:01 23.1 C 10.54 g/m*3 23.1 C 0 km/h
804 02-08-2010 16:45:02 23.4 C 10.51 g/m*3 23.4 C 0 km/h
805 02-08-2010 16:57:02 23.5 C 10.57 g/m*3 23.5 C 0 km/h
806 02-08-2010 17:09:02 24.2 C 10.12 g/m*3 24.2 C 0 km/h
807 02-08-2010 17:21:02 24.1 C 9.85 g/m*3 24.1 C 0 km/h
808 02-08-2010 17:33:03 24.5 C 9.62 g/m*3 24.5 C 0 km/h
809 02-08-2010 17:45:01 24.4 C 9.57 g/m*3 24.4 C 0 km/h
810 02-08-2010 17:57:01 23.8 C 9.68 g/m*3 23.8 C 0 km/h
811 02-08-2010 18:09:02 23 C 9.66 g/m*3 23 C 0 km/h
812 02-08-2010 18:21:02 22.5 C 10.59 g/m*3 22.5 C 0 km/h
813 02-08-2010 18:33:03 20.9 C 11.66 g/m*3 20.9 C 0 km/h
814 02-08-2010 18:45:02 20.3 C 11.96 g/m*3 20.3 C 0 km/h
815 02-08-2010 18:57:02 19.7 C 11.55 g/m*3 19.7 C 0 km/h
816 02-08-2010 19:09:02 20.2 C 12.24 g/m*3 20.2 C 0 km/h
817 02-08-2010 19:21:03 20.5 C 12.63 g/m*3 20.5 C 0 km/h
818 02-08-2010 19:33:02 20 C 12.1 g/m*3 20 C 0 km/h
819 02-08-2010 19:45:02 19.8 C 12.3 g/m*3 19.8 C 0 km/h
820 02-08-2010 19:57:02 19.6 C 12.49 g/m*3 19.6 C 0 km/h
821 02-08-2010 20:09:01 19.2 C 13.03 g/m*3 19.2 C 0 km/h
822 02-08-2010 20:21:02 18.7 C 13.45 g/m*3 18.7 C 0 km/h
823 02-08-2010 20:33:01 18.6 C 13.69 g/m*3 18.6 C 0 km/h
824 02-08-2010 20:45:02 18.2 C 13.52 g/m*3 18.2 C 0 km/h
825 02-08-2010 20:57:03 18.3 C 13.76 g/m*3 18.3 C 0 km/h
Sensor: Nr:Datum:Temp:Abs-Feuchte:Windchill:Wind:
Aussen-T/F 826 02-08-2010 21:09:02 18.2 C 13.68 g/m*3 18.2 C 0 km/h
827 02-08-2010 21:21:02 17.5 C 13.27 g/m*3 17.5 C 0 km/h
828 02-08-2010 21:33:03 17.5 C 13.42 g/m*3 17.5 C 0 km/h
829 02-08-2010 21:46:01 17.4 C 13.49 g/m*3 17.4 C 0 km/h
830 02-08-2010 21:58:01 17.3 C 13.41 g/m*3 17.3 C 0 km/h
831 02-08-2010 22:10:01 17.2 C 13.33 g/m*3 17.2 C 0 km/h
832 02-08-2010 22:22:01 17.4 C 13.49 g/m*3 17.4 C 0 km/h
833 02-08-2010 22:34:01 17.3 C 13.55 g/m*3 17.3 C 0 km/h
834 02-08-2010 22:46:02 17 C 13.17 g/m*3 17 C 0 km/h
835 02-08-2010 22:58:02 16.7 C 13.07 g/m*3 16.7 C 0 km/h
836 02-08-2010 23:10:02 16.4 C 12.7 g/m*3 16.4 C 0 km/h
837 02-08-2010 23:22:02 16.2 C 12.55 g/m*3 16.2 C 0 km/h
838 02-08-2010 23:34:02 15.9 C 12.32 g/m*3 15.9 C 0 km/h
839 02-08-2010 23:46:02 15.8 C 12.25 g/m*3 15.8 C 0 km/h
840 02-08-2010 23:58:02 15.9 C 12.32 g/m*3 15.9 C 0 km/h
841 03-08-2010 00:10:02 15.9 C 12.19 g/m*3 15.9 C 0 km/h
842 03-08-2010 00:22:02 16 C 12.13 g/m*3 16 C 0 km/h
843 03-08-2010 00:34:02 16 C 11.99 g/m*3 16 C 0 km/h
844 03-08-2010 00:46:02 15.9 C 12.05 g/m*3 15.9 C 0 km/h
845 03-08-2010 00:58:02 15.9 C 12.05 g/m*3 15.9 C 0 km/h
846 03-08-2010 01:10:02 15.9 C 12.05 g/m*3 15.9 C 0 km/h
847 03-08-2010 01:22:02 15.9 C 12.05 g/m*3 15.9 C 0 km/h
848 03-08-2010 01:34:02 16 C 11.99 g/m*3 16 C 0 km/h
849 03-08-2010 01:46:02 16 C 11.99 g/m*3 16 C 0 km/h
850 03-08-2010 01:58:02 16 C 11.99 g/m*3 16 C 0 km/h
Sensor: Nr:Datum:Temp:Abs-Feuchte:Windchill:Wind:
Aussen-T/F 851 03-08-2010 02:10:02 15.9 C 11.92 g/m*3 15.9 C 0 km/h
852 03-08-2010 02:22:02 15.7 C 11.77 g/m*3 15.7 C 0 km/h
853 03-08-2010 02:34:02 15.5 C 11.76 g/m*3 15.5 C 0 km/h
854 03-08-2010 02:46:02 15.1 C 11.61 g/m*3 15.1 C 0 km/h
855 03-08-2010 02:58:02 15.1 C 11.74 g/m*3 15.1 C 0 km/h
856 03-08-2010 03:10:02 15.2 C 11.94 g/m*3 15.2 C 0 km/h
857 03-08-2010 03:22:03 15.3 C 12.01 g/m*3 15.3 C 0 km/h
858 03-08-2010 03:34:03 15.3 C 12.14 g/m*3 15.3 C 0 km/h
859 03-08-2010 03:46:03 15.2 C 12.07 g/m*3 15.2 C 0 km/h
860 03-08-2010 03:58:03 15.3 C 12.14 g/m*3 15.3 C 0 km/h
861 03-08-2010 04:10:03 15.2 C 12.07 g/m*3 15.2 C 0 km/h
862 03-08-2010 04:22:03 15 C 11.93 g/m*3 15 C 0 km/h
863 03-08-2010 04:34:03 15 C 12.05 g/m*3 15 C 0 km/h
864 03-08-2010 04:46:03 15 C 12.05 g/m*3 15 C 0 km/h
865 03-08-2010 04:58:03 14.9 C 12.11 g/m*3 14.9 C 0 km/h
866 03-08-2010 05:10:03 14.9 C 12.11 g/m*3 14.9 C 0 km/h
867 03-08-2010 05:22:03 14.9 C 12.11 g/m*3 14.9 C 0 km/h
868 03-08-2010 05:34:03 15 C 12.05 g/m*3 15 C 0 km/h
869 03-08-2010 05:46:03 15 C 12.05 g/m*3 15 C 0 km/h
870 03-08-2010 05:58:03 15 C 12.05 g/m*3 15 C 0 km/h
871 03-08-2010 06:10:03 14.8 C 12.03 g/m*3 14.8 C 0 km/h
872 03-08-2010 06:22:03 14.7 C 11.96 g/m*3 14.7 C 0 km/h
873 03-08-2010 06:34:03 14.6 C 11.89 g/m*3 14.6 C 0 km/h
874 03-08-2010 06:46:03 14.5 C 11.82 g/m*3 14.5 C 0 km/h
875 03-08-2010 06:58:03 14.5 C 11.82 g/m*3 14.5 C 0 km/h
Sensor: Nr:Datum:Temp:Abs-Feuchte:Windchill:Wind:
Aussen-T/F 876 03-08-2010 07:10:02 14.7 C 11.96 g/m*3 14.7 C 0 km/h
877 03-08-2010 07:22:01 15 C 12.18 g/m*3 15 C 0 km/h
878 03-08-2010 07:34:02 15 C 12.18 g/m*3 15 C 0 km/h
879 03-08-2010 07:46:01 15.2 C 12.33 g/m*3 15.2 C 0 km/h
880 03-08-2010 07:58:01 15.4 C 12.48 g/m*3 15.4 C 0 km/h
881 03-08-2010 08:10:02 15.8 C 12.65 g/m*3 15.8 C 0 km/h
882 03-08-2010 08:22:02 15.9 C 12.59 g/m*3 15.9 C 0 km/h
883 03-08-2010 08:34:01 15.8 C 12.38 g/m*3 15.8 C 0 km/h
884 03-08-2010 08:46:02 16.2 C 12.27 g/m*3 16.2 C 0 km/h
885 03-08-2010 08:58:02 16.1 C 11.93 g/m*3 16.1 C 0 km/h
886 03-08-2010 09:10:01 16.4 C 11.86 g/m*3 16.4 C 0 km/h
887 03-08-2010 09:22:02 16.6 C 11.72 g/m*3 16.6 C 0 km/h
888 03-08-2010 09:34:02 16.8 C 11.87 g/m*3 16.8 C 0 km/h
889 03-08-2010 09:46:02 16.9 C 11.65 g/m*3 16.9 C 0 km/h
890 03-08-2010 09:58:02 17.2 C 11.42 g/m*3 17.2 C 0 km/h
891 03-08-2010 10:10:03 18.1 C 11.74 g/m*3 18.1 C 0 km/h
892 03-08-2010 10:22:02 17.9 C 10.84 g/m*3 17.9 C 0 km/h
893 03-08-2010 10:34:03 17.1 C 10.77 g/m*3 17.1 C 0 km/h
894 03-08-2010 10:46:01 17.2 C 10.84 g/m*3 17.2 C 0 km/h
895 03-08-2010 10:58:01 17.9 C 10.99 g/m*3 17.9 C 0 km/h
896 03-08-2010 11:10:02 18.2 C 10.41 g/m*3 18.2 C 0 km/h
897 03-08-2010 11:22:01 18.7 C 10.25 g/m*3 18.7 C 0 km/h
898 03-08-2010 11:34:03 18.8 C 9.5 g/m*3 18.8 C 0 km/h
899 03-08-2010 11:46:03 19.2 C 9.07 g/m*3 19.2 C 0 km/h
900 03-08-2010 11:58:03 19.8 C 8.54 g/m*3 19.8 C 0 km/h
Sensor: Nr:Datum:Temp:Abs-Feuchte:Windchill:Wind:
Aussen-T/F 901 03-08-2010 12:10:02 20.4 C 8.31 g/m*3 20.4 C 0 km/h
902 03-08-2010 12:22:02 21.1 C 7.92 g/m*3 21.1 C 0 km/h
903 03-08-2010 12:34:02 22 C 7.96 g/m*3 22 C 0 km/h
904 03-08-2010 12:46:02 22.1 C 7.42 g/m*3 22.1 C 0 km/h
905 03-08-2010 12:58:02 20.5 C 8.01 g/m*3 20.5 C 0 km/h
906 03-08-2010 13:10:02 20.9 C 8.01 g/m*3 20.9 C 0 km/h
907 03-08-2010 13:22:02 22.8 C 7.11 g/m*3 22.8 C 0 km/h
908 03-08-2010 13:34:02 23.3 C 6.48 g/m*3 23.3 C 0 km/h
909 03-08-2010 13:46:02 21 C 6.78 g/m*3 21 C 0 km/h
910 03-08-2010 13:58:02 18.7 C 9.29 g/m*3 18.7 C 0 km/h
911 03-08-2010 14:10:02 20.2 C 10.49 g/m*3 20.2 C 0 km/h
912 03-08-2010 14:22:01 21.5 C 8.11 g/m*3 21.5 C 0 km/h
913 03-08-2010 14:34:02 21.6 C 7.78 g/m*3 21.6 C 0 km/h
914 03-08-2010 14:46:01 22 C 7.76 g/m*3 22 C 0 km/h
915 03-08-2010 14:58:01 24.1 C 6.78 g/m*3 24.1 C 0 km/h
916 03-08-2010 15:10:02 23.6 C 6.38 g/m*3 23.6 C 0 km/h
917 03-08-2010 15:22:02 24.9 C 6.41 g/m*3 24.9 C 0 km/h
918 03-08-2010 15:34:01 24.2 C 6.16 g/m*3 24.2 C 0 km/h
919 03-08-2010 15:46:02 24.9 C 6.18 g/m*3 24.9 C 0 km/h
920 03-08-2010 15:58:02 23.4 C 6.31 g/m*3 23.4 C 0 km/h
921 03-08-2010 16:10:01 25 C 5.99 g/m*3 25 C 0 km/h
922 03-08-2010 16:22:02 25.1 C 5.79 g/m*3 25.1 C 0 km/h
923 03-08-2010 16:34:01 25.5 C 5.21 g/m*3 25.5 C 0 km/h
924 03-08-2010 16:46:02 26 C 4.87 g/m*3 26 C 0 km/h
925 03-08-2010 16:58:02 25.3 C 4.68 g/m*3 25.3 C 0 km/h
Sensor: Nr:Datum:Temp:Abs-Feuchte:Windchill:Wind:
Aussen-T/F 926 03-08-2010 17:10:02 25.1 C 4.86 g/m*3 25.1 C 0 km/h
927 03-08-2010 17:22:02 25.6 C 5 g/m*3 25.6 C 0 km/h
928 03-08-2010 17:34:02 25.3 C 4.92 g/m*3 25.3 C 0 km/h
929 03-08-2010 17:46:01 26.2 C 4.92 g/m*3 26.2 C 0 km/h
930 03-08-2010 17:58:01 27 C 5.15 g/m*3 27 C 0 km/h
931 03-08-2010 18:10:02 26.6 C 5.03 g/m*3 26.6 C 0 km/h
932 03-08-2010 18:22:01 27.1 C 5.18 g/m*3 27.1 C 0 km/h
933 03-08-2010 18:34:01 26.9 C 5.12 g/m*3 26.9 C 0 km/h
934 03-08-2010 18:46:01 26 C 4.87 g/m*3 26 C 0 km/h
935 03-08-2010 18:58:01 24 C 5.44 g/m*3 24 C 0 km/h
936 03-08-2010 19:10:02 23.1 C 5.79 g/m*3 23.1 C 0 km/h
937 03-08-2010 19:22:01 23.6 C 5.74 g/m*3 23.6 C 0 km/h
938 03-08-2010 19:34:01 24.1 C 6.35 g/m*3 24.1 C 0 km/h
939 03-08-2010 19:46:01 23.9 C 6.06 g/m*3 23.9 C 0 km/h
940 03-08-2010 19:58:01 23.3 C 5.65 g/m*3 23.3 C 0 km/h
941 03-08-2010 20:10:02 23.2 C 5.61 g/m*3 23.2 C 0 km/h
942 03-08-2010 20:22:02 22.6 C 6.23 g/m*3 22.6 C 0 km/h
943 03-08-2010 20:34:01 22 C 7.76 g/m*3 22 C 0 km/h
944 03-08-2010 20:46:02 20.9 C 8.01 g/m*3 20.9 C 0 km/h
945 03-08-2010 20:58:02 19.9 C 8.08 g/m*3 19.9 C 0 km/h
946 03-08-2010 21:10:02 19.1 C 7.38 g/m*3 19.1 C 0 km/h
947 03-08-2010 21:22:01 18.6 C 7.64 g/m*3 18.6 C 0 km/h
948 03-08-2010 21:34:01 18.3 C 7.51 g/m*3 18.3 C 0 km/h
949 03-08-2010 21:46:02 18 C 7.68 g/m*3 18 C 0 km/h
950 03-08-2010 21:58:02 17.6 C 7.8 g/m*3 17.6 C 0 km/h
Sensor: Nr:Datum:Temp:Abs-Feuchte:Windchill:Wind:
Aussen-T/F 951 03-08-2010 22:10:02 17.5 C 8.05 g/m*3 17.5 C 0 km/h
952 03-08-2010 22:22:02 17.5 C 7.9 g/m*3 17.5 C 0 km/h
953 03-08-2010 22:35:04 17.3 C 8.4 g/m*3 17.3 C 0 km/h
954 03-08-2010 22:47:04 17.2 C 8.49 g/m*3 17.2 C 0 km/h
955 03-08-2010 22:59:04 16.8 C 8.58 g/m*3 16.8 C 0 km/h
956 03-08-2010 23:11:04 16.5 C 8.43 g/m*3 16.5 C 0 km/h
957 03-08-2010 23:23:04 16.4 C 8.37 g/m*3 16.4 C 0 km/h
958 03-08-2010 23:35:04 16.1 C 8.36 g/m*3 16.1 C 0 km/h
959 03-08-2010 23:47:04 15.9 C 8.67 g/m*3 15.9 C 0 km/h
960 03-08-2010 23:59:04 15.7 C 8.7 g/m*3 15.7 C 0 km/h
961 04-08-2010 00:11:04 15.5 C 8.72 g/m*3 15.5 C 0 km/h
962 04-08-2010 00:23:04 15.4 C 8.8 g/m*3 15.4 C 0 km/h
963 04-08-2010 00:35:04 15.3 C 9.01 g/m*3 15.3 C 0 km/h
964 04-08-2010 00:47:04 15.4 C 9.2 g/m*3 15.4 C 0 km/h
965 04-08-2010 00:59:04 15.6 C 9.18 g/m*3 15.6 C 0 km/h
966 04-08-2010 01:11:04 15.6 C 9.18 g/m*3 15.6 C 0 km/h
967 04-08-2010 01:23:04 15.6 C 9.18 g/m*3 15.6 C 0 km/h
968 04-08-2010 01:35:04 15.7 C 9.23 g/m*3 15.7 C 0 km/h
969 04-08-2010 01:47:04 15.8 C 9.29 g/m*3 15.8 C 0 km/h
970 04-08-2010 01:59:04 15.7 C 9.23 g/m*3 15.7 C 0 km/h
971 04-08-2010 02:11:04 15.6 C 9.31 g/m*3 15.6 C 0 km/h
972 04-08-2010 02:23:04 15.4 C 9.59 g/m*3 15.4 C 0 km/h
973 04-08-2010 02:35:04 15.3 C 9.79 g/m*3 15.3 C 0 km/h
974 04-08-2010 02:47:05 15.4 C 9.99 g/m*3 15.4 C 0 km/h
975 04-08-2010 02:59:05 15.4 C 9.85 g/m*3 15.4 C 0 km/h
Sensor: Nr:Datum:Temp:Abs-Feuchte:Windchill:Wind:
Aussen-T/F 976 04-08-2010 03:11:05 15.4 C 9.72 g/m*3 15.4 C 0 km/h
977 04-08-2010 03:23:05 15.4 C 9.85 g/m*3 15.4 C 0 km/h
978 04-08-2010 03:35:05 15.4 C 9.72 g/m*3 15.4 C 0 km/h
979 04-08-2010 03:47:05 15.3 C 9.66 g/m*3 15.3 C 0 km/h
980 04-08-2010 03:59:05 15.3 C 9.53 g/m*3 15.3 C 0 km/h
981 04-08-2010 04:11:05 15.2 C 9.48 g/m*3 15.2 C 0 km/h
982 04-08-2010 04:23:05 15.2 C 9.48 g/m*3 15.2 C 0 km/h
983 04-08-2010 04:35:05 15.2 C 9.48 g/m*3 15.2 C 0 km/h
984 04-08-2010 04:47:05 15.2 C 9.61 g/m*3 15.2 C 0 km/h
985 04-08-2010 04:59:05 15.2 C 9.61 g/m*3 15.2 C 0 km/h
986 04-08-2010 05:11:05 15.2 C 9.61 g/m*3 15.2 C 0 km/h
987 04-08-2010 05:23:05 15.1 C 9.55 g/m*3 15.1 C 0 km/h
988 04-08-2010 05:35:05 15.1 C 9.55 g/m*3 15.1 C 0 km/h
989 04-08-2010 05:47:05 15.1 C 9.55 g/m*3 15.1 C 0 km/h
990 04-08-2010 05:59:05 15.2 C 9.61 g/m*3 15.2 C 0 km/h
991 04-08-2010 06:11:05 15.2 C 9.73 g/m*3 15.2 C 0 km/h
992 04-08-2010 06:23:05 15.2 C 9.73 g/m*3 15.2 C 0 km/h
993 04-08-2010 06:35:05 15.3 C 9.79 g/m*3 15.3 C 0 km/h
994 04-08-2010 06:47:01 15.3 C 9.79 g/m*3 15.3 C 0 km/h
995 04-08-2010 06:59:01 15.4 C 9.85 g/m*3 15.4 C 0 km/h
996 04-08-2010 07:11:01 15.7 C 10.03 g/m*3 15.7 C 0 km/h
997 04-08-2010 07:23:02 15.8 C 9.96 g/m*3 15.8 C 0 km/h
998 04-08-2010 07:35:02 16 C 9.95 g/m*3 16 C 0 km/h
999 04-08-2010 07:47:02 15.8 C 9.96 g/m*3 15.8 C 0 km/h
1000 04-08-2010 07:59:02 16.1 C 10.14 g/m*3 16.1 C 0 km/h
Sensor: Nr:Datum:Temp:Abs-Feuchte:Windchill:Wind:
Aussen-T/F 1001 04-08-2010 08:11:03 16.2 C 9.93 g/m*3 16.2 C 0 km/h
1002 04-08-2010 08:23:02 16.8 C 9.87 g/m*3 16.8 C 0 km/h
1003 04-08-2010 08:35:02 16.9 C 9.92 g/m*3 16.9 C 0 km/h
1004 04-08-2010 08:47:01 17 C 9.98 g/m*3 17 C 0 km/h
1005 04-08-2010 08:59:01 17.4 C 10.08 g/m*3 17.4 C 0 km/h
1006 04-08-2010 09:11:02 17.5 C 10.14 g/m*3 17.5 C 0 km/h
1007 04-08-2010 09:23:01 18.3 C 10.01 g/m*3 18.3 C 0 km/h
1008 04-08-2010 09:35:01 18.7 C 9.77 g/m*3 18.7 C 0 km/h
1009 04-08-2010 09:47:01 19.5 C 9.57 g/m*3 19.5 C 0 km/h
1010 04-08-2010 09:59:01 20 C 9.68 g/m*3 20 C 0 km/h
1011 04-08-2010 10:11:01 20.8 C 9.96 g/m*3 20.8 C 0 km/h
1012 04-08-2010 10:23:01 20.9 C 9.29 g/m*3 20.9 C 0 km/h
1013 04-08-2010 10:35:01 20.8 C 9.05 g/m*3 20.8 C 0 km/h
1014 04-08-2010 10:47:03 21.2 C 8.71 g/m*3 21.2 C 0 km/h
1015 04-08-2010 10:59:03 21.7 C 8.58 g/m*3 21.7 C 0 km/h
1016 04-08-2010 11:11:02 22.1 C 8.2 g/m*3 22.1 C 0 km/h
1017 04-08-2010 11:23:02 22.2 C 7.85 g/m*3 22.2 C 0 km/h
1018 04-08-2010 11:35:02 22.5 C 8.39 g/m*3 22.5 C 0 km/h
1019 04-08-2010 11:47:02 22.9 C 7.97 g/m*3 22.9 C 0 km/h
1020 04-08-2010 11:59:02 22.8 C 8.13 g/m*3 22.8 C 0 km/h
1021 04-08-2010 12:11:02 23 C 7.4 g/m*3 23 C 0 km/h
1022 04-08-2010 12:23:02 23.4 C 7.36 g/m*3 23.4 C 0 km/h
1023 04-08-2010 12:35:02 23.7 C 7.06 g/m*3 23.7 C 0 km/h
1024 04-08-2010 12:47:01 24.1 C 6.56 g/m*3 24.1 C 0 km/h
1025 04-08-2010 12:59:01 24.4 C 6.68 g/m*3 24.4 C 0 km/h
Sensor: Nr:Datum:Temp:Abs-Feuchte:Windchill:Wind:
Aussen-T/F 1026 04-08-2010 13:11:01 25.6 C 6.19 g/m*3 25.6 C 0 km/h
1027 04-08-2010 13:23:01 25 C 6.22 g/m*3 25 C 0 km/h
1028 04-08-2010 13:35:01 24.6 C 6.53 g/m*3 24.6 C 0 km/h
1029 04-08-2010 13:47:01 24.5 C 6.71 g/m*3 24.5 C 0 km/h
1030 04-08-2010 13:59:01 25.2 C 6.29 g/m*3 25.2 C 0 km/h
1031 04-08-2010 14:11:02 24.7 C 6.56 g/m*3 24.7 C 0 km/h
1032 04-08-2010 14:23:01 24 C 6.74 g/m*3 24 C 0 km/h
1033 04-08-2010 14:35:02 24.1 C 6.56 g/m*3 24.1 C 0 km/h
1034 04-08-2010 14:47:01 24.5 C 6.71 g/m*3 24.5 C 0 km/h
1035 04-08-2010 14:59:01 25.5 C 6.63 g/m*3 25.5 C 0 km/h
1036 04-08-2010 15:11:02 24.9 C 6.87 g/m*3 24.9 C 0 km/h
1037 04-08-2010 15:23:01 23.6 C 6.59 g/m*3 23.6 C 0 km/h
1038 04-08-2010 15:35:01 23.5 C 6.77 g/m*3 23.5 C 0 km/h
1039 04-08-2010 15:47:01 23.5 C 6.77 g/m*3 23.5 C 0 km/h
1040 04-08-2010 15:59:01 23.9 C 7.14 g/m*3 23.9 C 0 km/h
1041 04-08-2010 16:11:01 23.3 C 6.9 g/m*3 23.3 C 0 km/h
1042 04-08-2010 16:23:02 23.4 C 7.15 g/m*3 23.4 C 0 km/h
1043 04-08-2010 16:35:01 23.7 C 7.06 g/m*3 23.7 C 0 km/h
1044 04-08-2010 16:47:03 23 C 6.99 g/m*3 23 C 0 km/h
1045 04-08-2010 16:59:03 23.4 C 6.94 g/m*3 23.4 C 0 km/h
1046 04-08-2010 17:11:02 23.8 C 6.88 g/m*3 23.8 C 0 km/h
1047 04-08-2010 17:23:02 23 C 7.19 g/m*3 23 C 0 km/h
1048 04-08-2010 17:35:03 22.9 C 7.36 g/m*3 22.9 C 0 km/h
1049 04-08-2010 17:47:02 22.9 C 7.36 g/m*3 22.9 C 0 km/h
1050 04-08-2010 17:59:02 22.9 C 7.36 g/m*3 22.9 C 0 km/h
Sensor: Nr:Datum:Temp:Abs-Feuchte:Windchill:Wind:
Aussen-T/F 1051 04-08-2010 18:11:01 23 C 7.4 g/m*3 23 C 0 km/h
1052 04-08-2010 18:23:02 23.3 C 7.32 g/m*3 23.3 C 0 km/h
1053 04-08-2010 18:35:02 23.5 C 7.4 g/m*3 23.5 C 0 km/h
1054 04-08-2010 18:47:02 23.6 C 7.44 g/m*3 23.6 C 0 km/h
1055 04-08-2010 18:59:02 23.2 C 7.28 g/m*3 23.2 C 0 km/h
1056 04-08-2010 19:11:02 22.8 C 7.32 g/m*3 22.8 C 0 km/h
1057 04-08-2010 19:23:02 22.6 C 8.04 g/m*3 22.6 C 0 km/h
1058 04-08-2010 19:35:02 22.5 C 7.79 g/m*3 22.5 C 0 km/h
1059 04-08-2010 19:47:02 22.3 C 7.9 g/m*3 22.3 C 0 km/h
1060 04-08-2010 19:59:02 22 C 8.15 g/m*3 22 C 0 km/h
1061 04-08-2010 20:11:02 21.9 C 8.68 g/m*3 21.9 C 0 km/h
1062 04-08-2010 20:23:02 21.5 C 8.86 g/m*3 21.5 C 0 km/h
1063 04-08-2010 20:35:02 21.1 C 9.03 g/m*3 21.1 C 0 km/h
1064 04-08-2010 20:47:02 20.7 C 9.18 g/m*3 20.7 C 0 km/h
1065 04-08-2010 20:59:02 20.5 C 9.07 g/m*3 20.5 C 0 km/h
1066 04-08-2010 21:11:02 20.3 C 9.15 g/m*3 20.3 C 0 km/h
1067 04-08-2010 21:23:03 20.1 C 9.04 g/m*3 20.1 C 0 km/h
1068 04-08-2010 21:35:02 20 C 8.99 g/m*3 20 C 0 km/h
1069 04-08-2010 21:47:02 20 C 8.99 g/m*3 20 C 0 km/h
1070 04-08-2010 21:59:02 20.1 C 9.39 g/m*3 20.1 C 0 km/h
1071 04-08-2010 22:12:03 19.7 C 9.51 g/m*3 19.7 C 0 km/h
1072 04-08-2010 22:24:03 19.5 C 9.9 g/m*3 19.5 C 0 km/h
1073 04-08-2010 22:36:03 19.4 C 10.18 g/m*3 19.4 C 0 km/h
1074 04-08-2010 22:48:04 18.7 C 10.73 g/m*3 18.7 C 0 km/h
1075 04-08-2010 23:00:04 18.5 C 11.23 g/m*3 18.5 C 0 km/h
Sensor: Nr:Datum:Temp:Abs-Feuchte:Windchill:Wind:
Aussen-T/F 1076 04-08-2010 23:12:04 18.5 C 11.23 g/m*3 18.5 C 0 km/h
1077 04-08-2010 23:24:04 18.5 C 11.23 g/m*3 18.5 C 0 km/h
1078 04-08-2010 23:36:04 18.5 C 11.55 g/m*3 18.5 C 0 km/h
1079 04-08-2010 23:48:04 17.6 C 12 g/m*3 17.6 C 0 km/h
1080 05-08-2010 00:00:04 17.1 C 12.23 g/m*3 17.1 C 0 km/h
1081 05-08-2010 00:12:04 17 C 12.3 g/m*3 17 C 0 km/h
1082 05-08-2010 00:24:04 16.8 C 12.44 g/m*3 16.8 C 0 km/h
1083 05-08-2010 00:36:04 16.6 C 12.43 g/m*3 16.6 C 0 km/h
1084 05-08-2010 00:48:04 16.4 C 12.42 g/m*3 16.4 C 0 km/h
1085 05-08-2010 01:00:04 16.3 C 12.35 g/m*3 16.3 C 0 km/h
1086 05-08-2010 01:12:04 16.3 C 12.49 g/m*3 16.3 C 0 km/h
1087 05-08-2010 01:24:04 16.3 C 12.49 g/m*3 16.3 C 0 km/h
1088 05-08-2010 01:36:04 16.3 C 12.49 g/m*3 16.3 C 0 km/h
1089 05-08-2010 01:48:04 16.2 C 12.41 g/m*3 16.2 C 0 km/h
1090 05-08-2010 02:00:04 16 C 12.4 g/m*3 16 C 0 km/h
1091 05-08-2010 02:12:04 15.8 C 12.38 g/m*3 15.8 C 0 km/h
1092 05-08-2010 02:24:04 15.8 C 12.38 g/m*3 15.8 C 0 km/h
1093 05-08-2010 02:36:04 15.8 C 12.38 g/m*3 15.8 C 0 km/h
1094 05-08-2010 02:48:04 15.7 C 12.31 g/m*3 15.7 C 0 km/h
1095 05-08-2010 03:00:04 15.7 C 12.31 g/m*3 15.7 C 0 km/h
1096 05-08-2010 03:12:05 15.8 C 12.52 g/m*3 15.8 C 0 km/h
1097 05-08-2010 03:24:05 15.5 C 12.29 g/m*3 15.5 C 0 km/h
1098 05-08-2010 03:36:05 15.4 C 12.22 g/m*3 15.4 C 0 km/h
1099 05-08-2010 03:48:05 15.3 C 12.14 g/m*3 15.3 C 0 km/h
1100 05-08-2010 04:00:05 15.4 C 12.22 g/m*3 15.4 C 0 km/h
Sensor: Nr:Datum:Temp:Abs-Feuchte:Windchill:Wind:
Aussen-T/F 1101 05-08-2010 04:12:05 15.5 C 12.29 g/m*3 15.5 C 0 km/h
1102 05-08-2010 04:24:05 15.4 C 12.22 g/m*3 15.4 C 0 km/h
1103 05-08-2010 04:36:05 15.2 C 12.07 g/m*3 15.2 C 0 km/h
1104 05-08-2010 04:48:05 15 C 11.93 g/m*3 15 C 0 km/h
1105 05-08-2010 05:00:05 15 C 11.93 g/m*3 15 C 0 km/h
1106 05-08-2010 05:12:05 15.2 C 12.07 g/m*3 15.2 C 0 km/h
1107 05-08-2010 05:24:05 15.4 C 12.22 g/m*3 15.4 C 0 km/h
1108 05-08-2010 05:36:05 15.5 C 12.43 g/m*3 15.5 C 0 km/h
1109 05-08-2010 05:48:05 15.5 C 12.43 g/m*3 15.5 C 0 km/h
1110 05-08-2010 06:00:05 15.6 C 12.5 g/m*3 15.6 C 0 km/h
1111 05-08-2010 06:12:05 15.7 C 12.58 g/m*3 15.7 C 0 km/h
1112 05-08-2010 06:24:05 15.7 C 12.58 g/m*3 15.7 C 0 km/h
1113 05-08-2010 06:36:05 15.7 C 12.58 g/m*3 15.7 C 0 km/h
1114 05-08-2010 06:48:05 15.7 C 12.58 g/m*3 15.7 C 0 km/h
1115 05-08-2010 07:00:05 15.7 C 12.58 g/m*3 15.7 C 0 km/h
1116 05-08-2010 07:12:05 15.8 C 12.65 g/m*3 15.8 C 0 km/h
1117 05-08-2010 07:24:04 15.6 C 12.5 g/m*3 15.6 C 0 km/h
1118 05-08-2010 07:36:03 15.7 C 12.58 g/m*3 15.7 C 0 km/h
1119 05-08-2010 07:48:02 15.8 C 12.52 g/m*3 15.8 C 0 km/h
1120 05-08-2010 08:00:02 15.9 C 12.59 g/m*3 15.9 C 0 km/h
1121 05-08-2010 08:12:02 15.9 C 12.46 g/m*3 15.9 C 0 km/h
1122 05-08-2010 08:24:02 16.3 C 12.62 g/m*3 16.3 C 0 km/h
1123 05-08-2010 08:36:02 16.5 C 12.64 g/m*3 16.5 C 0 km/h
1124 05-08-2010 08:48:02 16.4 C 12.42 g/m*3 16.4 C 0 km/h
1125 05-08-2010 09:00:02 16.4 C 12.14 g/m*3 16.4 C 0 km/h
Sensor: Nr:Datum:Temp:Abs-Feuchte:Windchill:Wind:
Aussen-T/F 1126 05-08-2010 09:12:02 16.6 C 11.58 g/m*3 16.6 C 0 km/h
1127 05-08-2010 09:24:02 17 C 11.72 g/m*3 17 C 0 km/h
1128 05-08-2010 09:36:02 17 C 11 g/m*3 17 C 0 km/h
1129 05-08-2010 09:48:02 17.2 C 10.69 g/m*3 17.2 C 0 km/h
1130 05-08-2010 10:00:03 17.5 C 11.03 g/m*3 17.5 C 0 km/h
1131 05-08-2010 10:12:01 17 C 10.13 g/m*3 17 C 0 km/h
1132 05-08-2010 10:24:01 17 C 10.42 g/m*3 17 C 0 km/h
1133 05-08-2010 10:36:02 17.7 C 10.41 g/m*3 17.7 C 0 km/h
1134 05-08-2010 10:48:02 18.1 C 9.89 g/m*3 18.1 C 0 km/h
1135 05-08-2010 11:00:02 18.3 C 10.01 g/m*3 18.3 C 0 km/h
1136 05-08-2010 11:12:02 18.5 C 9.81 g/m*3 18.5 C 0 km/h
1137 05-08-2010 11:24:02 18.5 C 9.18 g/m*3 18.5 C 0 km/h
1138 05-08-2010 11:36:02 18.1 C 9.43 g/m*3 18.1 C 0 km/h
1139 05-08-2010 11:48:02 18.4 C 9.91 g/m*3 18.4 C 0 km/h
1140 05-08-2010 12:00:02 18.1 C 9.27 g/m*3 18.1 C 0 km/h
1141 05-08-2010 12:12:02 18.4 C 9.28 g/m*3 18.4 C 0 km/h
1142 05-08-2010 12:24:02 18.2 C 9.48 g/m*3 18.2 C 0 km/h
1143 05-08-2010 12:36:02 18.5 C 9.33 g/m*3 18.5 C 0 km/h
1144 05-08-2010 12:48:02 18.9 C 9.4 g/m*3 18.9 C 0 km/h
1145 05-08-2010 13:00:02 18.6 C 8.91 g/m*3 18.6 C 0 km/h
1146 05-08-2010 13:12:02 19.1 C 8.36 g/m*3 19.1 C 0 km/h
1147 05-08-2010 13:24:02 18.5 C 7.91 g/m*3 18.5 C 0 km/h
1148 05-08-2010 13:36:02 18.7 C 7.84 g/m*3 18.7 C 0 km/h
1149 05-08-2010 13:48:02 20 C 7.95 g/m*3 20 C 0 km/h
1150 05-08-2010 14:00:02 20.1 C 7.47 g/m*3 20.1 C 0 km/h
Sensor: Nr:Datum:Temp:Abs-Feuchte:Windchill:Wind:
Aussen-T/F 1151 05-08-2010 14:12:02 20.4 C 7.61 g/m*3 20.4 C 0 km/h
1152 05-08-2010 14:24:02 21.6 C 7.78 g/m*3 21.6 C 0 km/h
1153 05-08-2010 14:36:01 21.8 C 7.67 g/m*3 21.8 C 0 km/h
1154 05-08-2010 14:48:02 22.5 C 7.19 g/m*3 22.5 C 0 km/h
1155 05-08-2010 15:00:02 22.1 C 7.03 g/m*3 22.1 C 0 km/h
1156 05-08-2010 15:12:02 22.9 C 6.95 g/m*3 22.9 C 0 km/h
1157 05-08-2010 15:24:02 22.6 C 6.43 g/m*3 22.6 C 0 km/h
1158 05-08-2010 15:36:02 23.3 C 5.85 g/m*3 23.3 C 0 km/h
1159 05-08-2010 15:48:01 24.1 C 5.69 g/m*3 24.1 C 0 km/h
1160 05-08-2010 16:00:01 26 C 6.33 g/m*3 26 C 0 km/h
1161 05-08-2010 16:12:02 25.5 C 5.21 g/m*3 25.5 C 0 km/h
1162 05-08-2010 16:24:01 24.2 C 5.5 g/m*3 24.2 C 0 km/h
1163 05-08-2010 16:36:01 24.7 C 5.66 g/m*3 24.7 C 0 km/h
1164 05-08-2010 16:48:01 25 C 5.75 g/m*3 25 C 0 km/h
1165 05-08-2010 17:00:01 24.3 C 5.53 g/m*3 24.3 C 0 km/h
1166 05-08-2010 17:12:01 23.6 C 5.32 g/m*3 23.6 C 0 km/h
1167 05-08-2010 17:24:02 24.1 C 5.03 g/m*3 24.1 C 0 km/h
1168 05-08-2010 17:36:01 24.4 C 5.34 g/m*3 24.4 C 0 km/h
1169 05-08-2010 17:48:01 23.5 C 5.29 g/m*3 23.5 C 0 km/h
1170 05-08-2010 18:00:01 23.7 C 5.35 g/m*3 23.7 C 0 km/h
1171 05-08-2010 18:12:02 23.6 C 5.32 g/m*3 23.6 C 0 km/h
1172 05-08-2010 18:24:01 22.1 C 5.66 g/m*3 22.1 C 0 km/h
1173 05-08-2010 18:36:02 22.5 C 5.99 g/m*3 22.5 C 0 km/h
1174 05-08-2010 18:48:02 21.6 C 5.69 g/m*3 21.6 C 0 km/h
1175 05-08-2010 19:00:02 21.6 C 5.69 g/m*3 21.6 C 0 km/h
Sensor: Nr:Datum:Temp:Abs-Feuchte:Windchill:Wind:
Aussen-T/F 1176 05-08-2010 19:12:02 21.2 C 5.74 g/m*3 21.2 C 0 km/h
1177 05-08-2010 19:24:02 21.2 C 6.3 g/m*3 21.2 C 0 km/h
1178 05-08-2010 19:36:02 21.4 C 6.37 g/m*3 21.4 C 0 km/h
1179 05-08-2010 19:48:02 20.9 C 6.74 g/m*3 20.9 C 0 km/h
1180 05-08-2010 20:00:02 20.8 C 6.7 g/m*3 20.8 C 0 km/h
1181 05-08-2010 20:12:02 20.3 C 6.68 g/m*3 20.3 C 0 km/h
1182 05-08-2010 20:24:02 20.1 C 7.13 g/m*3 20.1 C 0 km/h
1183 05-08-2010 20:36:01 20.1 C 6.95 g/m*3 20.1 C 0 km/h
1184 05-08-2010 20:48:02 19.8 C 7 g/m*3 19.8 C 0 km/h
1185 05-08-2010 21:00:02 19.8 C 7.34 g/m*3 19.8 C 0 km/h
1186 05-08-2010 21:12:01 19.3 C 7.3 g/m*3 19.3 C 0 km/h
1187 05-08-2010 21:24:01 18.9 C 7.13 g/m*3 18.9 C 0 km/h
1188 05-08-2010 21:36:02 18.5 C 6.96 g/m*3 18.5 C 0 km/h
1189 05-08-2010 21:48:02 18.2 C 6.99 g/m*3 18.2 C 0 km/h
1190 05-08-2010 22:00:02 18 C 7.07 g/m*3 18 C 0 km/h
1191 05-08-2010 22:12:02 17.9 C 7.33 g/m*3 17.9 C 0 km/h
1192 05-08-2010 22:25:02 17.7 C 7.54 g/m*3 17.7 C 0 km/h
1193 05-08-2010 22:37:02 17.5 C 7.6 g/m*3 17.5 C 0 km/h
1194 05-08-2010 22:49:02 17.4 C 7.85 g/m*3 17.4 C 0 km/h
1195 05-08-2010 23:01:02 17.5 C 7.9 g/m*3 17.5 C 0 km/h
1196 05-08-2010 23:13:02 17.3 C 7.96 g/m*3 17.3 C 0 km/h
1197 05-08-2010 23:25:02 17 C 8.1 g/m*3 17 C 0 km/h
1198 05-08-2010 23:37:02 16.7 C 8.24 g/m*3 16.7 C 0 km/h
1199 05-08-2010 23:49:02 16.5 C 8.28 g/m*3 16.5 C 0 km/h
1200 06-08-2010 00:01:02 16.4 C 8.37 g/m*3 16.4 C 0 km/h
Sensor: Nr:Datum:Temp:Abs-Feuchte:Windchill:Wind:
Aussen-T/F 1201 06-08-2010 00:13:02 16.2 C 8.41 g/m*3 16.2 C 0 km/h
1202 06-08-2010 00:25:02 16 C 8.45 g/m*3 16 C 0 km/h
1203 06-08-2010 00:37:02 15.8 C 8.48 g/m*3 15.8 C 0 km/h
1204 06-08-2010 00:49:02 15.7 C 8.7 g/m*3 15.7 C 0 km/h
1205 06-08-2010 01:01:02 15.6 C 8.51 g/m*3 15.6 C 0 km/h
1206 06-08-2010 01:13:03 15.4 C 8.54 g/m*3 15.4 C 0 km/h
1207 06-08-2010 01:25:03 15.3 C 8.62 g/m*3 15.3 C 0 km/h
1208 06-08-2010 01:37:03 15.1 C 8.64 g/m*3 15.1 C 0 km/h
1209 06-08-2010 01:49:03 14.9 C 8.79 g/m*3 14.9 C 0 km/h
1210 06-08-2010 02:01:03 14.7 C 8.81 g/m*3 14.7 C 0 km/h
1211 06-08-2010 02:13:03 14.6 C 8.88 g/m*3 14.6 C 0 km/h
1212 06-08-2010 02:25:03 14.5 C 8.83 g/m*3 14.5 C 0 km/h
1213 06-08-2010 02:37:03 14.5 C 8.95 g/m*3 14.5 C 0 km/h
1214 06-08-2010 02:49:03 14.3 C 8.85 g/m*3 14.3 C 0 km/h
1215 06-08-2010 03:01:03 14.2 C 8.79 g/m*3 14.2 C 0 km/h
1216 06-08-2010 03:13:03 14 C 8.68 g/m*3 14 C 0 km/h
1217 06-08-2010 03:25:03 14 C 8.81 g/m*3 14 C 0 km/h
1218 06-08-2010 03:37:03 13.9 C 8.99 g/m*3 13.9 C 0 km/h
1219 06-08-2010 03:49:03 13.7 C 9 g/m*3 13.7 C 0 km/h
1220 06-08-2010 04:01:03 13.6 C 9.18 g/m*3 13.6 C 0 km/h
1221 06-08-2010 04:13:03 13.5 C 9.24 g/m*3 13.5 C 0 km/h
1222 06-08-2010 04:25:03 13.4 C 9.3 g/m*3 13.4 C 0 km/h
1223 06-08-2010 04:37:03 13.4 C 9.42 g/m*3 13.4 C 0 km/h
1224 06-08-2010 04:49:03 13.3 C 9.36 g/m*3 13.3 C 0 km/h
1225 06-08-2010 05:01:03 13.1 C 9.24 g/m*3 13.1 C 0 km/h
Sensor: Nr:Datum:Temp:Abs-Feuchte:Windchill:Wind:
Aussen-T/F 1226 06-08-2010 05:13:03 13 C 9.3 g/m*3 13 C 0 km/h
1227 06-08-2010 05:25:04 12.8 C 9.3 g/m*3 12.8 C 0 km/h
1228 06-08-2010 05:37:04 12.8 C 9.41 g/m*3 12.8 C 0 km/h
1229 06-08-2010 05:49:04 13.1 C 9.47 g/m*3 13.1 C 0 km/h
1230 06-08-2010 06:01:04 13.4 C 9.53 g/m*3 13.4 C 0 km/h
1231 06-08-2010 06:13:04 13.5 C 9.36 g/m*3 13.5 C 0 km/h
1232 06-08-2010 06:25:04 13.5 C 9.36 g/m*3 13.5 C 0 km/h
1233 06-08-2010 06:37:04 13.2 C 9.07 g/m*3 13.2 C 0 km/h
1234 06-08-2010 06:49:04 13.1 C 9.13 g/m*3 13.1 C 0 km/h
1235 06-08-2010 07:01:04 13 C 9.19 g/m*3 13 C 0 km/h
1236 06-08-2010 07:13:04 13.2 C 9.3 g/m*3 13.2 C 0 km/h
1237 06-08-2010 07:25:04 13.2 C 9.19 g/m*3 13.2 C 0 km/h
1238 06-08-2010 07:37:03 13.3 C 9.36 g/m*3 13.3 C 0 km/h
1239 06-08-2010 07:49:01 13.2 C 9.3 g/m*3 13.2 C 0 km/h
1240 06-08-2010 08:01:02 13.2 C 9.42 g/m*3 13.2 C 0 km/h
1241 06-08-2010 08:13:02 13.2 C 9.42 g/m*3 13.2 C 0 km/h
1242 06-08-2010 08:25:01 13.5 C 9.59 g/m*3 13.5 C 0 km/h
1243 06-08-2010 08:37:02 13.8 C 9.65 g/m*3 13.8 C 0 km/h
1244 06-08-2010 08:49:02 13.7 C 9.35 g/m*3 13.7 C 0 km/h
1245 06-08-2010 09:01:02 14.7 C 9.57 g/m*3 14.7 C 0 km/h
1246 06-08-2010 09:13:02 14.9 C 9.43 g/m*3 14.9 C 0 km/h
1247 06-08-2010 09:25:02 15.4 C 9.46 g/m*3 15.4 C 0 km/h
1248 06-08-2010 09:37:02 15.8 C 9.29 g/m*3 15.8 C 0 km/h
1249 06-08-2010 09:49:01 16.5 C 9.41 g/m*3 16.5 C 0 km/h
1250 06-08-2010 10:01:02 17.1 C 9.17 g/m*3 17.1 C 0 km/h
Sensor: Nr:Datum:Temp:Abs-Feuchte:Windchill:Wind:
Aussen-T/F 1251 06-08-2010 10:13:02 17.7 C 8.45 g/m*3 17.7 C 0 km/h
1252 06-08-2010 10:25:02 17.4 C 8 g/m*3 17.4 C 0 km/h
1253 06-08-2010 10:37:01 18.2 C 7.93 g/m*3 18.2 C 0 km/h
1254 06-08-2010 10:49:01 18.8 C 7.89 g/m*3 18.8 C 0 km/h
1255 06-08-2010 11:01:01 19.2 C 7.91 g/m*3 19.2 C 0 km/h
1256 06-08-2010 11:13:01 19 C 7.17 g/m*3 19 C 0 km/h
1257 06-08-2010 11:25:02 20 C 7.6 g/m*3 20 C 0 km/h
1258 06-08-2010 11:37:01 20.8 C 7.06 g/m*3 20.8 C 0 km/h
1259 06-08-2010 11:49:02 20.2 C 6.29 g/m*3 20.2 C 0 km/h
1260 06-08-2010 12:01:01 22 C 6.79 g/m*3 22 C 0 km/h
1261 06-08-2010 12:13:01 20.7 C 6.48 g/m*3 20.7 C 0 km/h
1262 06-08-2010 12:25:01 20.8 C 6.34 g/m*3 20.8 C 0 km/h
1263 06-08-2010 12:37:01 22 C 6.02 g/m*3 22 C 0 km/h
1264 06-08-2010 12:49:02 21.2 C 5.19 g/m*3 21.2 C 0 km/h
1265 06-08-2010 13:01:02 22.8 C 5.49 g/m*3 22.8 C 0 km/h
1266 06-08-2010 13:13:02 22 C 4.66 g/m*3 22 C 0 km/h
1267 06-08-2010 13:25:02 24.5 C 4.7 g/m*3 24.5 C 0 km/h
1268 06-08-2010 13:37:02 24.1 C 4.38 g/m*3 24.1 C 0 km/h
1269 06-08-2010 13:49:01 25.1 C 4.63 g/m*3 25.1 C 0 km/h
1270 06-08-2010 14:01:02 24.5 C 4.48 g/m*3 24.5 C 0 km/h
1271 06-08-2010 14:13:02 24.4 C 4.45 g/m*3 24.4 C 0 km/h
1272 06-08-2010 14:25:01 25 C 4.6 g/m*3 25 C 0 km/h
1273 06-08-2010 14:37:02 24.6 C 4.5 g/m*3 24.6 C 0 km/h
1274 06-08-2010 14:49:02 25.7 C 4.79 g/m*3 25.7 C 0 km/h
1275 06-08-2010 15:01:02 25.7 C 4.79 g/m*3 25.7 C 0 km/h
Sensor: Nr:Datum:Temp:Abs-Feuchte:Windchill:Wind:
Aussen-T/F 1276 06-08-2010 15:13:02 25.3 C 4.68 g/m*3 25.3 C 0 km/h
1277 06-08-2010 15:25:01 25.7 C 4.79 g/m*3 25.7 C 0 km/h
1278 06-08-2010 15:37:02 24.4 C 4.45 g/m*3 24.4 C 0 km/h
1279 06-08-2010 15:49:02 25.3 C 4.68 g/m*3 25.3 C 0 km/h
1280 06-08-2010 16:01:02 26.5 C 5.01 g/m*3 26.5 C 0 km/h
1281 06-08-2010 16:13:02 28.4 C 5.56 g/m*3 28.4 C 0 km/h
1282 06-08-2010 16:25:02 28.8 C 5.68 g/m*3 28.8 C 0 km/h
1283 06-08-2010 16:37:02 28.8 C 5.68 g/m*3 28.8 C 0 km/h
1284 06-08-2010 16:49:02 28 C 5.44 g/m*3 28 C 0 km/h
1285 06-08-2010 17:01:03 26 C 4.87 g/m*3 26 C 0 km/h
1286 06-08-2010 17:13:03 24.2 C 4.4 g/m*3 24.2 C 0 km/h
1287 06-08-2010 17:25:02 24 C 17.19 g/m*3 24 C 0 km/h
1288 06-08-2010 17:37:02 24.3 C 6.2 g/m*3 24.3 C 0 km/h
1289 06-08-2010 17:49:02 25.8 C 4.82 g/m*3 25.8 C 0 km/h
1290 06-08-2010 18:01:02 27.6 C 5.32 g/m*3 27.6 C 0 km/h
1291 06-08-2010 18:13:02 27.2 C 5.2 g/m*3 27.2 C 0 km/h
1292 06-08-2010 18:25:02 26.7 C 5.06 g/m*3 26.7 C 0 km/h
1293 06-08-2010 18:37:02 26 C 4.87 g/m*3 26 C 0 km/h
1294 06-08-2010 18:49:03 24.6 C 4.5 g/m*3 24.6 C 0 km/h
1295 06-08-2010 19:01:03 25.9 C 4.84 g/m*3 25.9 C 0 km/h
1296 06-08-2010 19:13:03 26.6 C 5.03 g/m*3 26.6 C 0 km/h
1297 06-08-2010 19:25:03 26.2 C 4.92 g/m*3 26.2 C 0 km/h
1298 06-08-2010 19:37:02 26.4 C 4.98 g/m*3 26.4 C 0 km/h
1299 06-08-2010 19:49:03 25.9 C 4.84 g/m*3 25.9 C 0 km/h
1300 06-08-2010 20:01:03 25.7 C 4.79 g/m*3 25.7 C 0 km/h
Sensor: Nr:Datum:Temp:Abs-Feuchte:Windchill:Wind:
Aussen-T/F 1301 06-08-2010 20:13:03 25.1 C 5.09 g/m*3 25.1 C 0 km/h
1302 06-08-2010 20:25:03 23.8 C 4.73 g/m*3 23.8 C 0 km/h
1303 06-08-2010 20:37:03 22.5 C 5.79 g/m*3 22.5 C 0 km/h
1304 06-08-2010 20:49:02 21.2 C 5.74 g/m*3 21.2 C 0 km/h
1305 06-08-2010 21:01:02 20.3 C 5.98 g/m*3 20.3 C 0 km/h
1306 06-08-2010 21:13:02 19.5 C 5.87 g/m*3 19.5 C 0 km/h
1307 06-08-2010 21:25:02 19.1 C 5.9 g/m*3 19.1 C 0 km/h
1308 06-08-2010 21:37:02 18.9 C 6.48 g/m*3 18.9 C 0 km/h
1309 06-08-2010 21:49:02 18.7 C 6.4 g/m*3 18.7 C 0 km/h
1310 06-08-2010 22:01:02 18.3 C 6.41 g/m*3 18.3 C 0 km/h
1311 06-08-2010 22:13:02 18.1 C 6.49 g/m*3 18.1 C 0 km/h
1312 06-08-2010 22:25:01 17.6 C 6.15 g/m*3 17.6 C 0 km/h
1313 06-08-2010 22:38:02 17.4 C 6.22 g/m*3 17.4 C 0 km/h
1314 06-08-2010 22:50:02 17.2 C 6.44 g/m*3 17.2 C 0 km/h
1315 06-08-2010 23:02:02 16.9 C 6.47 g/m*3 16.9 C 0 km/h
1316 06-08-2010 23:14:02 16.6 C 6.5 g/m*3 16.6 C 0 km/h
1317 06-08-2010 23:26:02 16.4 C 6.7 g/m*3 16.4 C 0 km/h
1318 06-08-2010 23:38:02 16.2 C 6.76 g/m*3 16.2 C 0 km/h
1319 06-08-2010 23:50:02 15.9 C 6.91 g/m*3 15.9 C 0 km/h
1320 07-08-2010 00:02:02 15.7 C 6.96 g/m*3 15.7 C 0 km/h
1321 07-08-2010 00:14:02 15.2 C 7.01 g/m*3 15.2 C 0 km/h
1322 07-08-2010 00:26:02 15 C 7.18 g/m*3 15 C 0 km/h
1323 07-08-2010 00:38:02 14.8 C 7.09 g/m*3 14.8 C 0 km/h
1324 07-08-2010 00:50:02 14.5 C 7.46 g/m*3 14.5 C 0 km/h
1325 07-08-2010 01:02:03 14.4 C 7.42 g/m*3 14.4 C 0 km/h
Sensor: Nr:Datum:Temp:Abs-Feuchte:Windchill:Wind:
Aussen-T/F 1326 07-08-2010 01:14:03 14 C 7.48 g/m*3 14 C 0 km/h
1327 07-08-2010 01:26:03 14 C 7.48 g/m*3 14 C 0 km/h
1328 07-08-2010 01:38:03 13.8 C 7.63 g/m*3 13.8 C 0 km/h
1329 07-08-2010 01:50:03 13.5 C 7.72 g/m*3 13.5 C 0 km/h
1330 07-08-2010 02:02:03 13.4 C 7.67 g/m*3 13.4 C 0 km/h
1331 07-08-2010 02:14:03 13.2 C 7.92 g/m*3 13.2 C 0 km/h
1332 07-08-2010 02:26:03 12.9 C 8 g/m*3 12.9 C 0 km/h
1333 07-08-2010 02:38:03 12.8 C 7.95 g/m*3 12.8 C 0 km/h
1334 07-08-2010 02:50:03 12.7 C 7.9 g/m*3 12.7 C 0 km/h
1335 07-08-2010 03:02:03 12.6 C 7.85 g/m*3 12.6 C 0 km/h
1336 07-08-2010 03:14:03 12.5 C 7.7 g/m*3 12.5 C 0 km/h
1337 07-08-2010 03:26:03 12.2 C 7.66 g/m*3 12.2 C 0 km/h
1338 07-08-2010 03:38:03 12.2 C 7.77 g/m*3 12.2 C 0 km/h
1339 07-08-2010 03:50:03 12.1 C 7.72 g/m*3 12.1 C 0 km/h
1340 07-08-2010 04:02:03 11.9 C 7.73 g/m*3 11.9 C 0 km/h
1341 07-08-2010 04:14:03 11.8 C 7.79 g/m*3 11.8 C 0 km/h
1342 07-08-2010 04:26:03 11.6 C 7.69 g/m*3 11.6 C 0 km/h
1343 07-08-2010 04:38:03 11.5 C 7.64 g/m*3 11.5 C 0 km/h
1344 07-08-2010 04:50:03 11.4 C 7.7 g/m*3 11.4 C 0 km/h
1345 07-08-2010 05:02:04 11.3 C 7.65 g/m*3 11.3 C 0 km/h
1346 07-08-2010 05:14:04 11.2 C 7.7 g/m*3 11.2 C 0 km/h
1347 07-08-2010 05:26:04 11.1 C 7.66 g/m*3 11.1 C 0 km/h
1348 07-08-2010 05:38:04 10.9 C 7.66 g/m*3 10.9 C 0 km/h
1349 07-08-2010 05:50:04 10.8 C 7.81 g/m*3 10.8 C 0 km/h
1350 07-08-2010 06:02:04 10.6 C 7.71 g/m*3 10.6 C 0 km/h
Sensor: Nr:Datum:Temp:Abs-Feuchte:Windchill:Wind:
Aussen-T/F 1351 07-08-2010 06:14:04 10.5 C 7.76 g/m*3 10.5 C 0 km/h
1352 07-08-2010 06:26:04 10.5 C 7.76 g/m*3 10.5 C 0 km/h
1353 07-08-2010 06:38:04 10.4 C 7.81 g/m*3 10.4 C 0 km/h
1354 07-08-2010 06:50:04 10.4 C 7.81 g/m*3 10.4 C 0 km/h
1355 07-08-2010 07:02:04 10.5 C 7.86 g/m*3 10.5 C 0 km/h
1356 07-08-2010 07:14:04 10.5 C 7.86 g/m*3 10.5 C 0 km/h
1357 07-08-2010 07:26:04 10.7 C 8.05 g/m*3 10.7 C 0 km/h
1358 07-08-2010 07:38:04 10.8 C 8.01 g/m*3 10.8 C 0 km/h
1359 07-08-2010 07:50:04 11 C 8.01 g/m*3 11 C 0 km/h
1360 07-08-2010 08:02:04 11.2 C 8.01 g/m*3 11.2 C 0 km/h
1361 07-08-2010 08:14:04 11.4 C 8.01 g/m*3 11.4 C 0 km/h
1362 07-08-2010 08:26:04 11.6 C 8 g/m*3 11.6 C 0 km/h
1363 07-08-2010 08:38:04 12 C 8.1 g/m*3 12 C 0 km/h
1364 07-08-2010 08:50:04 12.5 C 8.25 g/m*3 12.5 C 0 km/h
1365 07-08-2010 09:02:01 12.8 C 8.18 g/m*3 12.8 C 0 km/h
1366 07-08-2010 09:14:01 13.4 C 8.25 g/m*3 13.4 C 0 km/h
1367 07-08-2010 09:26:02 14.1 C 8.5 g/m*3 14.1 C 0 km/h
1368 07-08-2010 09:38:01 14.6 C 8.51 g/m*3 14.6 C 0 km/h
1369 07-08-2010 09:50:02 15.4 C 8.54 g/m*3 15.4 C 0 km/h
1370 07-08-2010 10:02:02 16.5 C 8.71 g/m*3 16.5 C 0 km/h
1371 07-08-2010 10:14:02 17.5 C 8.8 g/m*3 17.5 C 0 km/h
1372 07-08-2010 10:26:02 18.5 C 8.86 g/m*3 18.5 C 0 km/h
1373 07-08-2010 10:38:02 19.2 C 8.24 g/m*3 19.2 C 0 km/h
1374 07-08-2010 10:50:02 19.4 C 7.67 g/m*3 19.4 C 0 km/h
1375 07-08-2010 11:02:02 19.8 C 7.17 g/m*3 19.8 C 0 km/h
Sensor: Nr:Datum:Temp:Abs-Feuchte:Windchill:Wind:
Aussen-T/F 1376 07-08-2010 11:14:02 20.9 C 6.74 g/m*3 20.9 C 0 km/h
1377 07-08-2010 11:26:01 21.5 C 6.03 g/m*3 21.5 C 0 km/h
1378 07-08-2010 11:38:02 22.1 C 5.66 g/m*3 22.1 C 0 km/h
1379 07-08-2010 11:50:01 22 C 6.02 g/m*3 22 C 0 km/h
1380 07-08-2010 12:02:02 22.2 C 5.89 g/m*3 22.2 C 0 km/h
1381 07-08-2010 12:14:02 22.6 C 5.62 g/m*3 22.6 C 0 km/h
1382 07-08-2010 12:26:01 22.9 C 5.31 g/m*3 22.9 C 0 km/h
1383 07-08-2010 12:38:01 23 C 5.14 g/m*3 23 C 0 km/h
1384 07-08-2010 12:50:01 23.6 C 5.32 g/m*3 23.6 C 0 km/h
1385 07-08-2010 13:02:02 23.9 C 4.76 g/m*3 23.9 C 0 km/h
1386 07-08-2010 13:14:02 24.8 C 4.78 g/m*3 24.8 C 0 km/h
1387 07-08-2010 13:26:01 25.9 C 4.84 g/m*3 25.9 C 0 km/h
1388 07-08-2010 13:38:02 26.6 C 5.03 g/m*3 26.6 C 0 km/h
1389 07-08-2010 13:50:02 26.2 C 4.92 g/m*3 26.2 C 0 km/h
1390 07-08-2010 14:02:02 26.7 C 5.06 g/m*3 26.7 C 0 km/h
1391 07-08-2010 14:14:02 26.6 C 5.03 g/m*3 26.6 C 0 km/h
1392 07-08-2010 14:26:02 26.5 C 5.01 g/m*3 26.5 C 0 km/h
1393 07-08-2010 14:38:02 26.5 C 5.01 g/m*3 26.5 C 0 km/h
1394 07-08-2010 14:50:02 27 C 5.15 g/m*3 27 C 0 km/h
1395 07-08-2010 15:02:02 26.9 C 5.12 g/m*3 26.9 C 0 km/h
1396 07-08-2010 15:14:02 27.2 C 5.2 g/m*3 27.2 C 0 km/h
1397 07-08-2010 15:26:02 27.7 C 5.35 g/m*3 27.7 C 0 km/h
1398 07-08-2010 15:38:02 28.8 C 5.68 g/m*3 28.8 C 0 km/h
1399 07-08-2010 15:50:02 28.3 C 5.53 g/m*3 28.3 C 0 km/h
1400 07-08-2010 16:02:02 28.5 C 5.59 g/m*3 28.5 C 0 km/h
Sensor: Nr:Datum:Temp:Abs-Feuchte:Windchill:Wind:
Aussen-T/F 1401 07-08-2010 16:14:03 28.7 C 5.65 g/m*3 28.7 C 0 km/h
1402 07-08-2010 16:26:01 29.5 C 5.9 g/m*3 29.5 C 0 km/h
1403 07-08-2010 16:38:02 30.1 C 6.1 g/m*3 30.1 C 0 km/h
1404 07-08-2010 16:50:02 29.2 C 5.81 g/m*3 29.2 C 0 km/h
1405 07-08-2010 17:02:02 29.5 C 5.9 g/m*3 29.5 C 0 km/h
1406 07-08-2010 17:14:02 29.5 C 5.9 g/m*3 29.5 C 0 km/h
1407 07-08-2010 17:26:02 29.1 C 5.78 g/m*3 29.1 C 0 km/h
1408 07-08-2010 17:38:02 29.9 C 6.03 g/m*3 29.9 C 0 km/h
1409 07-08-2010 17:50:02 28.5 C 5.59 g/m*3 28.5 C 0 km/h
1410 07-08-2010 18:02:02 28.2 C 5.5 g/m*3 28.2 C 0 km/h
1411 07-08-2010 18:14:02 27.9 C 5.95 g/m*3 27.9 C 0 km/h
1412 07-08-2010 18:26:02 27.3 C 6.8 g/m*3 27.3 C 0 km/h
1413 07-08-2010 18:38:02 26.9 C 6.14 g/m*3 26.9 C 0 km/h
1414 07-08-2010 18:50:02 26.7 C 6.83 g/m*3 26.7 C 0 km/h
1415 07-08-2010 19:02:01 26.1 C 6.61 g/m*3 26.1 C 0 km/h
1416 07-08-2010 19:14:01 25.6 C 7.14 g/m*3 25.6 C 0 km/h
1417 07-08-2010 19:26:02 24.8 C 6.83 g/m*3 24.8 C 0 km/h
1418 07-08-2010 19:38:01 24.7 C 6.79 g/m*3 24.7 C 0 km/h
1419 07-08-2010 19:50:02 24.6 C 6.75 g/m*3 24.6 C 0 km/h
1420 07-08-2010 20:02:01 24.7 C 6.79 g/m*3 24.7 C 0 km/h
1421 07-08-2010 20:14:01 24.2 C 7.04 g/m*3 24.2 C 0 km/h
1422 07-08-2010 20:26:01 23.7 C 6.84 g/m*3 23.7 C 0 km/h
1423 07-08-2010 20:38:02 23.5 C 7.19 g/m*3 23.5 C 0 km/h
1424 07-08-2010 20:50:02 23.2 C 7.07 g/m*3 23.2 C 0 km/h
1425 07-08-2010 21:02:02 22.9 C 7.15 g/m*3 22.9 C 0 km/h
Sensor: Nr:Datum:Temp:Abs-Feuchte:Windchill:Wind:
Aussen-T/F 1426 07-08-2010 21:14:02 22.4 C 7.35 g/m*3 22.4 C 0 km/h
1427 07-08-2010 21:26:02 22.3 C 6.91 g/m*3 22.3 C 0 km/h
1428 07-08-2010 21:38:02 22.3 C 6.91 g/m*3 22.3 C 0 km/h
1429 07-08-2010 21:50:02 22.4 C 6.95 g/m*3 22.4 C 0 km/h
1430 07-08-2010 22:02:02 22.2 C 7.07 g/m*3 22.2 C 0 km/h
1431 07-08-2010 22:14:02 22 C 6.99 g/m*3 22 C 0 km/h
1432 07-08-2010 22:26:02 21.8 C 7.48 g/m*3 21.8 C 0 km/h
1433 07-08-2010 22:38:02 21.9 C 7.72 g/m*3 21.9 C 0 km/h
1434 07-08-2010 22:50:02 21.9 C 7.72 g/m*3 21.9 C 0 km/h
1435 07-08-2010 23:02:01 21.8 C 7.67 g/m*3 21.8 C 0 km/h
1436 07-08-2010 23:14:01 21.7 C 7.63 g/m*3 21.7 C 0 km/h
1437 07-08-2010 23:26:02 21.7 C 7.82 g/m*3 21.7 C 0 km/h
1438 07-08-2010 23:38:02 21.4 C 7.69 g/m*3 21.4 C 0 km/h
1439 07-08-2010 23:50:02 21.4 C 7.87 g/m*3 21.4 C 0 km/h
1440 08-08-2010 00:02:02 21.3 C 8.02 g/m*3 21.3 C 0 km/h
1441 08-08-2010 00:14:02 21.2 C 7.78 g/m*3 21.2 C 0 km/h
1442 08-08-2010 00:26:02 21.1 C 8.11 g/m*3 21.1 C 0 km/h
1443 08-08-2010 00:38:01 20.9 C 8.38 g/m*3 20.9 C 0 km/h
1444 08-08-2010 00:50:03 20.7 C 8.28 g/m*3 20.7 C 0 km/h
1445 08-08-2010 01:02:02 20.4 C 8.31 g/m*3 20.4 C 0 km/h
1446 08-08-2010 01:14:02 20.4 C 8.14 g/m*3 20.4 C 0 km/h
1447 08-08-2010 01:26:02 20.1 C 8.34 g/m*3 20.1 C 0 km/h
1448 08-08-2010 01:38:02 19.9 C 8.59 g/m*3 19.9 C 0 km/h
1449 08-08-2010 01:50:02 20 C 8.81 g/m*3 20 C 0 km/h
1450 08-08-2010 02:02:01 20.1 C 8.87 g/m*3 20.1 C 0 km/h
Sensor: Nr:Datum:Temp:Abs-Feuchte:Windchill:Wind:
Aussen-T/F 1451 08-08-2010 02:14:01 20.1 C 9.04 g/m*3 20.1 C 0 km/h
1452 08-08-2010 02:26:02 19.7 C 9.68 g/m*3 19.7 C 0 km/h
1453 08-08-2010 02:38:02 19.6 C 9.79 g/m*3 19.6 C 0 km/h
1454 08-08-2010 02:50:01 19.6 C 9.79 g/m*3 19.6 C 0 km/h
1455 08-08-2010 03:02:01 19.3 C 9.79 g/m*3 19.3 C 0 km/h
1456 08-08-2010 03:14:02 18.7 C 9.93 g/m*3 18.7 C 0 km/h
1457 08-08-2010 03:26:02 18.5 C 10.13 g/m*3 18.5 C 0 km/h
1458 08-08-2010 03:38:01 18.4 C 10.07 g/m*3 18.4 C 0 km/h
1459 08-08-2010 03:50:01 18.5 C 10.13 g/m*3 18.5 C 0 km/h
1460 08-08-2010 04:02:01 18.5 C 10.13 g/m*3 18.5 C 0 km/h
1461 08-08-2010 04:14:01 18.4 C 10.38 g/m*3 18.4 C 0 km/h
1462 08-08-2010 04:26:02 18.3 C 10.48 g/m*3 18.3 C 0 km/h
1463 08-08-2010 04:38:01 18.3 C 10.48 g/m*3 18.3 C 0 km/h
1464 08-08-2010 04:50:02 18.3 C 10.48 g/m*3 18.3 C 0 km/h
1465 08-08-2010 05:02:01 18.2 C 10.57 g/m*3 18.2 C 0 km/h
1466 08-08-2010 05:14:01 17.7 C 11.16 g/m*3 17.7 C 0 km/h
1467 08-08-2010 05:26:02 17.5 C 11.48 g/m*3 17.5 C 0 km/h
1468 08-08-2010 05:38:01 17.4 C 12 g/m*3 17.4 C 0 km/h
1469 08-08-2010 05:50:02 17 C 12.01 g/m*3 17 C 0 km/h
1470 08-08-2010 06:02:01 16.9 C 12.37 g/m*3 16.9 C 0 km/h
1471 08-08-2010 06:14:01 16.6 C 12.29 g/m*3 16.6 C 0 km/h
1472 08-08-2010 06:26:01 16.6 C 12.43 g/m*3 16.6 C 0 km/h
1473 08-08-2010 06:38:02 16.6 C 12.57 g/m*3 16.6 C 0 km/h
1474 08-08-2010 06:50:01 16.7 C 12.79 g/m*3 16.7 C 0 km/h
1475 08-08-2010 07:02:02 16.5 C 12.64 g/m*3 16.5 C 0 km/h
Sensor: Nr:Datum:Temp:Abs-Feuchte:Windchill:Wind:
Aussen-T/F 1476 08-08-2010 07:14:02 16.4 C 12.7 g/m*3 16.4 C 0 km/h
1477 08-08-2010 07:26:01 16.6 C 13 g/m*3 16.6 C 0 km/h
1478 08-08-2010 07:38:02 16.8 C 13.15 g/m*3 16.8 C 0 km/h
1479 08-08-2010 07:50:01 17 C 13.31 g/m*3 17 C 0 km/h
1480 08-08-2010 08:02:02 17 C 13.31 g/m*3 17 C 0 km/h
1481 08-08-2010 08:14:02 17 C 13.31 g/m*3 17 C 0 km/h
1482 08-08-2010 08:26:01 17.3 C 13.55 g/m*3 17.3 C 0 km/h
1483 08-08-2010 08:38:02 17.2 C 13.47 g/m*3 17.2 C 0 km/h
1484 08-08-2010 08:50:01 17.5 C 13.72 g/m*3 17.5 C 0 km/h
1485 08-08-2010 09:02:02 17.6 C 13.65 g/m*3 17.6 C 0 km/h
1486 08-08-2010 09:14:02 17.5 C 13.42 g/m*3 17.5 C 0 km/h
1487 08-08-2010 09:26:01 17.5 C 13.27 g/m*3 17.5 C 0 km/h
1488 08-08-2010 09:38:01 17.6 C 13.2 g/m*3 17.6 C 0 km/h
1489 08-08-2010 09:50:01 18 C 13.21 g/m*3 18 C 0 km/h
1490 08-08-2010 10:02:01 18 C 12.75 g/m*3 18 C 0 km/h
1491 08-08-2010 10:14:01 18.1 C 12.67 g/m*3 18.1 C 0 km/h
1492 08-08-2010 10:26:02 18.5 C 12.82 g/m*3 18.5 C 0 km/h
1493 08-08-2010 10:38:01 19 C 12.55 g/m*3 19 C 0 km/h
1494 08-08-2010 10:50:02 18.7 C 12.49 g/m*3 18.7 C 0 km/h
1495 08-08-2010 11:02:01 17.1 C 11.94 g/m*3 17.1 C 0 km/h
1496 08-08-2010 11:14:01 16.5 C 12.08 g/m*3 16.5 C 0 km/h
1497 08-08-2010 11:26:02 16.4 C 12.28 g/m*3 16.4 C 0 km/h
1498 08-08-2010 11:38:01 16.1 C 12.06 g/m*3 16.1 C 0 km/h
1499 08-08-2010 11:50:02 16.3 C 12.35 g/m*3 16.3 C 0 km/h
1500 08-08-2010 12:02:01 16.2 C 12.27 g/m*3 16.2 C 0 km/h
Sensor: Nr:Datum:Temp:Abs-Feuchte:Windchill:Wind:
Aussen-T/F 1501 08-08-2010 12:14:01 16.5 C 12.5 g/m*3 16.5 C 0 km/h
1502 08-08-2010 12:26:01 16.6 C 12.57 g/m*3 16.6 C 0 km/h
1503 08-08-2010 12:38:01 17.1 C 12.96 g/m*3 17.1 C 0 km/h
1504 08-08-2010 12:50:02 16.5 C 12.5 g/m*3 16.5 C 0 km/h
1505 08-08-2010 13:02:02 16.5 C 12.64 g/m*3 16.5 C 0 km/h
1506 08-08-2010 13:14:02 16.4 C 12.56 g/m*3 16.4 C 0 km/h
1507 08-08-2010 13:26:01 16.5 C 12.64 g/m*3 16.5 C 0 km/h
1508 08-08-2010 13:38:03 17.9 C 13.59 g/m*3 17.9 C 0 km/h
1509 08-08-2010 13:50:01 18.5 C 12.82 g/m*3 18.5 C 0 km/h
1510 08-08-2010 14:02:01 18.7 C 12.65 g/m*3 18.7 C 0 km/h
1511 08-08-2010 14:14:01 18.9 C 12.47 g/m*3 18.9 C 0 km/h
1512 08-08-2010 14:26:02 18.9 C 12.64 g/m*3 18.9 C 0 km/h
1513 08-08-2010 14:38:01 19.2 C 12.37 g/m*3 19.2 C 0 km/h
1514 08-08-2010 14:50:02 19.2 C 12.7 g/m*3 19.2 C 0 km/h
1515 08-08-2010 15:02:01 18.9 C 12.8 g/m*3 18.9 C 0 km/h
1516 08-08-2010 15:14:01 19.5 C 12.59 g/m*3 19.5 C 0 km/h
1517 08-08-2010 15:26:02 20.2 C 12.41 g/m*3 20.2 C 0 km/h
1518 08-08-2010 15:38:01 21 C 13.19 g/m*3 21 C 0 km/h
1519 08-08-2010 15:50:02 21.3 C 11.37 g/m*3 21.3 C 0 km/h
1520 08-08-2010 16:02:01 20.7 C 11.88 g/m*3 20.7 C 0 km/h
1521 08-08-2010 16:14:01 20 C 12.27 g/m*3 20 C 0 km/h
1522 08-08-2010 16:26:01 19.5 C 12.42 g/m*3 19.5 C 0 km/h
1523 08-08-2010 16:38:02 19.6 C 12.49 g/m*3 19.6 C 0 km/h
1524 08-08-2010 16:50:01 19.9 C 12.71 g/m*3 19.9 C 0 km/h
1525 08-08-2010 17:02:02 21.4 C 11.81 g/m*3 21.4 C 0 km/h
Sensor: Nr:Datum:Temp:Abs-Feuchte:Windchill:Wind:
Aussen-T/F 1526 08-08-2010 17:14:02 21.3 C 12.3 g/m*3 21.3 C 0 km/h
1527 08-08-2010 17:26:01 21.4 C 12.37 g/m*3 21.4 C 0 km/h
1528 08-08-2010 17:38:02 22 C 12.23 g/m*3 22 C 0 km/h
1529 08-08-2010 17:50:01 22.3 C 11.26 g/m*3 22.3 C 0 km/h
1530 08-08-2010 18:02:02 22.2 C 9.42 g/m*3 22.2 C 0 km/h
1531 08-08-2010 18:14:02 21.3 C 9.88 g/m*3 21.3 C 0 km/h
1532 08-08-2010 18:27:01 21.2 C 9.82 g/m*3 21.2 C 0 km/h
1533 08-08-2010 18:38:01 20.9 C 10.56 g/m*3 20.9 C 0 km/h
1534 08-08-2010 18:51:01 21.5 C 11.31 g/m*3 21.5 C 0 km/h
1535 08-08-2010 19:03:01 21.7 C 9.92 g/m*3 21.7 C 0 km/h
1536 08-08-2010 19:14:02 20.8 C 10.5 g/m*3 20.8 C 0 km/h
1537 08-08-2010 19:26:02 20 C 10.71 g/m*3 20 C 0 km/h
1538 08-08-2010 19:39:01 19 C 10.76 g/m*3 19 C 0 km/h
1539 08-08-2010 19:50:02 18.4 C 11.64 g/m*3 18.4 C 0 km/h
1540 08-08-2010 20:03:01 18.1 C 11.9 g/m*3 18.1 C 0 km/h
1541 08-08-2010 20:15:01 17.7 C 11.92 g/m*3 17.7 C 0 km/h
1542 08-08-2010 20:27:02 17.5 C 11.78 g/m*3 17.5 C 0 km/h
1543 08-08-2010 20:39:01 17.6 C 11.85 g/m*3 17.6 C 0 km/h
1544 08-08-2010 20:51:02 17.7 C 11.62 g/m*3 17.7 C 0 km/h
1545 08-08-2010 21:03:01 17.7 C 11.62 g/m*3 17.7 C 0 km/h
1546 08-08-2010 21:15:01 17.6 C 11.4 g/m*3 17.6 C 0 km/h
1547 08-08-2010 21:27:01 17.5 C 11.33 g/m*3 17.5 C 0 km/h
1548 08-08-2010 21:39:01 17.3 C 11.34 g/m*3 17.3 C 0 km/h
1549 08-08-2010 21:51:01 17.2 C 11.42 g/m*3 17.2 C 0 km/h
1550 08-08-2010 22:03:01 17.2 C 11.42 g/m*3 17.2 C 0 km/h
Sensor: Nr:Datum:Temp:Abs-Feuchte:Windchill:Wind:
Aussen-T/F 1551 08-08-2010 22:15:01 17.2 C 11.42 g/m*3 17.2 C 0 km/h
1552 08-08-2010 22:27:01 17.1 C 11.5 g/m*3 17.1 C 0 km/h
1553 08-08-2010 22:39:01 17.1 C 11.5 g/m*3 17.1 C 0 km/h
1554 08-08-2010 22:51:01 16.9 C 11.65 g/m*3 16.9 C 0 km/h
1555 08-08-2010 23:03:01 17 C 11.43 g/m*3 17 C 0 km/h
1556 08-08-2010 23:15:01 16.9 C 11.65 g/m*3 16.9 C 0 km/h
1557 08-08-2010 23:27:01 16.6 C 11.58 g/m*3 16.6 C 0 km/h
1558 08-08-2010 23:39:01 16.5 C 11.8 g/m*3 16.5 C 0 km/h
1559 08-08-2010 23:51:01 16.5 C 11.94 g/m*3 16.5 C 0 km/h
1560 09-08-2010 00:03:01 16.4 C 11.86 g/m*3 16.4 C 0 km/h
1561 09-08-2010 00:15:02 16.4 C 12 g/m*3 16.4 C 0 km/h
1562 09-08-2010 00:27:02 16.4 C 12 g/m*3 16.4 C 0 km/h
1563 09-08-2010 00:39:02 16.4 C 12.14 g/m*3 16.4 C 0 km/h
1564 09-08-2010 00:51:02 16.5 C 12.22 g/m*3 16.5 C 0 km/h
1565 09-08-2010 01:03:02 16.5 C 12.22 g/m*3 16.5 C 0 km/h
1566 09-08-2010 01:15:02 16.5 C 12.22 g/m*3 16.5 C 0 km/h
1567 09-08-2010 01:27:02 16.5 C 12.22 g/m*3 16.5 C 0 km/h
1568 09-08-2010 01:39:02 16.4 C 12.14 g/m*3 16.4 C 0 km/h
1569 09-08-2010 01:51:02 16.3 C 12.07 g/m*3 16.3 C 0 km/h
1570 09-08-2010 02:03:02 16 C 11.85 g/m*3 16 C 0 km/h
1571 09-08-2010 02:15:02 15.7 C 11.77 g/m*3 15.7 C 0 km/h
1572 09-08-2010 02:27:02 15.6 C 11.7 g/m*3 15.6 C 0 km/h
1573 09-08-2010 02:39:02 15.4 C 11.56 g/m*3 15.4 C 0 km/h
1574 09-08-2010 02:51:02 15.3 C 11.49 g/m*3 15.3 C 0 km/h
1575 09-08-2010 03:03:02 15.3 C 11.49 g/m*3 15.3 C 0 km/h
Sensor: Nr:Datum:Temp:Abs-Feuchte:Windchill:Wind:
Aussen-T/F 1576 09-08-2010 03:15:02 15.4 C 11.69 g/m*3 15.4 C 0 km/h
1577 09-08-2010 03:27:02 15.7 C 11.91 g/m*3 15.7 C 0 km/h
1578 09-08-2010 03:39:02 15.8 C 11.85 g/m*3 15.8 C 0 km/h
1579 09-08-2010 03:51:02 15.8 C 11.58 g/m*3 15.8 C 0 km/h
1580 09-08-2010 04:03:02 15.9 C 11.51 g/m*3 15.9 C 0 km/h
1581 09-08-2010 04:15:02 15.8 C 11.31 g/m*3 15.8 C 0 km/h
1582 09-08-2010 04:27:03 15.7 C 11.37 g/m*3 15.7 C 0 km/h
1583 09-08-2010 04:39:03 15.7 C 11.37 g/m*3 15.7 C 0 km/h
1584 09-08-2010 04:51:03 15.6 C 11.44 g/m*3 15.6 C 0 km/h
1585 09-08-2010 05:03:03 15.4 C 11.17 g/m*3 15.4 C 0 km/h
1586 09-08-2010 05:15:03 15 C 10.9 g/m*3 15 C 0 km/h
1587 09-08-2010 05:27:03 14.8 C 11.02 g/m*3 14.8 C 0 km/h
1588 09-08-2010 05:39:03 14.5 C 10.82 g/m*3 14.5 C 0 km/h
1589 09-08-2010 05:51:03 14.5 C 10.94 g/m*3 14.5 C 0 km/h
1590 09-08-2010 06:03:03 14.5 C 11.07 g/m*3 14.5 C 0 km/h
1591 09-08-2010 06:15:03 14.6 C 11.26 g/m*3 14.6 C 0 km/h
1592 09-08-2010 06:27:03 14.7 C 11.46 g/m*3 14.7 C 0 km/h
1593 09-08-2010 06:39:03 14.6 C 11.39 g/m*3 14.6 C 0 km/h
1594 09-08-2010 06:51:03 14.6 C 11.39 g/m*3 14.6 C 0 km/h
1595 09-08-2010 07:03:02 14.5 C 11.32 g/m*3 14.5 C 0 km/h
1596 09-08-2010 07:15:02 14.6 C 11.39 g/m*3 14.6 C 0 km/h
1597 09-08-2010 07:27:02 14.6 C 11.39 g/m*3 14.6 C 0 km/h
1598 09-08-2010 07:39:02 14.6 C 11.26 g/m*3 14.6 C 0 km/h
1599 09-08-2010 07:51:02 14.7 C 11.33 g/m*3 14.7 C 0 km/h
1600 09-08-2010 08:03:01 15 C 11.28 g/m*3 15 C 0 km/h
Sensor: Nr:Datum:Temp:Abs-Feuchte:Windchill:Wind:
Aussen-T/F 1601 09-08-2010 08:15:01 15 C 11.16 g/m*3 15 C 0 km/h
1602 09-08-2010 08:27:01 15.2 C 11.03 g/m*3 15.2 C 0 km/h
1603 09-08-2010 08:39:01 15.4 C 10.9 g/m*3 15.4 C 0 km/h
1604 09-08-2010 08:51:01 15.5 C 10.84 g/m*3 15.5 C 0 km/h
1605 09-08-2010 09:03:02 15.5 C 10.84 g/m*3 15.5 C 0 km/h
1606 09-08-2010 09:15:01 15.7 C 10.97 g/m*3 15.7 C 0 km/h
1607 09-08-2010 09:27:01 15.9 C 10.83 g/m*3 15.9 C 0 km/h
1608 09-08-2010 09:39:01 16 C 10.63 g/m*3 16 C 0 km/h
1609 09-08-2010 09:51:02 15.9 C 10.83 g/m*3 15.9 C 0 km/h
1610 09-08-2010 10:03:02 16.3 C 10.82 g/m*3 16.3 C 0 km/h
1611 09-08-2010 10:15:02 16.7 C 10.8 g/m*3 16.7 C 0 km/h
1612 09-08-2010 10:27:02 17.2 C 10.84 g/m*3 17.2 C 0 km/h
1613 09-08-2010 10:39:02 17.9 C 10.54 g/m*3 17.9 C 0 km/h
1614 09-08-2010 10:51:02 18.9 C 9.56 g/m*3 18.9 C 0 km/h
1615 09-08-2010 11:03:02 19.4 C 9.51 g/m*3 19.4 C 0 km/h
1616 09-08-2010 11:15:02 19.1 C 9.18 g/m*3 19.1 C 0 km/h
1617 09-08-2010 11:27:02 19.4 C 9.34 g/m*3 19.4 C 0 km/h
1618 09-08-2010 11:39:02 20.3 C 9.32 g/m*3 20.3 C 0 km/h
1619 09-08-2010 11:51:01 19.8 C 8.88 g/m*3 19.8 C 0 km/h
1620 09-08-2010 12:03:02 20.6 C 8.95 g/m*3 20.6 C 0 km/h
1621 09-08-2010 12:15:02 20.9 C 8.74 g/m*3 20.9 C 0 km/h
1622 09-08-2010 12:27:02 21.2 C 8.71 g/m*3 21.2 C 0 km/h
1623 09-08-2010 12:39:02 21.8 C 8.44 g/m*3 21.8 C 0 km/h
1624 09-08-2010 12:51:02 22 C 8.15 g/m*3 22 C 0 km/h
1625 09-08-2010 13:03:01 22.2 C 8.83 g/m*3 22.2 C 0 km/h
Sensor: Nr:Datum:Temp:Abs-Feuchte:Windchill:Wind:
Aussen-T/F 1626 09-08-2010 13:15:02 23.5 C 8.88 g/m*3 23.5 C 0 km/h
1627 09-08-2010 13:27:02 25.1 C 7.87 g/m*3 25.1 C 0 km/h
1628 09-08-2010 13:39:01 25.6 C 7.38 g/m*3 25.6 C 0 km/h
1629 09-08-2010 13:51:02 25.4 C 7.53 g/m*3 25.4 C 0 km/h
1630 09-08-2010 14:03:02 24.6 C 7.65 g/m*3 24.6 C 0 km/h
1631 09-08-2010 14:15:02 24 C 7.61 g/m*3 24 C 0 km/h
1632 09-08-2010 14:27:02 23.7 C 7.91 g/m*3 23.7 C 0 km/h
1633 09-08-2010 14:39:03 23.7 C 7.91 g/m*3 23.7 C 0 km/h
1634 09-08-2010 14:51:02 24.5 C 8.06 g/m*3 24.5 C 0 km/h
1635 09-08-2010 15:03:02 25.1 C 7.87 g/m*3 25.1 C 0 km/h
1636 09-08-2010 15:15:01 24.8 C 7.74 g/m*3 24.8 C 0 km/h
1637 09-08-2010 15:27:01 25.4 C 7.53 g/m*3 25.4 C 0 km/h
1638 09-08-2010 15:39:02 25.9 C 7.26 g/m*3 25.9 C 0 km/h
1639 09-08-2010 15:51:02 26.5 C 7.51 g/m*3 26.5 C 0 km/h
1640 09-08-2010 16:03:02 26.9 C 6.91 g/m*3 26.9 C 0 km/h
1641 09-08-2010 16:15:01 26.6 C 6.54 g/m*3 26.6 C 0 km/h
1642 09-08-2010 16:27:01 26.4 C 6.72 g/m*3 26.4 C 0 km/h
1643 09-08-2010 16:39:02 25.7 C 6.22 g/m*3 25.7 C 0 km/h
1644 09-08-2010 16:51:02 25.3 C 7.73 g/m*3 25.3 C 0 km/h
1645 09-08-2010 17:03:02 25.3 C 8.43 g/m*3 25.3 C 0 km/h
1646 09-08-2010 17:15:02 25.7 C 8.62 g/m*3 25.7 C 0 km/h
1647 09-08-2010 17:27:02 25.5 C 8.76 g/m*3 25.5 C 0 km/h
1648 09-08-2010 17:39:02 26.4 C 7.22 g/m*3 26.4 C 0 km/h
1649 09-08-2010 17:51:02 28.2 C 7.15 g/m*3 28.2 C 0 km/h
1650 09-08-2010 18:03:02 28.9 C 7.14 g/m*3 28.9 C 0 km/h
Sensor: Nr:Datum:Temp:Abs-Feuchte:Windchill:Wind:
Aussen-T/F 1651 09-08-2010 18:15:02 28.2 C 8.25 g/m*3 28.2 C 0 km/h
1652 09-08-2010 18:27:03 27.9 C 7.84 g/m*3 27.9 C 0 km/h
1653 09-08-2010 18:39:02 27.1 C 8.02 g/m*3 27.1 C 0 km/h
1654 09-08-2010 18:51:02 25.4 C 8 g/m*3 25.4 C 0 km/h
1655 09-08-2010 19:03:01 24.6 C 8.33 g/m*3 24.6 C 0 km/h
1656 09-08-2010 19:15:02 24.1 C 8.75 g/m*3 24.1 C 0 km/h
1657 09-08-2010 19:27:02 23.6 C 9.15 g/m*3 23.6 C 0 km/h
1658 09-08-2010 19:39:02 22.8 C 8.94 g/m*3 22.8 C 0 km/h
1659 09-08-2010 19:51:02 22.5 C 8.79 g/m*3 22.5 C 0 km/h
1660 09-08-2010 20:03:03 22 C 8.73 g/m*3 22 C 0 km/h
1661 09-08-2010 20:15:02 21.6 C 8.72 g/m*3 21.6 C 0 km/h
1662 09-08-2010 20:27:02 21.4 C 8.62 g/m*3 21.4 C 0 km/h
1663 09-08-2010 20:39:02 20.9 C 8.38 g/m*3 20.9 C 0 km/h
1664 09-08-2010 20:51:01 20.4 C 8.31 g/m*3 20.4 C 0 km/h
1665 09-08-2010 21:03:02 20.2 C 8.74 g/m*3 20.2 C 0 km/h
1666 09-08-2010 21:15:01 20 C 8.47 g/m*3 20 C 0 km/h
1667 09-08-2010 21:27:01 19.8 C 8.88 g/m*3 19.8 C 0 km/h
1668 09-08-2010 21:39:01 19.6 C 8.95 g/m*3 19.6 C 0 km/h
1669 09-08-2010 21:51:01 19.2 C 8.9 g/m*3 19.2 C 0 km/h
1670 09-08-2010 22:03:01 18.9 C 8.91 g/m*3 18.9 C 0 km/h
1671 09-08-2010 22:15:02 18.9 C 8.91 g/m*3 18.9 C 0 km/h
1672 09-08-2010 22:27:03 18.7 C 9.13 g/m*3 18.7 C 0 km/h
1673 09-08-2010 22:39:02 18.5 C 9.02 g/m*3 18.5 C 0 km/h
1674 09-08-2010 22:52:02 18.2 C 8.86 g/m*3 18.2 C 0 km/h
1675 09-08-2010 23:04:02 18.2 C 9.01 g/m*3 18.2 C 0 km/h
Sensor: Nr:Datum:Temp:Abs-Feuchte:Windchill:Wind:
Aussen-T/F 1676 09-08-2010 23:16:03 18.1 C 9.12 g/m*3 18.1 C 0 km/h
1677 09-08-2010 23:28:03 18.1 C 9.27 g/m*3 18.1 C 0 km/h
1678 09-08-2010 23:40:03 18.1 C 9.43 g/m*3 18.1 C 0 km/h
1679 09-08-2010 23:52:03 18.1 C 9.43 g/m*3 18.1 C 0 km/h
1680 10-08-2010 00:04:03 17.9 C 9.47 g/m*3 17.9 C 0 km/h
1681 10-08-2010 00:16:03 17.7 C 9.81 g/m*3 17.7 C 0 km/h
1682 10-08-2010 00:28:03 17.5 C 9.84 g/m*3 17.5 C 0 km/h
1683 10-08-2010 00:40:03 17.5 C 9.69 g/m*3 17.5 C 0 km/h
1684 10-08-2010 00:52:03 17.5 C 10.14 g/m*3 17.5 C 0 km/h
1685 10-08-2010 01:04:03 17.5 C 10.29 g/m*3 17.5 C 0 km/h
1686 10-08-2010 01:16:03 17.5 C 10.14 g/m*3 17.5 C 0 km/h
1687 10-08-2010 01:28:03 17.6 C 10.05 g/m*3 17.6 C 0 km/h
1688 10-08-2010 01:40:03 17.5 C 10.14 g/m*3 17.5 C 0 km/h
1689 10-08-2010 01:52:03 17.5 C 10.14 g/m*3 17.5 C 0 km/h
1690 10-08-2010 02:04:03 17.5 C 9.99 g/m*3 17.5 C 0 km/h
1691 10-08-2010 02:16:03 17.5 C 10.14 g/m*3 17.5 C 0 km/h
1692 10-08-2010 02:28:03 17.4 C 10.08 g/m*3 17.4 C 0 km/h
1693 10-08-2010 02:40:03 17.3 C 10.02 g/m*3 17.3 C 0 km/h
1694 10-08-2010 02:52:03 17.2 C 9.96 g/m*3 17.2 C 0 km/h
1695 10-08-2010 03:04:03 17.2 C 9.96 g/m*3 17.2 C 0 km/h
1696 10-08-2010 03:16:03 17.2 C 10.1 g/m*3 17.2 C 0 km/h
1697 10-08-2010 03:28:03 17.1 C 10.04 g/m*3 17.1 C 0 km/h
1698 10-08-2010 03:40:04 17.2 C 10.1 g/m*3 17.2 C 0 km/h
1699 10-08-2010 03:52:04 17 C 10.27 g/m*3 17 C 0 km/h
1700 10-08-2010 04:04:04 16.9 C 10.36 g/m*3 16.9 C 0 km/h
Sensor: Nr:Datum:Temp:Abs-Feuchte:Windchill:Wind:
Aussen-T/F 1701 10-08-2010 04:16:04 16.9 C 10.21 g/m*3 16.9 C 0 km/h
1702 10-08-2010 04:28:04 16.9 C 10.21 g/m*3 16.9 C 0 km/h
1703 10-08-2010 04:40:04 16.9 C 10.21 g/m*3 16.9 C 0 km/h
1704 10-08-2010 04:52:04 16.7 C 10.23 g/m*3 16.7 C 0 km/h
1705 10-08-2010 05:04:04 16.3 C 9.99 g/m*3 16.3 C 0 km/h
1706 10-08-2010 05:16:04 15.9 C 10.02 g/m*3 15.9 C 0 km/h
1707 10-08-2010 05:28:04 15.6 C 10.24 g/m*3 15.6 C 0 km/h
1708 10-08-2010 05:40:04 15.3 C 10.19 g/m*3 15.3 C 0 km/h
1709 10-08-2010 05:52:04 15 C 10 g/m*3 15 C 0 km/h
1710 10-08-2010 06:04:04 14.9 C 10.07 g/m*3 14.9 C 0 km/h
1711 10-08-2010 06:16:04 14.7 C 9.95 g/m*3 14.7 C 0 km/h
1712 10-08-2010 06:28:04 14.6 C 9.89 g/m*3 14.6 C 0 km/h
1713 10-08-2010 06:40:04 14.6 C 9.89 g/m*3 14.6 C 0 km/h
1714 10-08-2010 06:52:02 14.5 C 9.83 g/m*3 14.5 C 0 km/h
1715 10-08-2010 07:04:02 14.7 C 10.2 g/m*3 14.7 C 0 km/h
1716 10-08-2010 07:16:02 14.7 C 10.2 g/m*3 14.7 C 0 km/h
1717 10-08-2010 07:28:02 14.8 C 10.26 g/m*3 14.8 C 0 km/h
1718 10-08-2010 07:40:01 15 C 10.39 g/m*3 15 C 0 km/h
1719 10-08-2010 07:52:03 15.2 C 10.51 g/m*3 15.2 C 0 km/h
1720 10-08-2010 08:04:02 15.4 C 10.64 g/m*3 15.4 C 0 km/h
1721 10-08-2010 08:16:02 15.5 C 10.57 g/m*3 15.5 C 0 km/h
1722 10-08-2010 08:28:02 15.8 C 10.77 g/m*3 15.8 C 0 km/h
1723 10-08-2010 08:40:03 16.1 C 10.69 g/m*3 16.1 C 0 km/h
1724 10-08-2010 08:52:02 16.4 C 10.89 g/m*3 16.4 C 0 km/h
1725 10-08-2010 09:04:02 17.2 C 10.98 g/m*3 17.2 C 0 km/h
Sensor: Nr:Datum:Temp:Abs-Feuchte:Windchill:Wind:
Aussen-T/F 1726 10-08-2010 09:16:02 18.1 C 10.51 g/m*3 18.1 C 0 km/h
1727 10-08-2010 09:28:02 18.2 C 10.41 g/m*3 18.2 C 0 km/h
1728 10-08-2010 09:40:03 18.5 C 10.44 g/m*3 18.5 C 0 km/h
1729 10-08-2010 09:52:02 19 C 10.59 g/m*3 19 C 0 km/h
1730 10-08-2010 10:04:02 19.3 C 10.62 g/m*3 19.3 C 0 km/h
1731 10-08-2010 10:16:01 20.1 C 10.78 g/m*3 20.1 C 0 km/h
1732 10-08-2010 10:28:01 20.9 C 11.11 g/m*3 20.9 C 0 km/h
1733 10-08-2010 10:40:02 21.8 C 11.32 g/m*3 21.8 C 0 km/h
1734 10-08-2010 10:52:01 22.5 C 11.19 g/m*3 22.5 C 0 km/h
1735 10-08-2010 11:04:02 22.9 C 11.44 g/m*3 22.9 C 0 km/h
1736 10-08-2010 11:16:02 23.4 C 11.14 g/m*3 23.4 C 0 km/h
1737 10-08-2010 11:28:02 23.7 C 9.2 g/m*3 23.7 C 0 km/h
1738 10-08-2010 11:40:01 24.1 C 7.88 g/m*3 24.1 C 0 km/h
1739 10-08-2010 11:52:01 24.6 C 7.65 g/m*3 24.6 C 0 km/h
1740 10-08-2010 12:04:01 25.1 C 7.18 g/m*3 25.1 C 0 km/h
1741 10-08-2010 12:16:02 25.4 C 6.59 g/m*3 25.4 C 0 km/h
1742 10-08-2010 12:28:02 25.9 C 7.02 g/m*3 25.9 C 0 km/h
1743 10-08-2010 12:40:01 26.4 C 6.72 g/m*3 26.4 C 0 km/h
1744 10-08-2010 12:52:03 26.7 C 6.58 g/m*3 26.7 C 0 km/h
1745 10-08-2010 13:04:02 27 C 6.43 g/m*3 27 C 0 km/h
1746 10-08-2010 13:16:02 27.8 C 5.92 g/m*3 27.8 C 0 km/h
1747 10-08-2010 13:28:02 28.6 C 5.9 g/m*3 28.6 C 0 km/h
1748 10-08-2010 13:40:02 28.7 C 5.93 g/m*3 28.7 C 0 km/h
1749 10-08-2010 13:52:02 28.7 C 5.65 g/m*3 28.7 C 0 km/h
1750 10-08-2010 14:04:01 28.9 C 5.71 g/m*3 28.9 C 0 km/h
Sensor: Nr:Datum:Temp:Abs-Feuchte:Windchill:Wind:
Aussen-T/F 1751 10-08-2010 14:16:02 29.3 C 6.13 g/m*3 29.3 C 0 km/h
1752 10-08-2010 14:28:02 29.1 C 5.78 g/m*3 29.1 C 0 km/h
1753 10-08-2010 14:40:02 29.1 C 6.06 g/m*3 29.1 C 0 km/h
1754 10-08-2010 14:52:01 28.8 C 7.39 g/m*3 28.8 C 0 km/h
1755 10-08-2010 15:04:02 28.9 C 6.57 g/m*3 28.9 C 0 km/h
1756 10-08-2010 15:16:01 28.6 C 7.03 g/m*3 28.6 C 0 km/h
1757 10-08-2010 15:28:01 28.2 C 7.7 g/m*3 28.2 C 0 km/h
1758 10-08-2010 15:40:01 28.3 C 8.29 g/m*3 28.3 C 0 km/h
1759 10-08-2010 15:52:01 28.3 C 7.19 g/m*3 28.3 C 0 km/h
1760 10-08-2010 16:04:01 29.1 C 7.8 g/m*3 29.1 C 0 km/h
1761 10-08-2010 16:16:02 30.1 C 6.4 g/m*3 30.1 C 0 km/h
1762 10-08-2010 16:28:02 30 C 6.06 g/m*3 30 C 0 km/h
1763 10-08-2010 16:40:01 30.2 C 6.13 g/m*3 30.2 C 0 km/h
1764 10-08-2010 16:52:02 30 C 6.06 g/m*3 30 C 0 km/h
1765 10-08-2010 17:04:02 30.1 C 6.71 g/m*3 30.1 C 0 km/h
1766 10-08-2010 17:16:02 30.1 C 6.4 g/m*3 30.1 C 0 km/h
1767 10-08-2010 17:28:02 30.2 C 6.13 g/m*3 30.2 C 0 km/h
1768 10-08-2010 17:40:01 29.6 C 6.53 g/m*3 29.6 C 0 km/h
1769 10-08-2010 17:52:02 29.7 C 6.56 g/m*3 29.7 C 0 km/h
1770 10-08-2010 18:04:01 30.2 C 6.13 g/m*3 30.2 C 0 km/h
1771 10-08-2010 18:16:02 31 C 6.72 g/m*3 31 C 0 km/h
1772 10-08-2010 18:28:02 29.2 C 6.68 g/m*3 29.2 C 0 km/h
1773 10-08-2010 18:40:02 28.9 C 6.86 g/m*3 28.9 C 0 km/h
1774 10-08-2010 18:52:02 29.1 C 7.22 g/m*3 29.1 C 0 km/h
1775 10-08-2010 19:04:03 28.4 C 7.23 g/m*3 28.4 C 0 km/h
Sensor: Nr:Datum:Temp:Abs-Feuchte:Windchill:Wind:
Aussen-T/F 1776 10-08-2010 19:16:02 27.5 C 7.94 g/m*3 27.5 C 0 km/h
1777 10-08-2010 19:28:02 26.8 C 8.4 g/m*3 26.8 C 0 km/h
1778 10-08-2010 19:40:03 26.3 C 8.42 g/m*3 26.3 C 0 km/h
1779 10-08-2010 19:52:02 25.7 C 8.62 g/m*3 25.7 C 0 km/h
1780 10-08-2010 20:04:02 25.3 C 8.19 g/m*3 25.3 C 0 km/h
1781 10-08-2010 20:16:01 25.1 C 8.33 g/m*3 25.1 C 0 km/h
1782 10-08-2010 20:28:01 24.7 C 8.37 g/m*3 24.7 C 0 km/h
1783 10-08-2010 20:40:02 24.6 C 8.33 g/m*3 24.6 C 0 km/h
1784 10-08-2010 20:52:01 24.1 C 8.1 g/m*3 24.1 C 0 km/h
1785 10-08-2010 21:04:02 23.8 C 9.03 g/m*3 23.8 C 0 km/h
1786 10-08-2010 21:16:02 23.4 C 8.41 g/m*3 23.4 C 0 km/h
1787 10-08-2010 21:28:02 23.3 C 8.78 g/m*3 23.3 C 0 km/h
1788 10-08-2010 21:40:02 23.2 C 9.15 g/m*3 23.2 C 0 km/h
1789 10-08-2010 21:53:07 23.1 C 8.48 g/m*3 23.1 C 0 km/h
1790 10-08-2010 22:05:07 23.3 C 8.99 g/m*3 23.3 C 0 km/h
1791 10-08-2010 22:17:07 23.1 C 8.48 g/m*3 23.1 C 0 km/h
1792 10-08-2010 22:29:07 23 C 8.63 g/m*3 23 C 0 km/h
1793 10-08-2010 22:41:07 22.7 C 9.29 g/m*3 22.7 C 0 km/h
1794 10-08-2010 22:53:07 22.2 C 9.23 g/m*3 22.2 C 0 km/h
1795 10-08-2010 23:05:07 22.1 C 9.37 g/m*3 22.1 C 0 km/h
1796 10-08-2010 23:17:07 21.9 C 9.26 g/m*3 21.9 C 0 km/h
1797 10-08-2010 23:29:07 22 C 8.93 g/m*3 22 C 0 km/h
1798 10-08-2010 23:41:07 21.8 C 9.21 g/m*3 21.8 C 0 km/h
1799 10-08-2010 23:53:08 21.7 C 9.54 g/m*3 21.7 C 0 km/h
1800 11-08-2010 00:05:08 21.6 C 9.48 g/m*3 21.6 C 0 km/h
Sensor: Nr:Datum:Temp:Abs-Feuchte:Windchill:Wind:
Aussen-T/F 1801 11-08-2010 00:17:08 21.5 C 9.62 g/m*3 21.5 C 0 km/h
1802 11-08-2010 00:29:08 21.5 C 9.81 g/m*3 21.5 C 0 km/h
1803 11-08-2010 00:41:08 21.4 C 9.75 g/m*3 21.4 C 0 km/h
1804 11-08-2010 00:53:08 21.3 C 9.69 g/m*3 21.3 C 0 km/h
1805 11-08-2010 01:05:08 21.1 C 9.95 g/m*3 21.1 C 0 km/h
1806 11-08-2010 01:17:08 20.9 C 10.2 g/m*3 20.9 C 0 km/h
1807 11-08-2010 01:29:08 20.6 C 10.56 g/m*3 20.6 C 0 km/h
1808 11-08-2010 01:41:08 20.1 C 10.95 g/m*3 20.1 C 0 km/h
1809 11-08-2010 01:53:08 20 C 11.06 g/m*3 20 C 0 km/h
1810 11-08-2010 02:05:08 19.4 C 11.51 g/m*3 19.4 C 0 km/h
1811 11-08-2010 02:17:08 18.5 C 12.02 g/m*3 18.5 C 0 km/h
1812 11-08-2010 02:29:08 18.1 C 12.36 g/m*3 18.1 C 0 km/h
1813 11-08-2010 02:41:08 18 C 12.59 g/m*3 18 C 0 km/h
1814 11-08-2010 02:53:08 17.9 C 12.98 g/m*3 17.9 C 0 km/h
1815 11-08-2010 03:05:08 17.7 C 12.98 g/m*3 17.7 C 0 km/h
1816 11-08-2010 03:17:08 17.7 C 13.13 g/m*3 17.7 C 0 km/h
1817 11-08-2010 03:29:08 17.7 C 13.13 g/m*3 17.7 C 0 km/h
1818 11-08-2010 03:41:08 17.5 C 13.12 g/m*3 17.5 C 0 km/h
1819 11-08-2010 03:53:08 17.6 C 13.35 g/m*3 17.6 C 0 km/h
1820 11-08-2010 04:05:08 17.5 C 13.27 g/m*3 17.5 C 0 km/h
1821 11-08-2010 04:17:08 17.6 C 13.5 g/m*3 17.6 C 0 km/h
1822 11-08-2010 04:29:09 17.5 C 13.42 g/m*3 17.5 C 0 km/h
1823 11-08-2010 04:41:09 17.6 C 13.5 g/m*3 17.6 C 0 km/h
1824 11-08-2010 04:53:09 17.4 C 13.34 g/m*3 17.4 C 0 km/h
1825 11-08-2010 05:05:09 17.4 C 13.34 g/m*3 17.4 C 0 km/h
Sensor: Nr:Datum:Temp:Abs-Feuchte:Windchill:Wind:
Aussen-T/F 1826 11-08-2010 05:17:09 17.5 C 13.27 g/m*3 17.5 C 0 km/h
1827 11-08-2010 05:29:09 17.3 C 13.11 g/m*3 17.3 C 0 km/h
1828 11-08-2010 05:41:09 17.4 C 13.19 g/m*3 17.4 C 0 km/h
1829 11-08-2010 05:53:09 17.5 C 13.27 g/m*3 17.5 C 0 km/h
1830 11-08-2010 06:05:09 17.4 C 13.19 g/m*3 17.4 C 0 km/h
1831 11-08-2010 06:17:09 17.4 C 13.04 g/m*3 17.4 C 0 km/h
1832 11-08-2010 06:29:09 17.4 C 13.04 g/m*3 17.4 C 0 km/h
1833 11-08-2010 06:41:02 17.4 C 13.04 g/m*3 17.4 C 0 km/h
1834 11-08-2010 06:53:02 17.4 C 12.89 g/m*3 17.4 C 0 km/h
1835 11-08-2010 07:05:02 17.4 C 12.89 g/m*3 17.4 C 0 km/h
1836 11-08-2010 07:17:02 17.5 C 12.97 g/m*3 17.5 C 0 km/h
1837 11-08-2010 07:29:03 17.6 C 13.05 g/m*3 17.6 C 0 km/h
1838 11-08-2010 07:41:01 17.7 C 13.13 g/m*3 17.7 C 0 km/h
1839 11-08-2010 07:53:02 17.9 C 13.13 g/m*3 17.9 C 0 km/h
1840 11-08-2010 08:05:01 18.1 C 13.13 g/m*3 18.1 C 0 km/h
1841 11-08-2010 08:17:01 18.6 C 13.53 g/m*3 18.6 C 0 km/h
1842 11-08-2010 08:29:01 18.7 C 13.29 g/m*3 18.7 C 0 km/h
1843 11-08-2010 08:41:01 18.9 C 12.96 g/m*3 18.9 C 0 km/h
1844 11-08-2010 08:53:01 19.1 C 12.13 g/m*3 19.1 C 0 km/h
1845 11-08-2010 09:05:01 19.5 C 12.08 g/m*3 19.5 C 0 km/h
1846 11-08-2010 09:17:01 19.8 C 11.61 g/m*3 19.8 C 0 km/h
1847 11-08-2010 09:29:01 19.7 C 11.55 g/m*3 19.7 C 0 km/h
1848 11-08-2010 09:41:01 19.7 C 11.21 g/m*3 19.7 C 0 km/h
1849 11-08-2010 09:53:02 19.5 C 11.08 g/m*3 19.5 C 0 km/h
1850 11-08-2010 10:05:02 20 C 11.23 g/m*3 20 C 0 km/h
Sensor: Nr:Datum:Temp:Abs-Feuchte:Windchill:Wind:
Aussen-T/F 1851 11-08-2010 10:17:02 20.9 C 11.29 g/m*3 20.9 C 0 km/h
1852 11-08-2010 10:29:02 21.2 C 10.93 g/m*3 21.2 C 0 km/h
1853 11-08-2010 10:41:02 21.1 C 11.06 g/m*3 21.1 C 0 km/h
1854 11-08-2010 10:53:01 20.8 C 10.86 g/m*3 20.8 C 0 km/h
1855 11-08-2010 11:05:01 20.7 C 11.16 g/m*3 20.7 C 0 km/h
1856 11-08-2010 11:17:02 20.4 C 11.14 g/m*3 20.4 C 0 km/h
1857 11-08-2010 11:29:02 20.5 C 11.21 g/m*3 20.5 C 0 km/h
1858 11-08-2010 11:41:01 20.4 C 11.14 g/m*3 20.4 C 0 km/h
1859 11-08-2010 11:53:02 21.1 C 11.24 g/m*3 21.1 C 0 km/h
1860 11-08-2010 12:05:01 21.8 C 11.13 g/m*3 21.8 C 0 km/h
1861 11-08-2010 12:17:02 22.1 C 11.13 g/m*3 22.1 C 0 km/h
1862 11-08-2010 12:29:03 22.5 C 10.99 g/m*3 22.5 C 0 km/h
1863 11-08-2010 12:41:01 22.8 C 10.97 g/m*3 22.8 C 0 km/h
1864 11-08-2010 12:53:02 23.1 C 10.75 g/m*3 23.1 C 0 km/h
1865 11-08-2010 13:05:02 23.5 C 10.79 g/m*3 23.5 C 0 km/h
1866 11-08-2010 13:17:02 23.3 C 10.25 g/m*3 23.3 C 0 km/h
1867 11-08-2010 13:29:02 24 C 10.44 g/m*3 24 C 0 km/h
1868 11-08-2010 13:41:03 24.1 C 10.28 g/m*3 24.1 C 0 km/h
1869 11-08-2010 13:53:02 24.1 C 10.06 g/m*3 24.1 C 0 km/h
1870 11-08-2010 14:05:02 24.2 C 10.12 g/m*3 24.2 C 0 km/h
1871 11-08-2010 14:17:01 24.8 C 10.02 g/m*3 24.8 C 0 km/h
1872 11-08-2010 14:29:01 24.2 C 9.68 g/m*3 24.2 C 0 km/h
1873 11-08-2010 14:41:02 24.2 C 10.34 g/m*3 24.2 C 0 km/h
1874 11-08-2010 14:53:02 24.6 C 10.35 g/m*3 24.6 C 0 km/h
1875 11-08-2010 15:05:01 24.8 C 10.02 g/m*3 24.8 C 0 km/h
Sensor: Nr:Datum:Temp:Abs-Feuchte:Windchill:Wind:
Aussen-T/F 1876 11-08-2010 15:17:01 25 C 10.13 g/m*3 25 C 0 km/h
1877 11-08-2010 15:29:01 25.9 C 10.17 g/m*3 25.9 C 0 km/h
1878 11-08-2010 15:41:02 26.6 C 9.57 g/m*3 26.6 C 0 km/h
1879 11-08-2010 15:53:02 25.5 C 9.47 g/m*3 25.5 C 0 km/h
1880 11-08-2010 16:05:02 25.2 C 9.78 g/m*3 25.2 C 0 km/h
1881 11-08-2010 16:17:02 24.3 C 9.96 g/m*3 24.3 C 0 km/h
1882 11-08-2010 16:29:02 23.2 C 11.02 g/m*3 23.2 C 0 km/h
1883 11-08-2010 16:41:02 20.5 C 13.35 g/m*3 20.5 C 0 km/h
1884 11-08-2010 16:53:02 21.2 C 14.64 g/m*3 21.2 C 0 km/h
1885 11-08-2010 17:05:02 21.6 C 14.41 g/m*3 21.6 C 0 km/h
1886 11-08-2010 17:17:02 21.6 C 14.41 g/m*3 21.6 C 0 km/h
1887 11-08-2010 17:29:02 22.1 C 14.05 g/m*3 22.1 C 0 km/h
1888 11-08-2010 17:41:02 21.3 C 12.86 g/m*3 21.3 C 0 km/h
1889 11-08-2010 17:53:02 22.1 C 14.25 g/m*3 22.1 C 0 km/h
1890 11-08-2010 18:05:02 22.5 C 14.18 g/m*3 22.5 C 0 km/h
1891 11-08-2010 18:17:03 22.9 C 14.71 g/m*3 22.9 C 0 km/h
1892 11-08-2010 18:29:03 23.3 C 14.43 g/m*3 23.3 C 0 km/h
1893 11-08-2010 18:41:02 23 C 13.98 g/m*3 23 C 0 km/h
1894 11-08-2010 18:53:03 22.6 C 14.26 g/m*3 22.6 C 0 km/h
1895 11-08-2010 19:05:02 21.9 C 13.89 g/m*3 21.9 C 0 km/h
1896 11-08-2010 19:17:02 21.5 C 13.77 g/m*3 21.5 C 0 km/h
1897 11-08-2010 19:29:02 21.2 C 13.71 g/m*3 21.2 C 0 km/h
1898 11-08-2010 19:41:02 21 C 13.56 g/m*3 21 C 0 km/h
1899 11-08-2010 19:53:02 20.8 C 13.58 g/m*3 20.8 C 0 km/h
1900 11-08-2010 20:05:01 20.4 C 13.27 g/m*3 20.4 C 0 km/h
Sensor: Nr:Datum:Temp:Abs-Feuchte:Windchill:Wind:
Aussen-T/F 1901 11-08-2010 20:17:02 20 C 13.31 g/m*3 20 C 0 km/h
1902 11-08-2010 20:29:02 19.8 C 13.66 g/m*3 19.8 C 0 km/h
1903 11-08-2010 20:41:02 18.9 C 13.61 g/m*3 18.9 C 0 km/h
1904 11-08-2010 20:53:01 18.7 C 13.93 g/m*3 18.7 C 0 km/h
1905 11-08-2010 21:05:02 19 C 14.34 g/m*3 19 C 0 km/h
1906 11-08-2010 21:17:01 18.9 C 14.42 g/m*3 18.9 C 0 km/h
1907 11-08-2010 21:29:01 18.9 C 14.42 g/m*3 18.9 C 0 km/h
1908 11-08-2010 21:41:02 18.9 C 14.58 g/m*3 18.9 C 0 km/h
1909 11-08-2010 21:53:01 18.5 C 14.24 g/m*3 18.5 C 0 km/h
1910 11-08-2010 22:05:02 18.5 C 14.24 g/m*3 18.5 C 0 km/h
1911 11-08-2010 22:18:01 18.6 C 14.48 g/m*3 18.6 C 0 km/h
1912 11-08-2010 22:30:01 18.5 C 14.4 g/m*3 18.5 C 0 km/h
1913 11-08-2010 22:42:01 18.4 C 14.31 g/m*3 18.4 C 0 km/h
1914 11-08-2010 22:54:01 18.4 C 14.47 g/m*3 18.4 C 0 km/h
1915 11-08-2010 23:06:01 18.4 C 14.47 g/m*3 18.4 C 0 km/h
1916 11-08-2010 23:18:02 18.4 C 14.47 g/m*3 18.4 C 0 km/h
1917 11-08-2010 23:30:02 18.3 C 14.38 g/m*3 18.3 C 0 km/h
1918 11-08-2010 23:42:02 18.3 C 14.38 g/m*3 18.3 C 0 km/h
1919 11-08-2010 23:54:02 18.1 C 14.21 g/m*3 18.1 C 0 km/h
1920 12-08-2010 00:06:02 18.2 C 14.46 g/m*3 18.2 C 0 km/h
1921 12-08-2010 00:18:02 18 C 14.28 g/m*3 18 C 0 km/h
1922 12-08-2010 00:30:02 17.8 C 14.27 g/m*3 17.8 C 0 km/h
1923 12-08-2010 00:42:02 17.7 C 14.18 g/m*3 17.7 C 0 km/h
1924 12-08-2010 00:54:02 17.7 C 14.18 g/m*3 17.7 C 0 km/h
1925 12-08-2010 01:06:02 17.6 C 14.1 g/m*3 17.6 C 0 km/h
Sensor: Nr:Datum:Temp:Abs-Feuchte:Windchill:Wind:
Aussen-T/F 1926 12-08-2010 01:18:02 17.5 C 14.01 g/m*3 17.5 C 0 km/h
1927 12-08-2010 01:30:02 17.5 C 14.01 g/m*3 17.5 C 0 km/h
1928 12-08-2010 01:42:02 17.5 C 14.01 g/m*3 17.5 C 0 km/h
1929 12-08-2010 01:54:02 17.5 C 14.01 g/m*3 17.5 C 0 km/h
1930 12-08-2010 02:06:02 17.4 C 13.93 g/m*3 17.4 C 0 km/h
1931 12-08-2010 02:18:02 17.2 C 13.77 g/m*3 17.2 C 0 km/h
1932 12-08-2010 02:30:02 17.1 C 13.68 g/m*3 17.1 C 0 km/h
1933 12-08-2010 02:42:02 17 C 13.6 g/m*3 17 C 0 km/h
1934 12-08-2010 02:54:02 17.1 C 13.68 g/m*3 17.1 C 0 km/h
1935 12-08-2010 03:06:02 17.1 C 13.68 g/m*3 17.1 C 0 km/h
1936 12-08-2010 03:18:02 17.1 C 13.68 g/m*3 17.1 C 0 km/h
1937 12-08-2010 03:30:03 16.9 C 13.52 g/m*3 16.9 C 0 km/h
1938 12-08-2010 03:42:03 16.7 C 13.36 g/m*3 16.7 C 0 km/h
1939 12-08-2010 03:54:03 16.5 C 13.2 g/m*3 16.5 C 0 km/h
1940 12-08-2010 04:06:03 16.4 C 13.12 g/m*3 16.4 C 0 km/h
1941 12-08-2010 04:18:03 16.3 C 13.04 g/m*3 16.3 C 0 km/h
1942 12-08-2010 04:30:03 16.4 C 13.12 g/m*3 16.4 C 0 km/h
1943 12-08-2010 04:42:03 16.6 C 13.42 g/m*3 16.6 C 0 km/h
1944 12-08-2010 04:54:03 16.6 C 13.42 g/m*3 16.6 C 0 km/h
1945 12-08-2010 05:06:03 16.7 C 13.5 g/m*3 16.7 C 0 km/h
1946 12-08-2010 05:18:03 16.4 C 13.26 g/m*3 16.4 C 0 km/h
1947 12-08-2010 05:30:03 16.4 C 13.12 g/m*3 16.4 C 0 km/h
1948 12-08-2010 05:42:03 16.4 C 13.26 g/m*3 16.4 C 0 km/h
1949 12-08-2010 05:54:03 16.5 C 13.34 g/m*3 16.5 C 0 km/h
1950 12-08-2010 06:06:03 16.6 C 13.42 g/m*3 16.6 C 0 km/h
Sensor: Nr:Datum:Temp:Abs-Feuchte:Windchill:Wind:
Aussen-T/F 1951 12-08-2010 06:18:03 16.7 C 13.5 g/m*3 16.7 C 0 km/h
1952 12-08-2010 06:30:03 16.7 C 13.5 g/m*3 16.7 C 0 km/h
1953 12-08-2010 06:42:03 16.8 C 13.58 g/m*3 16.8 C 0 km/h
1954 12-08-2010 06:54:03 16.8 C 13.58 g/m*3 16.8 C 0 km/h
1955 12-08-2010 07:06:02 16.8 C 13.58 g/m*3 16.8 C 0 km/h
1956 12-08-2010 07:18:01 16.8 C 13.58 g/m*3 16.8 C 0 km/h
1957 12-08-2010 07:30:01 16.9 C 13.66 g/m*3 16.9 C 0 km/h
1958 12-08-2010 07:42:02 16.9 C 13.66 g/m*3 16.9 C 0 km/h
1959 12-08-2010 07:54:01 16.9 C 13.52 g/m*3 16.9 C 0 km/h
1960 12-08-2010 08:06:02 16.9 C 13.52 g/m*3 16.9 C 0 km/h
1961 12-08-2010 08:18:01 16.6 C 13 g/m*3 16.6 C 0 km/h
1962 12-08-2010 08:30:01 16.5 C 12.64 g/m*3 16.5 C 0 km/h
1963 12-08-2010 08:42:02 16.4 C 12.42 g/m*3 16.4 C 0 km/h
1964 12-08-2010 08:54:01 16.8 C 12.87 g/m*3 16.8 C 0 km/h
1965 12-08-2010 09:06:02 17.4 C 13.34 g/m*3 17.4 C 0 km/h
1966 12-08-2010 09:18:02 17.7 C 13.58 g/m*3 17.7 C 0 km/h
1967 12-08-2010 09:30:02 17.8 C 13.66 g/m*3 17.8 C 0 km/h
1968 12-08-2010 09:42:01 17.8 C 13.51 g/m*3 17.8 C 0 km/h
1969 12-08-2010 09:54:02 17.9 C 13.13 g/m*3 17.9 C 0 km/h
1970 12-08-2010 10:06:01 18.4 C 12.74 g/m*3 18.4 C 0 km/h
1971 12-08-2010 10:18:01 18.7 C 12.49 g/m*3 18.7 C 0 km/h
1972 12-08-2010 10:30:01 18.6 C 11.78 g/m*3 18.6 C 0 km/h
1973 12-08-2010 10:42:01 18.6 C 11.94 g/m*3 18.6 C 0 km/h
1974 12-08-2010 10:54:02 18.6 C 12.26 g/m*3 18.6 C 0 km/h
1975 12-08-2010 11:06:01 18.5 C 12.5 g/m*3 18.5 C 0 km/h
Sensor: Nr:Datum:Temp:Abs-Feuchte:Windchill:Wind:
Aussen-T/F 1976 12-08-2010 11:18:02 18.7 C 12.49 g/m*3 18.7 C 0 km/h
1977 12-08-2010 11:30:02 18.5 C 12.02 g/m*3 18.5 C 0 km/h
1978 12-08-2010 11:42:02 18.8 C 11.92 g/m*3 18.8 C 0 km/h
1979 12-08-2010 11:54:01 18.6 C 11.94 g/m*3 18.6 C 0 km/h
1980 12-08-2010 12:06:02 19.1 C 11.64 g/m*3 19.1 C 0 km/h
1981 12-08-2010 12:18:01 18.7 C 11.21 g/m*3 18.7 C 0 km/h
1982 12-08-2010 12:30:01 19.9 C 11.68 g/m*3 19.9 C 0 km/h
1983 12-08-2010 12:42:01 19.9 C 10.82 g/m*3 19.9 C 0 km/h
1984 12-08-2010 12:54:01 20.2 C 10.84 g/m*3 20.2 C 0 km/h
1985 12-08-2010 13:06:02 19.8 C 10.25 g/m*3 19.8 C 0 km/h
1986 12-08-2010 13:18:01 20.4 C 10.44 g/m*3 20.4 C 0 km/h
1987 12-08-2010 13:30:01 21.2 C 9.45 g/m*3 21.2 C 0 km/h
1988 12-08-2010 13:42:02 20.2 C 8.57 g/m*3 20.2 C 0 km/h
1989 12-08-2010 13:54:01 19.7 C 9.17 g/m*3 19.7 C 0 km/h
1990 12-08-2010 14:06:02 19.6 C 9.28 g/m*3 19.6 C 0 km/h
1991 12-08-2010 14:18:02 20 C 9.51 g/m*3 20 C 0 km/h
1992 12-08-2010 14:30:02 20.3 C 9.32 g/m*3 20.3 C 0 km/h
1993 12-08-2010 14:42:01 20.8 C 8.51 g/m*3 20.8 C 0 km/h
1994 12-08-2010 14:54:02 20.8 C 8.51 g/m*3 20.8 C 0 km/h
1995 12-08-2010 15:06:01 22 C 8.73 g/m*3 22 C 0 km/h
1996 12-08-2010 15:18:02 23.6 C 8.93 g/m*3 23.6 C 0 km/h
1997 12-08-2010 15:30:02 23.9 C 8.44 g/m*3 23.9 C 0 km/h
1998 12-08-2010 15:42:01 22.7 C 7.88 g/m*3 22.7 C 0 km/h
1999 12-08-2010 15:54:02 22.9 C 7.97 g/m*3 22.9 C 0 km/h
2000 12-08-2010 16:06:02 22.4 C 7.15 g/m*3 22.4 C 0 km/h
Sensor: Nr:Datum:Temp:Abs-Feuchte:Windchill:Wind:
Aussen-T/F 2001 12-08-2010 16:18:02 22.2 C 7.26 g/m*3 22.2 C 0 km/h
2002 12-08-2010 16:30:02 22.1 C 6.83 g/m*3 22.1 C 0 km/h
2003 12-08-2010 16:42:02 22.9 C 7.15 g/m*3 22.9 C 0 km/h
2004 12-08-2010 16:54:02 23.2 C 7.28 g/m*3 23.2 C 0 km/h
2005 12-08-2010 17:06:02 24.2 C 6.6 g/m*3 24.2 C 0 km/h
2006 12-08-2010 17:18:01 24.7 C 6.56 g/m*3 24.7 C 0 km/h
2007 12-08-2010 17:30:01 25.9 C 6.05 g/m*3 25.9 C 0 km/h
2008 12-08-2010 17:42:02 26.2 C 5.17 g/m*3 26.2 C 0 km/h
2009 12-08-2010 17:54:02 26.1 C 4.9 g/m*3 26.1 C 0 km/h
2010 12-08-2010 18:06:02 24.6 C 4.95 g/m*3 24.6 C 0 km/h
2011 12-08-2010 18:18:01 23.6 C 5.32 g/m*3 23.6 C 0 km/h
2012 12-08-2010 18:30:01 23.3 C 6.9 g/m*3 23.3 C 0 km/h
2013 12-08-2010 18:42:02 22.9 C 7.97 g/m*3 22.9 C 0 km/h
2014 12-08-2010 18:54:02 22.1 C 7.81 g/m*3 22.1 C 0 km/h
2015 12-08-2010 19:06:02 21.5 C 8.11 g/m*3 21.5 C 0 km/h
2016 12-08-2010 19:18:02 21.6 C 7.97 g/m*3 21.6 C 0 km/h
2017 12-08-2010 19:30:02 22.1 C 8 g/m*3 22.1 C 0 km/h
2018 12-08-2010 19:42:02 21.8 C 8.25 g/m*3 21.8 C 0 km/h
2019 12-08-2010 19:54:02 21.4 C 8.81 g/m*3 21.4 C 0 km/h
2020 12-08-2010 20:06:02 21.6 C 8.35 g/m*3 21.6 C 0 km/h
2021 12-08-2010 20:18:02 20.8 C 8.51 g/m*3 20.8 C 0 km/h
2022 12-08-2010 20:30:02 19.9 C 8.42 g/m*3 19.9 C 0 km/h
2023 12-08-2010 20:42:02 19.2 C 8.41 g/m*3 19.2 C 0 km/h
2024 12-08-2010 20:54:02 19 C 8.47 g/m*3 19 C 0 km/h
2025 12-08-2010 21:06:02 19.2 C 8.74 g/m*3 19.2 C 0 km/h
Sensor: Nr:Datum:Temp:Abs-Feuchte:Windchill:Wind:
Aussen-T/F 2026 12-08-2010 21:18:02 19.1 C 8.2 g/m*3 19.1 C 0 km/h
2027 12-08-2010 21:30:03 19.2 C 7.75 g/m*3 19.2 C 0 km/h
2028 12-08-2010 21:42:01 19.1 C 7.7 g/m*3 19.1 C 0 km/h
2029 12-08-2010 21:54:02 19.1 C 7.54 g/m*3 19.1 C 0 km/h
2030 12-08-2010 22:06:02 18.9 C 8.1 g/m*3 18.9 C 0 km/h
2031 12-08-2010 22:19:02 18.5 C 8.54 g/m*3 18.5 C 0 km/h
2032 12-08-2010 22:31:02 18.4 C 8.49 g/m*3 18.4 C 0 km/h
2033 12-08-2010 22:43:02 18.3 C 8.76 g/m*3 18.3 C 0 km/h
2034 12-08-2010 22:55:02 18.1 C 8.96 g/m*3 18.1 C 0 km/h
2035 12-08-2010 23:07:02 17.7 C 8.9 g/m*3 17.7 C 0 km/h
2036 12-08-2010 23:19:03 17.5 C 9.09 g/m*3 17.5 C 0 km/h
2037 12-08-2010 23:31:03 17.5 C 9.24 g/m*3 17.5 C 0 km/h
2038 12-08-2010 23:43:03 17.2 C 9.37 g/m*3 17.2 C 0 km/h
2039 12-08-2010 23:55:03 16.8 C 9.29 g/m*3 16.8 C 0 km/h
2040 13-08-2010 00:07:03 16.7 C 9.38 g/m*3 16.7 C 0 km/h
2041 13-08-2010 00:19:03 16.9 C 9.49 g/m*3 16.9 C 0 km/h
2042 13-08-2010 00:31:03 17 C 9.26 g/m*3 17 C 0 km/h
2043 13-08-2010 00:43:03 16.9 C 9.49 g/m*3 16.9 C 0 km/h
2044 13-08-2010 00:55:03 16.6 C 9.46 g/m*3 16.6 C 0 km/h
2045 13-08-2010 01:07:03 16.4 C 9.35 g/m*3 16.4 C 0 km/h
2046 13-08-2010 01:19:03 16.2 C 9.1 g/m*3 16.2 C 0 km/h
2047 13-08-2010 01:31:03 16.2 C 9.24 g/m*3 16.2 C 0 km/h
2048 13-08-2010 01:43:03 16 C 9.26 g/m*3 16 C 0 km/h
2049 13-08-2010 01:55:03 16.1 C 9.32 g/m*3 16.1 C 0 km/h
2050 13-08-2010 02:07:03 16.1 C 9.46 g/m*3 16.1 C 0 km/h
Sensor: Nr:Datum:Temp:Abs-Feuchte:Windchill:Wind:
Aussen-T/F 2051 13-08-2010 02:19:03 15.9 C 9.62 g/m*3 15.9 C 0 km/h
2052 13-08-2010 02:31:03 15.8 C 9.69 g/m*3 15.8 C 0 km/h
2053 13-08-2010 02:43:03 15.8 C 9.83 g/m*3 15.8 C 0 km/h
2054 13-08-2010 02:55:03 15.5 C 9.78 g/m*3 15.5 C 0 km/h
2055 13-08-2010 03:07:03 15.5 C 9.78 g/m*3 15.5 C 0 km/h
2056 13-08-2010 03:19:03 15.3 C 9.66 g/m*3 15.3 C 0 km/h
2057 13-08-2010 03:31:03 15.3 C 9.79 g/m*3 15.3 C 0 km/h
2058 13-08-2010 03:43:04 15.3 C 9.92 g/m*3 15.3 C 0 km/h
2059 13-08-2010 03:55:04 15.3 C 10.06 g/m*3 15.3 C 0 km/h
2060 13-08-2010 04:07:04 15.2 C 9.99 g/m*3 15.2 C 0 km/h
2061 13-08-2010 04:19:04 15.1 C 9.93 g/m*3 15.1 C 0 km/h
2062 13-08-2010 04:31:04 15 C 10 g/m*3 15 C 0 km/h
2063 13-08-2010 04:43:04 15 C 10 g/m*3 15 C 0 km/h
2064 13-08-2010 04:55:04 14.9 C 10.07 g/m*3 14.9 C 0 km/h
2065 13-08-2010 05:07:04 14.8 C 10.01 g/m*3 14.8 C 0 km/h
2066 13-08-2010 05:19:04 14.8 C 10.01 g/m*3 14.8 C 0 km/h
2067 13-08-2010 05:31:04 14.8 C 10.01 g/m*3 14.8 C 0 km/h
2068 13-08-2010 05:43:04 14.7 C 9.95 g/m*3 14.7 C 0 km/h
2069 13-08-2010 05:55:04 14.7 C 9.95 g/m*3 14.7 C 0 km/h
2070 13-08-2010 06:07:04 14.7 C 9.95 g/m*3 14.7 C 0 km/h
2071 13-08-2010 06:19:04 14.7 C 10.07 g/m*3 14.7 C 0 km/h
2072 13-08-2010 06:31:04 14.7 C 10.07 g/m*3 14.7 C 0 km/h
2073 13-08-2010 06:43:04 14.7 C 10.07 g/m*3 14.7 C 0 km/h
2074 13-08-2010 06:55:02 14.7 C 10.07 g/m*3 14.7 C 0 km/h
2075 13-08-2010 07:07:02 14.8 C 10.13 g/m*3 14.8 C 0 km/h
Sensor: Nr:Datum:Temp:Abs-Feuchte:Windchill:Wind:
Aussen-T/F 2076 13-08-2010 07:19:02 15 C 10.13 g/m*3 15 C 0 km/h
2077 13-08-2010 07:31:02 15 C 10.13 g/m*3 15 C 0 km/h
2078 13-08-2010 07:43:02 15.2 C 10.12 g/m*3 15.2 C 0 km/h
2079 13-08-2010 07:55:02 15.1 C 10.06 g/m*3 15.1 C 0 km/h
2080 13-08-2010 08:07:02 14.8 C 10.13 g/m*3 14.8 C 0 km/h
2081 13-08-2010 08:19:02 14.9 C 10.2 g/m*3 14.9 C 0 km/h
2082 13-08-2010 08:31:02 15.2 C 10.38 g/m*3 15.2 C 0 km/h
2083 13-08-2010 08:43:02 15.3 C 10.45 g/m*3 15.3 C 0 km/h
2084 13-08-2010 08:55:01 15.6 C 10.51 g/m*3 15.6 C 0 km/h
2085 13-08-2010 09:07:01 15.6 C 10.51 g/m*3 15.6 C 0 km/h
2086 13-08-2010 09:19:02 15.8 C 10.23 g/m*3 15.8 C 0 km/h
2087 13-08-2010 09:31:01 16.1 C 10.14 g/m*3 16.1 C 0 km/h
2088 13-08-2010 09:43:01 16.6 C 10.17 g/m*3 16.6 C 0 km/h
2089 13-08-2010 09:55:03 17.2 C 10.4 g/m*3 17.2 C 0 km/h
2090 13-08-2010 10:07:02 17.6 C 10.05 g/m*3 17.6 C 0 km/h
2091 13-08-2010 10:19:03 18.3 C 10.01 g/m*3 18.3 C 0 km/h
2092 13-08-2010 10:31:02 19 C 9.45 g/m*3 19 C 0 km/h
2093 13-08-2010 10:43:02 19.5 C 9.4 g/m*3 19.5 C 0 km/h
2094 13-08-2010 10:55:02 19.8 C 9.22 g/m*3 19.8 C 0 km/h
2095 13-08-2010 11:07:02 20.9 C 9.11 g/m*3 20.9 C 0 km/h
2096 13-08-2010 11:19:02 21.2 C 8.52 g/m*3 21.2 C 0 km/h
2097 13-08-2010 11:31:03 21 C 8.24 g/m*3 21 C 0 km/h
2098 13-08-2010 11:43:03 21.4 C 7.69 g/m*3 21.4 C 0 km/h
2099 13-08-2010 11:55:02 21.7 C 8.39 g/m*3 21.7 C 0 km/h
2100 13-08-2010 12:07:01 22.1 C 7.81 g/m*3 22.1 C 0 km/h
Sensor: Nr:Datum:Temp:Abs-Feuchte:Windchill:Wind:
Aussen-T/F 2101 13-08-2010 12:19:02 21.7 C 7.63 g/m*3 21.7 C 0 km/h
2102 13-08-2010 12:31:02 22.2 C 7.85 g/m*3 22.2 C 0 km/h
2103 13-08-2010 12:43:02 22.2 C 7.85 g/m*3 22.2 C 0 km/h
2104 13-08-2010 12:55:02 22.8 C 7.52 g/m*3 22.8 C 0 km/h
2105 13-08-2010 13:07:02 22.5 C 7.19 g/m*3 22.5 C 0 km/h
2106 13-08-2010 13:19:02 23.2 C 7.28 g/m*3 23.2 C 0 km/h
2107 13-08-2010 13:31:02 23.2 C 7.48 g/m*3 23.2 C 0 km/h
2108 13-08-2010 13:43:02 23.5 C 6.56 g/m*3 23.5 C 0 km/h
2109 13-08-2010 13:55:01 22.6 C 6.43 g/m*3 22.6 C 0 km/h
2110 13-08-2010 14:07:01 22.6 C 6.43 g/m*3 22.6 C 0 km/h
2111 13-08-2010 14:19:01 23.2 C 6.44 g/m*3 23.2 C 0 km/h
2112 13-08-2010 14:31:01 24.1 C 6.78 g/m*3 24.1 C 0 km/h
2113 13-08-2010 14:43:01 24.4 C 6.23 g/m*3 24.4 C 0 km/h
2114 13-08-2010 14:55:01 25.3 C 6.55 g/m*3 25.3 C 0 km/h
2115 13-08-2010 15:07:01 24.7 C 6.11 g/m*3 24.7 C 0 km/h
2116 13-08-2010 15:19:02 24.6 C 6.3 g/m*3 24.6 C 0 km/h
2117 13-08-2010 15:31:01 24.9 C 6.18 g/m*3 24.9 C 0 km/h
2118 13-08-2010 15:43:01 24.1 C 5.69 g/m*3 24.1 C 0 km/h
2119 13-08-2010 15:55:01 23.8 C 5.81 g/m*3 23.8 C 0 km/h
2120 13-08-2010 16:07:01 24.3 C 5.75 g/m*3 24.3 C 0 km/h
2121 13-08-2010 16:19:02 24.4 C 6.45 g/m*3 24.4 C 0 km/h
2122 13-08-2010 16:31:01 24.5 C 6.94 g/m*3 24.5 C 0 km/h
2123 13-08-2010 16:43:01 24.1 C 6.78 g/m*3 24.1 C 0 km/h
2124 13-08-2010 16:55:02 23.9 C 7.79 g/m*3 23.9 C 0 km/h
2125 13-08-2010 17:07:02 24 C 6.96 g/m*3 24 C 0 km/h
Sensor: Nr:Datum:Temp:Abs-Feuchte:Windchill:Wind:
Aussen-T/F 2126 13-08-2010 17:19:02 23.7 C 7.27 g/m*3 23.7 C 0 km/h
2127 13-08-2010 17:31:02 23.7 C 7.06 g/m*3 23.7 C 0 km/h
2128 13-08-2010 17:43:02 23.6 C 7.66 g/m*3 23.6 C 0 km/h
2129 13-08-2010 17:55:02 23.3 C 8.15 g/m*3 23.3 C 0 km/h
2130 13-08-2010 18:07:02 22.9 C 8.17 g/m*3 22.9 C 0 km/h
2131 13-08-2010 18:19:01 22.8 C 8.13 g/m*3 22.8 C 0 km/h
2132 13-08-2010 18:31:02 22.5 C 8.19 g/m*3 22.5 C 0 km/h
2133 13-08-2010 18:43:02 22.3 C 8.29 g/m*3 22.3 C 0 km/h
2134 13-08-2010 18:55:02 22 C 7.96 g/m*3 22 C 0 km/h
2135 13-08-2010 19:07:02 21.7 C 8.01 g/m*3 21.7 C 0 km/h
2136 13-08-2010 19:19:02 22.1 C 7.81 g/m*3 22.1 C 0 km/h
2137 13-08-2010 19:31:02 21.9 C 8.1 g/m*3 21.9 C 0 km/h
2138 13-08-2010 19:43:02 21.5 C 7.92 g/m*3 21.5 C 0 km/h
2139 13-08-2010 19:55:02 22 C 7.57 g/m*3 22 C 0 km/h
2140 13-08-2010 20:07:02 21.7 C 7.82 g/m*3 21.7 C 0 km/h
2141 13-08-2010 20:19:02 20.7 C 7.92 g/m*3 20.7 C 0 km/h
2142 13-08-2010 20:31:02 19.8 C 8.03 g/m*3 19.8 C 0 km/h
2143 13-08-2010 20:43:02 19 C 7.99 g/m*3 19 C 0 km/h
2144 13-08-2010 20:55:02 18.3 C 7.82 g/m*3 18.3 C 0 km/h
2145 13-08-2010 21:07:02 17.9 C 7.79 g/m*3 17.9 C 0 km/h
2146 13-08-2010 21:19:03 17.7 C 7.69 g/m*3 17.7 C 0 km/h
2147 13-08-2010 21:31:02 17.8 C 7.89 g/m*3 17.8 C 0 km/h
2148 13-08-2010 21:43:02 17.5 C 7.75 g/m*3 17.5 C 0 km/h
2149 13-08-2010 21:55:03 17.4 C 8 g/m*3 17.4 C 0 km/h
2150 13-08-2010 22:07:02 17.3 C 8.1 g/m*3 17.3 C 0 km/h
Sensor: Nr:Datum:Temp:Abs-Feuchte:Windchill:Wind:
Aussen-T/F 2151 13-08-2010 22:19:02 17.1 C 8.01 g/m*3 17.1 C 0 km/h
2152 13-08-2010 22:31:03 16.8 C 8.29 g/m*3 16.8 C 0 km/h
2153 13-08-2010 22:43:03 16.4 C 8.37 g/m*3 16.4 C 0 km/h
2154 13-08-2010 22:56:03 16 C 8.17 g/m*3 16 C 0 km/h
2155 13-08-2010 23:08:03 15.8 C 8.35 g/m*3 15.8 C 0 km/h
2156 13-08-2010 23:20:03 15.6 C 8.38 g/m*3 15.6 C 0 km/h
2157 13-08-2010 23:32:03 15.5 C 8.86 g/m*3 15.5 C 0 km/h
2158 13-08-2010 23:44:03 15.2 C 8.83 g/m*3 15.2 C 0 km/h
2159 13-08-2010 23:56:03 15.1 C 8.77 g/m*3 15.1 C 0 km/h
2160 14-08-2010 00:08:03 15 C 8.72 g/m*3 15 C 0 km/h
2161 14-08-2010 00:20:03 14.9 C 8.92 g/m*3 14.9 C 0 km/h
2162 14-08-2010 00:32:04 14.6 C 8.88 g/m*3 14.6 C 0 km/h
2163 14-08-2010 00:44:04 14.5 C 8.95 g/m*3 14.5 C 0 km/h
2164 14-08-2010 00:56:04 14.5 C 9.08 g/m*3 14.5 C 0 km/h
2165 14-08-2010 01:08:04 14.3 C 9.09 g/m*3 14.3 C 0 km/h
2166 14-08-2010 01:20:04 14.1 C 9.1 g/m*3 14.1 C 0 km/h
2167 14-08-2010 01:32:04 13.8 C 9.06 g/m*3 13.8 C 0 km/h
2168 14-08-2010 01:44:04 13.9 C 9.11 g/m*3 13.9 C 0 km/h
2169 14-08-2010 01:56:04 13.8 C 9.17 g/m*3 13.8 C 0 km/h
2170 14-08-2010 02:08:04 13.6 C 9.06 g/m*3 13.6 C 0 km/h
2171 14-08-2010 02:20:04 13.4 C 8.95 g/m*3 13.4 C 0 km/h
2172 14-08-2010 02:32:04 13.3 C 9.01 g/m*3 13.3 C 0 km/h
2173 14-08-2010 02:44:04 13.2 C 8.96 g/m*3 13.2 C 0 km/h
2174 14-08-2010 02:56:04 13.1 C 9.01 g/m*3 13.1 C 0 km/h
2175 14-08-2010 03:08:04 12.9 C 9.02 g/m*3 12.9 C 0 km/h
Sensor: Nr:Datum:Temp:Abs-Feuchte:Windchill:Wind:
Aussen-T/F 2176 14-08-2010 03:20:04 12.7 C 8.91 g/m*3 12.7 C 0 km/h
2177 14-08-2010 03:32:04 12.6 C 8.85 g/m*3 12.6 C 0 km/h
2178 14-08-2010 03:44:04 12.5 C 8.91 g/m*3 12.5 C 0 km/h
2179 14-08-2010 03:56:04 12.3 C 8.69 g/m*3 12.3 C 0 km/h
2180 14-08-2010 04:08:04 12.2 C 8.74 g/m*3 12.2 C 0 km/h
2181 14-08-2010 04:20:04 12.1 C 8.69 g/m*3 12.1 C 0 km/h
2182 14-08-2010 04:32:05 12.1 C 8.69 g/m*3 12.1 C 0 km/h
2183 14-08-2010 04:44:05 12 C 8.74 g/m*3 12 C 0 km/h
2184 14-08-2010 04:56:05 11.9 C 8.9 g/m*3 11.9 C 0 km/h
2185 14-08-2010 05:08:05 11.8 C 8.84 g/m*3 11.8 C 0 km/h
2186 14-08-2010 05:20:05 11.7 C 8.79 g/m*3 11.7 C 0 km/h
2187 14-08-2010 05:32:05 11.6 C 8.73 g/m*3 11.6 C 0 km/h
2188 14-08-2010 05:44:05 11.5 C 8.68 g/m*3 11.5 C 0 km/h
2189 14-08-2010 05:56:05 11.5 C 8.78 g/m*3 11.5 C 0 km/h
2190 14-08-2010 06:08:05 11.4 C 8.83 g/m*3 11.4 C 0 km/h
2191 14-08-2010 06:20:05 11.1 C 8.66 g/m*3 11.1 C 0 km/h
2192 14-08-2010 06:32:05 11.1 C 8.76 g/m*3 11.1 C 0 km/h
2193 14-08-2010 06:44:05 11 C 8.71 g/m*3 11 C 0 km/h
2194 14-08-2010 06:56:05 11 C 8.71 g/m*3 11 C 0 km/h
2195 14-08-2010 07:08:04 11.1 C 8.76 g/m*3 11.1 C 0 km/h
2196 14-08-2010 07:20:03 11.1 C 8.76 g/m*3 11.1 C 0 km/h
2197 14-08-2010 07:32:04 11.3 C 8.87 g/m*3 11.3 C 0 km/h
2198 14-08-2010 07:44:04 11.4 C 9.03 g/m*3 11.4 C 0 km/h
2199 14-08-2010 07:56:02 11.5 C 9.09 g/m*3 11.5 C 0 km/h
2200 14-08-2010 08:08:02 11.8 C 9.26 g/m*3 11.8 C 0 km/h
Sensor: Nr:Datum:Temp:Abs-Feuchte:Windchill:Wind:
Aussen-T/F 2201 14-08-2010 08:20:02 12.1 C 9.33 g/m*3 12.1 C 0 km/h
2202 14-08-2010 08:32:02 12.3 C 9.45 g/m*3 12.3 C 0 km/h
2203 14-08-2010 08:44:02 12.6 C 9.51 g/m*3 12.6 C 0 km/h
2204 14-08-2010 08:56:02 12.8 C 9.52 g/m*3 12.8 C 0 km/h
2205 14-08-2010 09:08:02 13.2 C 9.53 g/m*3 13.2 C 0 km/h
2206 14-08-2010 09:20:02 13.8 C 9.89 g/m*3 13.8 C 0 km/h
2207 14-08-2010 09:32:02 14.4 C 10.01 g/m*3 14.4 C 0 km/h
2208 14-08-2010 09:44:02 15 C 10 g/m*3 15 C 0 km/h
2209 14-08-2010 09:56:01 15.6 C 10.24 g/m*3 15.6 C 0 km/h
2210 14-08-2010 10:08:01 16.2 C 10.2 g/m*3 16.2 C 0 km/h
2211 14-08-2010 10:20:02 16.9 C 10.36 g/m*3 16.9 C 0 km/h
2212 14-08-2010 10:32:01 17.7 C 10.41 g/m*3 17.7 C 0 km/h
2213 14-08-2010 10:44:01 18.3 C 10.48 g/m*3 18.3 C 0 km/h
2214 14-08-2010 10:56:01 19 C 10.43 g/m*3 19 C 0 km/h
2215 14-08-2010 11:08:01 19.5 C 10.57 g/m*3 19.5 C 0 km/h
2216 14-08-2010 11:20:02 20 C 10.37 g/m*3 20 C 0 km/h
2217 14-08-2010 11:32:01 20.6 C 10.38 g/m*3 20.6 C 0 km/h
2218 14-08-2010 11:44:01 21.4 C 10.31 g/m*3 21.4 C 0 km/h
2219 14-08-2010 11:56:02 21.9 C 10.03 g/m*3 21.9 C 0 km/h
2220 14-08-2010 12:08:02 22.2 C 9.42 g/m*3 22.2 C 0 km/h
2221 14-08-2010 12:20:02 22.7 C 9.9 g/m*3 22.7 C 0 km/h
2222 14-08-2010 12:32:03 23.1 C 9.3 g/m*3 23.1 C 0 km/h
2223 14-08-2010 12:44:03 23.2 C 8.94 g/m*3 23.2 C 0 km/h
2224 14-08-2010 12:56:02 23.6 C 8.29 g/m*3 23.6 C 0 km/h
2225 14-08-2010 13:08:01 24.5 C 8.06 g/m*3 24.5 C 0 km/h
Sensor: Nr:Datum:Temp:Abs-Feuchte:Windchill:Wind:
Aussen-T/F 2226 14-08-2010 13:20:02 25.7 C 7.66 g/m*3 25.7 C 0 km/h
2227 14-08-2010 13:32:02 26.4 C 7.47 g/m*3 26.4 C 0 km/h
2228 14-08-2010 13:44:02 27.1 C 6.73 g/m*3 27.1 C 0 km/h
2229 14-08-2010 13:56:02 27.5 C 6.88 g/m*3 27.5 C 0 km/h
2230 14-08-2010 14:08:01 27.5 C 6.88 g/m*3 27.5 C 0 km/h
2231 14-08-2010 14:20:02 28.2 C 7.42 g/m*3 28.2 C 0 km/h
2232 14-08-2010 14:32:01 27.9 C 6.76 g/m*3 27.9 C 0 km/h
2233 14-08-2010 14:44:01 27.4 C 6.84 g/m*3 27.4 C 0 km/h
2234 14-08-2010 14:56:02 27.1 C 6.99 g/m*3 27.1 C 0 km/h
2235 14-08-2010 15:08:02 27.7 C 6.95 g/m*3 27.7 C 0 km/h
2236 14-08-2010 15:20:02 27.7 C 6.95 g/m*3 27.7 C 0 km/h
2237 14-08-2010 15:32:03 27.5 C 6.61 g/m*3 27.5 C 0 km/h
2238 14-08-2010 15:44:03 28.1 C 6.84 g/m*3 28.1 C 0 km/h
2239 14-08-2010 15:56:02 29.2 C 6.1 g/m*3 29.2 C 0 km/h
2240 14-08-2010 16:08:01 29.6 C 6.53 g/m*3 29.6 C 0 km/h
2241 14-08-2010 16:20:02 30 C 6.67 g/m*3 30 C 0 km/h
2242 14-08-2010 16:32:02 30 C 6.37 g/m*3 30 C 0 km/h
2243 14-08-2010 16:44:02 30.3 C 6.47 g/m*3 30.3 C 0 km/h
2244 14-08-2010 16:56:02 30.6 C 6.26 g/m*3 30.6 C 0 km/h
2245 14-08-2010 17:08:02 30.7 C 6.3 g/m*3 30.7 C 0 km/h
2246 14-08-2010 17:20:02 30.6 C 6.26 g/m*3 30.6 C 0 km/h
2247 14-08-2010 17:32:02 30.9 C 6.37 g/m*3 30.9 C 0 km/h
2248 14-08-2010 17:44:02 31 C 6.4 g/m*3 31 C 0 km/h
2249 14-08-2010 17:56:01 31.2 C 6.47 g/m*3 31.2 C 0 km/h
2250 14-08-2010 18:08:01 31.4 C 6.54 g/m*3 31.4 C 0 km/h
Sensor: Nr:Datum:Temp:Abs-Feuchte:Windchill:Wind:
Aussen-T/F 2251 14-08-2010 18:20:01 31.5 C 6.57 g/m*3 31.5 C 0 km/h
2252 14-08-2010 18:32:01 31.3 C 6.5 g/m*3 31.3 C 0 km/h
2253 14-08-2010 18:44:01 31 C 6.4 g/m*3 31 C 0 km/h
2254 14-08-2010 18:56:01 30.9 C 6.37 g/m*3 30.9 C 0 km/h
2255 14-08-2010 19:08:01 29.6 C 7.72 g/m*3 29.6 C 0 km/h
2256 14-08-2010 19:20:02 28.2 C 7.15 g/m*3 28.2 C 0 km/h
2257 14-08-2010 19:32:01 27.4 C 7.37 g/m*3 27.4 C 0 km/h
2258 14-08-2010 19:44:01 27.2 C 7.55 g/m*3 27.2 C 0 km/h
2259 14-08-2010 19:56:03 26.9 C 7.93 g/m*3 26.9 C 0 km/h
2260 14-08-2010 20:08:02 26.6 C 8.05 g/m*3 26.6 C 0 km/h
2261 14-08-2010 20:20:02 25.8 C 8.19 g/m*3 25.8 C 0 km/h
2262 14-08-2010 20:32:02 24.7 C 8.15 g/m*3 24.7 C 0 km/h
2263 14-08-2010 20:44:02 24 C 8.05 g/m*3 24 C 0 km/h
2264 14-08-2010 20:56:02 23.2 C 8.32 g/m*3 23.2 C 0 km/h
2265 14-08-2010 21:08:02 22.7 C 8.49 g/m*3 22.7 C 0 km/h
2266 14-08-2010 21:20:02 22.5 C 8.59 g/m*3 22.5 C 0 km/h
2267 14-08-2010 21:32:02 22.1 C 8.78 g/m*3 22.1 C 0 km/h
2268 14-08-2010 21:44:02 21.8 C 8.83 g/m*3 21.8 C 0 km/h
2269 14-08-2010 21:56:02 21.6 C 8.91 g/m*3 21.6 C 0 km/h
2270 14-08-2010 22:08:02 21.6 C 9.1 g/m*3 21.6 C 0 km/h
2271 14-08-2010 22:20:01 21.5 C 9.05 g/m*3 21.5 C 0 km/h
2272 14-08-2010 22:32:02 21.2 C 9.27 g/m*3 21.2 C 0 km/h
2273 14-08-2010 22:44:02 21.1 C 9.21 g/m*3 21.1 C 0 km/h
2274 14-08-2010 22:56:02 20.8 C 9.05 g/m*3 20.8 C 0 km/h
2275 14-08-2010 23:08:02 20.7 C 9.36 g/m*3 20.7 C 0 km/h
Sensor: Nr:Datum:Temp:Abs-Feuchte:Windchill:Wind:
Aussen-T/F 2276 14-08-2010 23:21:03 20.6 C 9.31 g/m*3 20.6 C 0 km/h
2277 14-08-2010 23:33:03 20.3 C 9.15 g/m*3 20.3 C 0 km/h
2278 14-08-2010 23:45:03 20.2 C 8.92 g/m*3 20.2 C 0 km/h
2279 14-08-2010 23:57:03 20 C 8.99 g/m*3 20 C 0 km/h
2280 15-08-2010 00:09:03 20 C 8.81 g/m*3 20 C 0 km/h
2281 15-08-2010 00:21:03 19.8 C 8.88 g/m*3 19.8 C 0 km/h
2282 15-08-2010 00:33:03 19.8 C 8.88 g/m*3 19.8 C 0 km/h
2283 15-08-2010 00:45:03 19.6 C 8.78 g/m*3 19.6 C 0 km/h
2284 15-08-2010 00:57:03 19.5 C 8.73 g/m*3 19.5 C 0 km/h
2285 15-08-2010 01:09:03 19.5 C 8.89 g/m*3 19.5 C 0 km/h
2286 15-08-2010 01:21:03 19.5 C 8.56 g/m*3 19.5 C 0 km/h
2287 15-08-2010 01:33:03 19.4 C 8.84 g/m*3 19.4 C 0 km/h
2288 15-08-2010 01:45:03 19.3 C 8.63 g/m*3 19.3 C 0 km/h
2289 15-08-2010 01:57:03 19.2 C 8.74 g/m*3 19.2 C 0 km/h
2290 15-08-2010 02:09:03 19.1 C 8.69 g/m*3 19.1 C 0 km/h
2291 15-08-2010 02:21:03 19.1 C 9.02 g/m*3 19.1 C 0 km/h
2292 15-08-2010 02:33:03 19 C 8.96 g/m*3 19 C 0 km/h
2293 15-08-2010 02:45:03 18.9 C 9.07 g/m*3 18.9 C 0 km/h
2294 15-08-2010 02:57:03 18.8 C 9.18 g/m*3 18.8 C 0 km/h
2295 15-08-2010 03:09:03 18.8 C 9.34 g/m*3 18.8 C 0 km/h
2296 15-08-2010 03:21:03 18.7 C 9.29 g/m*3 18.7 C 0 km/h
2297 15-08-2010 03:33:04 18.6 C 9.23 g/m*3 18.6 C 0 km/h
2298 15-08-2010 03:45:04 18.5 C 9.33 g/m*3 18.5 C 0 km/h
2299 15-08-2010 03:57:04 18.4 C 9.28 g/m*3 18.4 C 0 km/h
2300 15-08-2010 04:09:04 18.2 C 9.17 g/m*3 18.2 C 0 km/h
Sensor: Nr:Datum:Temp:Abs-Feuchte:Windchill:Wind:
Aussen-T/F 2301 15-08-2010 04:21:04 18.2 C 9.33 g/m*3 18.2 C 0 km/h
2302 15-08-2010 04:33:04 18.1 C 9.12 g/m*3 18.1 C 0 km/h
2303 15-08-2010 04:45:04 18.1 C 9.12 g/m*3 18.1 C 0 km/h
2304 15-08-2010 04:57:04 18.1 C 8.96 g/m*3 18.1 C 0 km/h
2305 15-08-2010 05:09:04 18.1 C 8.81 g/m*3 18.1 C 0 km/h
2306 15-08-2010 05:21:04 18.1 C 8.96 g/m*3 18.1 C 0 km/h
2307 15-08-2010 05:33:04 18.1 C 8.81 g/m*3 18.1 C 0 km/h
2308 15-08-2010 05:45:04 18 C 8.91 g/m*3 18 C 0 km/h
2309 15-08-2010 05:57:04 18 C 8.91 g/m*3 18 C 0 km/h
2310 15-08-2010 06:09:04 17.8 C 9.11 g/m*3 17.8 C 0 km/h
2311 15-08-2010 06:21:04 17.9 C 9.01 g/m*3 17.9 C 0 km/h
2312 15-08-2010 06:33:04 18 C 9.06 g/m*3 18 C 0 km/h
2313 15-08-2010 06:45:04 17.9 C 9.01 g/m*3 17.9 C 0 km/h
2314 15-08-2010 06:57:04 17.9 C 9.01 g/m*3 17.9 C 0 km/h
2315 15-08-2010 07:09:04 18 C 8.91 g/m*3 18 C 0 km/h
2316 15-08-2010 07:21:04 17.9 C 9.16 g/m*3 17.9 C 0 km/h
2317 15-08-2010 07:33:04 17.2 C 9.52 g/m*3 17.2 C 0 km/h
2318 15-08-2010 07:45:05 16.4 C 10.05 g/m*3 16.4 C 0 km/h
2319 15-08-2010 07:57:05 16 C 10.63 g/m*3 16 C 0 km/h
2320 15-08-2010 08:09:05 15.4 C 11.04 g/m*3 15.4 C 0 km/h
2321 15-08-2010 08:21:05 15.1 C 11.22 g/m*3 15.1 C 0 km/h
2322 15-08-2010 08:33:03 15.1 C 11.48 g/m*3 15.1 C 0 km/h
2323 15-08-2010 08:45:02 15.4 C 11.82 g/m*3 15.4 C 0 km/h
2324 15-08-2010 08:57:02 15.2 C 11.81 g/m*3 15.2 C 0 km/h
2325 15-08-2010 09:09:03 15.1 C 11.74 g/m*3 15.1 C 0 km/h
Sensor: Nr:Datum:Temp:Abs-Feuchte:Windchill:Wind:
Aussen-T/F 2326 15-08-2010 09:21:02 15.1 C 11.87 g/m*3 15.1 C 0 km/h
2327 15-08-2010 09:33:02 15.2 C 12.07 g/m*3 15.2 C 0 km/h
2328 15-08-2010 09:45:01 15.3 C 12.14 g/m*3 15.3 C 0 km/h
2329 15-08-2010 09:57:01 15.3 C 12.14 g/m*3 15.3 C 0 km/h
2330 15-08-2010 10:09:02 15.5 C 12.43 g/m*3 15.5 C 0 km/h
2331 15-08-2010 10:21:01 15.4 C 12.35 g/m*3 15.4 C 0 km/h
2332 15-08-2010 10:33:01 15.4 C 12.35 g/m*3 15.4 C 0 km/h
2333 15-08-2010 10:45:01 15.5 C 12.43 g/m*3 15.5 C 0 km/h
2334 15-08-2010 10:57:01 15.6 C 12.63 g/m*3 15.6 C 0 km/h
2335 15-08-2010 11:09:01 15.7 C 12.71 g/m*3 15.7 C 0 km/h
2336 15-08-2010 11:21:02 15.8 C 12.79 g/m*3 15.8 C 0 km/h
2337 15-08-2010 11:33:01 15.8 C 12.79 g/m*3 15.8 C 0 km/h
2338 15-08-2010 11:45:03 15.9 C 12.87 g/m*3 15.9 C 0 km/h
2339 15-08-2010 11:57:03 15.9 C 12.87 g/m*3 15.9 C 0 km/h
2340 15-08-2010 12:09:02 15.8 C 12.79 g/m*3 15.8 C 0 km/h
2341 15-08-2010 12:21:02 16 C 12.94 g/m*3 16 C 0 km/h
2342 15-08-2010 12:33:02 16.2 C 13.1 g/m*3 16.2 C 0 km/h
2343 15-08-2010 12:45:02 16.1 C 13.02 g/m*3 16.1 C 0 km/h
2344 15-08-2010 12:57:02 16.1 C 13.02 g/m*3 16.1 C 0 km/h
2345 15-08-2010 13:09:02 16.1 C 13.02 g/m*3 16.1 C 0 km/h
2346 15-08-2010 13:21:02 16.1 C 13.02 g/m*3 16.1 C 0 km/h
2347 15-08-2010 13:33:02 16.2 C 13.1 g/m*3 16.2 C 0 km/h
2348 15-08-2010 13:45:01 16.2 C 13.1 g/m*3 16.2 C 0 km/h
2349 15-08-2010 13:57:01 16.1 C 13.02 g/m*3 16.1 C 0 km/h
2350 15-08-2010 14:09:02 16.2 C 13.1 g/m*3 16.2 C 0 km/h
Sensor: Nr:Datum:Temp:Abs-Feuchte:Windchill:Wind:
Aussen-T/F 2351 15-08-2010 14:21:02 16.3 C 13.18 g/m*3 16.3 C 0 km/h
2352 15-08-2010 14:33:02 16.6 C 13.42 g/m*3 16.6 C 0 km/h
2353 15-08-2010 14:45:02 16.6 C 13.42 g/m*3 16.6 C 0 km/h
2354 15-08-2010 14:57:02 16.5 C 13.34 g/m*3 16.5 C 0 km/h
2355 15-08-2010 15:09:02 16.4 C 13.26 g/m*3 16.4 C 0 km/h
2356 15-08-2010 15:21:02 16.4 C 13.26 g/m*3 16.4 C 0 km/h
2357 15-08-2010 15:33:01 16.4 C 13.26 g/m*3 16.4 C 0 km/h
2358 15-08-2010 15:45:02 16.4 C 13.26 g/m*3 16.4 C 0 km/h
2359 15-08-2010 15:57:02 16.4 C 13.26 g/m*3 16.4 C 0 km/h
2360 15-08-2010 16:09:04 16.5 C 13.34 g/m*3 16.5 C 0 km/h
2361 15-08-2010 16:21:02 16.5 C 13.34 g/m*3 16.5 C 0 km/h
2362 15-08-2010 16:33:02 16.5 C 13.34 g/m*3 16.5 C 0 km/h
2363 15-08-2010 16:45:03 16.4 C 13.26 g/m*3 16.4 C 0 km/h
2364 15-08-2010 16:57:03 16.5 C 13.34 g/m*3 16.5 C 0 km/h
2365 15-08-2010 17:09:03 16.6 C 13.42 g/m*3 16.6 C 0 km/h
2366 15-08-2010 17:21:02 16.7 C 13.5 g/m*3 16.7 C 0 km/h
2367 15-08-2010 17:33:02 16.7 C 13.5 g/m*3 16.7 C 0 km/h
2368 15-08-2010 17:45:02 16.7 C 13.5 g/m*3 16.7 C 0 km/h
2369 15-08-2010 17:57:02 16.7 C 13.5 g/m*3 16.7 C 0 km/h
2370 15-08-2010 18:09:02 16.6 C 13.42 g/m*3 16.6 C 0 km/h
2371 15-08-2010 18:21:02 16.6 C 13.42 g/m*3 16.6 C 0 km/h
2372 15-08-2010 18:33:02 16.6 C 13.42 g/m*3 16.6 C 0 km/h
2373 15-08-2010 18:45:02 16.6 C 13.42 g/m*3 16.6 C 0 km/h
2374 15-08-2010 18:57:03 16.6 C 13.42 g/m*3 16.6 C 0 km/h
2375 15-08-2010 19:09:01 16.6 C 13.42 g/m*3 16.6 C 0 km/h
Sensor: Nr:Datum:Temp:Abs-Feuchte:Windchill:Wind:
Aussen-T/F 2376 15-08-2010 19:21:01 16.6 C 13.42 g/m*3 16.6 C 0 km/h
2377 15-08-2010 19:33:02 16.6 C 13.42 g/m*3 16.6 C 0 km/h
2378 15-08-2010 19:45:02 16.6 C 13.42 g/m*3 16.6 C 0 km/h
2379 15-08-2010 19:57:02 16.6 C 13.42 g/m*3 16.6 C 0 km/h
2380 15-08-2010 20:09:02 16.5 C 13.34 g/m*3 16.5 C 0 km/h
2381 15-08-2010 20:21:02 16.4 C 13.26 g/m*3 16.4 C 0 km/h
2382 15-08-2010 20:33:02 16.4 C 13.26 g/m*3 16.4 C 0 km/h
2383 15-08-2010 20:45:02 16.3 C 13.18 g/m*3 16.3 C 0 km/h
2384 15-08-2010 20:57:02 16.3 C 13.18 g/m*3 16.3 C 0 km/h
2385 15-08-2010 21:09:02 16.3 C 13.18 g/m*3 16.3 C 0 km/h
2386 15-08-2010 21:21:02 16.3 C 13.18 g/m*3 16.3 C 0 km/h
2387 15-08-2010 21:33:02 16.2 C 13.1 g/m*3 16.2 C 0 km/h
2388 15-08-2010 21:45:02 16.2 C 13.1 g/m*3 16.2 C 0 km/h
2389 15-08-2010 21:57:02 16.2 C 13.1 g/m*3 16.2 C 0 km/h
2390 15-08-2010 22:09:02 16.1 C 13.02 g/m*3 16.1 C 0 km/h
2391 15-08-2010 22:21:02 16.1 C 13.02 g/m*3 16.1 C 0 km/h
2392 15-08-2010 22:33:02 16.2 C 13.1 g/m*3 16.2 C 0 km/h
2393 15-08-2010 22:45:02 16.2 C 13.1 g/m*3 16.2 C 0 km/h
2394 15-08-2010 22:57:02 16.1 C 13.02 g/m*3 16.1 C 0 km/h
2395 15-08-2010 23:09:02 16 C 12.94 g/m*3 16 C 0 km/h
2396 15-08-2010 23:21:02 15.9 C 12.87 g/m*3 15.9 C 0 km/h
2397 15-08-2010 23:33:02 15.4 C 12.48 g/m*3 15.4 C 0 km/h
2398 15-08-2010 23:45:02 15.2 C 12.33 g/m*3 15.2 C 0 km/h
2399 15-08-2010 23:57:02 15 C 12.18 g/m*3 15 C 0 km/h
2400 16-08-2010 00:09:02 15 C 12.18 g/m*3 15 C 0 km/h
Sensor: Nr:Datum:Temp:Abs-Feuchte:Windchill:Wind:
Aussen-T/F 2401 16-08-2010 00:21:01 15 C 12.18 g/m*3 15 C 0 km/h
2402 16-08-2010 00:33:02 14.9 C 12.11 g/m*3 14.9 C 0 km/h
2403 16-08-2010 00:45:02 14.8 C 12.03 g/m*3 14.8 C 0 km/h
2404 16-08-2010 00:57:02 14.8 C 12.03 g/m*3 14.8 C 0 km/h
2405 16-08-2010 01:09:02 14.8 C 12.03 g/m*3 14.8 C 0 km/h
2406 16-08-2010 01:21:02 14.7 C 11.96 g/m*3 14.7 C 0 km/h
2407 16-08-2010 01:33:02 14.7 C 11.83 g/m*3 14.7 C 0 km/h
2408 16-08-2010 01:45:02 14.7 C 11.83 g/m*3 14.7 C 0 km/h
2409 16-08-2010 01:57:02 14.7 C 11.71 g/m*3 14.7 C 0 km/h
2410 16-08-2010 02:09:02 14.6 C 11.64 g/m*3 14.6 C 0 km/h
2411 16-08-2010 02:21:02 14.6 C 11.64 g/m*3 14.6 C 0 km/h
2412 16-08-2010 02:33:02 14.6 C 11.64 g/m*3 14.6 C 0 km/h
2413 16-08-2010 02:46:03 14.6 C 11.51 g/m*3 14.6 C 0 km/h
2414 16-08-2010 02:58:03 14.6 C 11.64 g/m*3 14.6 C 0 km/h
2415 16-08-2010 03:10:04 14.6 C 11.64 g/m*3 14.6 C 0 km/h
2416 16-08-2010 03:22:04 14.6 C 11.64 g/m*3 14.6 C 0 km/h
2417 16-08-2010 03:34:02 14.6 C 11.64 g/m*3 14.6 C 0 km/h
2418 16-08-2010 03:46:02 14.6 C 11.64 g/m*3 14.6 C 0 km/h
2419 16-08-2010 03:58:02 14.6 C 11.64 g/m*3 14.6 C 0 km/h
2420 16-08-2010 04:10:02 14.5 C 11.44 g/m*3 14.5 C 0 km/h
2421 16-08-2010 04:22:02 14.5 C 11.32 g/m*3 14.5 C 0 km/h
2422 16-08-2010 04:34:02 14.5 C 11.32 g/m*3 14.5 C 0 km/h
2423 16-08-2010 04:46:02 14.5 C 11.32 g/m*3 14.5 C 0 km/h
2424 16-08-2010 04:58:02 14.5 C 11.32 g/m*3 14.5 C 0 km/h
2425 16-08-2010 05:10:02 14.5 C 11.32 g/m*3 14.5 C 0 km/h
Sensor: Nr:Datum:Temp:Abs-Feuchte:Windchill:Wind:
Aussen-T/F 2426 16-08-2010 05:22:02 14.5 C 11.32 g/m*3 14.5 C 0 km/h
2427 16-08-2010 05:34:02 14.5 C 11.44 g/m*3 14.5 C 0 km/h
2428 16-08-2010 05:46:01 14.5 C 11.44 g/m*3 14.5 C 0 km/h
2429 16-08-2010 05:58:01 14.5 C 11.44 g/m*3 14.5 C 0 km/h
2430 16-08-2010 06:10:02 14.5 C 11.44 g/m*3 14.5 C 0 km/h
2431 16-08-2010 06:22:02 14.5 C 11.32 g/m*3 14.5 C 0 km/h
2432 16-08-2010 06:34:02 14.5 C 11.32 g/m*3 14.5 C 0 km/h
2433 16-08-2010 06:46:02 14.6 C 11.39 g/m*3 14.6 C 0 km/h
2434 16-08-2010 06:58:02 14.6 C 11.39 g/m*3 14.6 C 0 km/h
2435 16-08-2010 07:10:02 14.6 C 11.39 g/m*3 14.6 C 0 km/h
2436 16-08-2010 07:22:56 14.8 C 11.53 g/m*3 14.8 C 0 km/h
2437 16-08-2010 07:34:02 14.8 C 11.53 g/m*3 14.8 C 0 km/h
2438 16-08-2010 07:46:02 14.8 C 11.4 g/m*3 14.8 C 0 km/h
2439 16-08-2010 07:58:02 15.2 C 11.42 g/m*3 15.2 C 0 km/h
2440 16-08-2010 08:10:02 15.6 C 11.57 g/m*3 15.6 C 0 km/h
2441 16-08-2010 08:22:01 15.8 C 11.58 g/m*3 15.8 C 0 km/h
2442 16-08-2010 08:34:02 15.9 C 11.38 g/m*3 15.9 C 0 km/h
2443 16-08-2010 08:46:01 16 C 11.31 g/m*3 16 C 0 km/h
2444 16-08-2010 08:58:01 16.3 C 11.38 g/m*3 16.3 C 0 km/h
2445 16-08-2010 09:10:02 17.1 C 11.5 g/m*3 17.1 C 0 km/h
2446 16-08-2010 09:22:02 17.4 C 11.12 g/m*3 17.4 C 0 km/h
2447 16-08-2010 09:34:01 17.4 C 10.82 g/m*3 17.4 C 0 km/h
2448 16-08-2010 09:46:01 17.7 C 11.01 g/m*3 17.7 C 0 km/h
2449 16-08-2010 09:58:01 17.4 C 10.97 g/m*3 17.4 C 0 km/h
2450 16-08-2010 10:10:01 17.4 C 10.97 g/m*3 17.4 C 0 km/h
Sensor: Nr:Datum:Temp:Abs-Feuchte:Windchill:Wind:
Aussen-T/F 2451 16-08-2010 10:22:02 17.3 C 10.9 g/m*3 17.3 C 0 km/h
2452 16-08-2010 10:34:01 17.1 C 10.63 g/m*3 17.1 C 0 km/h
2453 16-08-2010 10:46:02 17.2 C 10.84 g/m*3 17.2 C 0 km/h
2454 16-08-2010 10:58:02 17 C 10.85 g/m*3 17 C 0 km/h
2455 16-08-2010 11:10:01 17.3 C 11.05 g/m*3 17.3 C 0 km/h
2456 16-08-2010 11:22:01 17.7 C 11.47 g/m*3 17.7 C 0 km/h
2457 16-08-2010 11:42:02 18.1 C 10.97 g/m*3 18.1 C 0 km/h
2458 16-08-2010 11:54:02 17.7 C 10.86 g/m*3 17.7 C 0 km/h
2459 16-08-2010 12:06:03 17.5 C 11.33 g/m*3 17.5 C 0 km/h
2460 16-08-2010 12:18:02 17.8 C 11.84 g/m*3 17.8 C 0 km/h
2461 16-08-2010 12:30:02 17.6 C 11.4 g/m*3 17.6 C 0 km/h
2462 16-08-2010 12:42:02 17.8 C 11.54 g/m*3 17.8 C 0 km/h
2463 16-08-2010 12:54:02 18.1 C 11.12 g/m*3 18.1 C 0 km/h
2464 16-08-2010 13:06:02 18.1 C 10.97 g/m*3 18.1 C 0 km/h
2465 16-08-2010 13:18:02 18.2 C 10.72 g/m*3 18.2 C 0 km/h
2466 16-08-2010 13:30:02 18.3 C 10.63 g/m*3 18.3 C 0 km/h
2467 16-08-2010 13:42:02 18.5 C 10.28 g/m*3 18.5 C 0 km/h
2468 16-08-2010 13:54:02 18.8 C 10.31 g/m*3 18.8 C 0 km/h
2469 16-08-2010 14:06:01 19.5 C 10.41 g/m*3 19.5 C 0 km/h
2470 16-08-2010 14:18:02 19.6 C 9.96 g/m*3 19.6 C 0 km/h
2471 16-08-2010 14:30:03 20 C 9.51 g/m*3 20 C 0 km/h
2472 16-08-2010 14:42:01 20.5 C 9.96 g/m*3 20.5 C 0 km/h
2473 16-08-2010 14:54:02 19.8 C 9.57 g/m*3 19.8 C 0 km/h
2474 16-08-2010 15:06:02 19.7 C 9.34 g/m*3 19.7 C 0 km/h
2475 16-08-2010 15:18:02 19.7 C 9.51 g/m*3 19.7 C 0 km/h
Sensor: Nr:Datum:Temp:Abs-Feuchte:Windchill:Wind:
Aussen-T/F 2476 16-08-2010 15:30:02 19.7 C 9.34 g/m*3 19.7 C 0 km/h
2477 16-08-2010 15:42:03 19.8 C 9.57 g/m*3 19.8 C 0 km/h
2478 16-08-2010 15:54:02 19.7 C 9.34 g/m*3 19.7 C 0 km/h
2479 16-08-2010 16:06:02 20 C 9.68 g/m*3 20 C 0 km/h
2480 16-08-2010 16:18:02 19.7 C 9.68 g/m*3 19.7 C 0 km/h
2481 16-08-2010 16:30:02 19.6 C 9.79 g/m*3 19.6 C 0 km/h
2482 16-08-2010 16:42:02 19.5 C 9.73 g/m*3 19.5 C 0 km/h
2483 16-08-2010 16:54:02 20 C 9.85 g/m*3 20 C 0 km/h
2484 16-08-2010 17:07:03 20 C 9.85 g/m*3 20 C 0 km/h
2485 16-08-2010 17:19:02 19.9 C 9.79 g/m*3 19.9 C 0 km/h
2486 16-08-2010 17:31:02 19.8 C 9.74 g/m*3 19.8 C 0 km/h
2487 16-08-2010 17:43:02 19.8 C 9.74 g/m*3 19.8 C 0 km/h
2488 16-08-2010 17:55:01 20.3 C 9.85 g/m*3 20.3 C 0 km/h
2489 16-08-2010 18:07:02 20.2 C 9.44 g/m*3 20.2 C 0 km/h
2490 16-08-2010 18:19:01 20 C 9.51 g/m*3 20 C 0 km/h
2491 16-08-2010 18:31:01 19.8 C 9.74 g/m*3 19.8 C 0 km/h
2492 16-08-2010 18:43:01 19.5 C 9.73 g/m*3 19.5 C 0 km/h
2493 16-08-2010 18:55:01 19.3 C 9.79 g/m*3 19.3 C 0 km/h
2494 16-08-2010 19:07:02 18.9 C 9.88 g/m*3 18.9 C 0 km/h
2495 16-08-2010 19:19:02 18.8 C 9.99 g/m*3 18.8 C 0 km/h
2496 16-08-2010 19:31:01 18.7 C 10.09 g/m*3 18.7 C 0 km/h
2497 16-08-2010 19:43:01 18.4 C 10.07 g/m*3 18.4 C 0 km/h
2498 16-08-2010 19:55:02 18.2 C 10.26 g/m*3 18.2 C 0 km/h
2499 16-08-2010 20:07:01 18.1 C 10.35 g/m*3 18.1 C 0 km/h
2500 16-08-2010 20:19:02 18 C 10.44 g/m*3 18 C 0 km/h
Sensor: Nr:Datum:Temp:Abs-Feuchte:Windchill:Wind:
Aussen-T/F 2501 16-08-2010 20:31:01 17.9 C 10.69 g/m*3 17.9 C 0 km/h
2502 16-08-2010 20:43:01 17.8 C 10.78 g/m*3 17.8 C 0 km/h
2503 16-08-2010 20:55:02 17.7 C 10.86 g/m*3 17.7 C 0 km/h
2504 16-08-2010 21:07:01 17.6 C 11.1 g/m*3 17.6 C 0 km/h
2505 16-08-2010 21:19:01 17.4 C 11.12 g/m*3 17.4 C 0 km/h
2506 16-08-2010 21:31:02 17.3 C 11.34 g/m*3 17.3 C 0 km/h
2507 16-08-2010 21:43:02 17.4 C 11.41 g/m*3 17.4 C 0 km/h
2508 16-08-2010 21:55:02 17.5 C 11.63 g/m*3 17.5 C 0 km/h
2509 16-08-2010 22:07:35 17.4 C 11.71 g/m*3 17.4 C 0 km/h
2510 16-08-2010 22:20:03 17.5 C 11.78 g/m*3 17.5 C 0 km/h
2511 16-08-2010 22:32:03 17.6 C 11.85 g/m*3 17.6 C 0 km/h
2512 16-08-2010 22:44:03 17.7 C 11.92 g/m*3 17.7 C 0 km/h
2513 16-08-2010 22:56:03 17.7 C 11.92 g/m*3 17.7 C 0 km/h
2514 16-08-2010 23:08:03 17.8 C 12.14 g/m*3 17.8 C 0 km/h
2515 16-08-2010 23:20:03 17.7 C 12.07 g/m*3 17.7 C 0 km/h
2516 16-08-2010 23:32:03 17.7 C 12.07 g/m*3 17.7 C 0 km/h
2517 16-08-2010 23:44:03 17.8 C 11.99 g/m*3 17.8 C 0 km/h
2518 16-08-2010 23:56:03 17.8 C 11.99 g/m*3 17.8 C 0 km/h
2519 17-08-2010 00:08:03 17.8 C 11.99 g/m*3 17.8 C 0 km/h
2520 17-08-2010 00:20:03 17.8 C 11.99 g/m*3 17.8 C 0 km/h
2521 17-08-2010 00:32:03 17.7 C 11.92 g/m*3 17.7 C 0 km/h
2522 17-08-2010 00:44:03 17.5 C 11.78 g/m*3 17.5 C 0 km/h
2523 17-08-2010 00:56:03 17.3 C 12.08 g/m*3 17.3 C 0 km/h
2524 17-08-2010 01:08:03 17.1 C 12.08 g/m*3 17.1 C 0 km/h
2525 17-08-2010 01:20:03 16.8 C 12.3 g/m*3 16.8 C 0 km/h
Sensor: Nr:Datum:Temp:Abs-Feuchte:Windchill:Wind:
Aussen-T/F 2526 17-08-2010 01:32:03 16.6 C 12.29 g/m*3 16.6 C 0 km/h
2527 17-08-2010 01:44:03 16.5 C 12.36 g/m*3 16.5 C 0 km/h
2528 17-08-2010 01:56:03 16.4 C 12.42 g/m*3 16.4 C 0 km/h
2529 17-08-2010 02:08:03 16.3 C 12.35 g/m*3 16.3 C 0 km/h
2530 17-08-2010 02:20:03 16.5 C 12.5 g/m*3 16.5 C 0 km/h
2531 17-08-2010 02:32:04 16.5 C 12.5 g/m*3 16.5 C 0 km/h
2532 17-08-2010 02:44:04 16.6 C 12.43 g/m*3 16.6 C 0 km/h
2533 17-08-2010 02:56:04 16.5 C 12.08 g/m*3 16.5 C 0 km/h
2534 17-08-2010 03:08:04 16.4 C 11.86 g/m*3 16.4 C 0 km/h
2535 17-08-2010 03:20:04 16.4 C 11.86 g/m*3 16.4 C 0 km/h
2536 17-08-2010 03:32:04 16.4 C 11.86 g/m*3 16.4 C 0 km/h
2537 17-08-2010 03:44:04 16.4 C 11.72 g/m*3 16.4 C 0 km/h
2538 17-08-2010 03:56:04 16.5 C 11.65 g/m*3 16.5 C 0 km/h
2539 17-08-2010 04:08:04 16.5 C 11.37 g/m*3 16.5 C 0 km/h
2540 17-08-2010 04:20:04 16.4 C 11.31 g/m*3 16.4 C 0 km/h
2541 17-08-2010 04:32:04 16.4 C 11.17 g/m*3 16.4 C 0 km/h
2542 17-08-2010 04:44:04 16.4 C 11.03 g/m*3 16.4 C 0 km/h
2543 17-08-2010 04:56:04 16.4 C 11.03 g/m*3 16.4 C 0 km/h
2544 17-08-2010 05:08:04 16 C 11.04 g/m*3 16 C 0 km/h
2545 17-08-2010 05:20:04 15.5 C 11.24 g/m*3 15.5 C 0 km/h
2546 17-08-2010 05:32:05 15.4 C 11.43 g/m*3 15.4 C 0 km/h
2547 17-08-2010 05:44:05 15.6 C 11.57 g/m*3 15.6 C 0 km/h
2548 17-08-2010 05:56:05 15.6 C 11.44 g/m*3 15.6 C 0 km/h
2549 17-08-2010 06:08:05 15.7 C 11.37 g/m*3 15.7 C 0 km/h
2550 17-08-2010 06:20:05 15.8 C 11.31 g/m*3 15.8 C 0 km/h
Sensor: Nr:Datum:Temp:Abs-Feuchte:Windchill:Wind:
Aussen-T/F 2551 17-08-2010 06:32:05 15.8 C 11.31 g/m*3 15.8 C 0 km/h
2552 17-08-2010 06:44:05 15.9 C 11.24 g/m*3 15.9 C 0 km/h
2553 17-08-2010 06:56:02 16 C 10.9 g/m*3 16 C 0 km/h
2554 17-08-2010 07:08:02 16.2 C 10.89 g/m*3 16.2 C 0 km/h
2555 17-08-2010 07:20:24 16.2 C 10.76 g/m*3 16.2 C 0 km/h
2556 17-08-2010 07:32:02 16.3 C 10.96 g/m*3 16.3 C 0 km/h
2557 17-08-2010 07:44:02 16.4 C 10.89 g/m*3 16.4 C 0 km/h
2558 17-08-2010 07:56:01 16.7 C 10.66 g/m*3 16.7 C 0 km/h
2559 17-08-2010 08:08:03 16.7 C 10.66 g/m*3 16.7 C 0 km/h
2560 17-08-2010 08:20:01 16.8 C 10.58 g/m*3 16.8 C 0 km/h
2561 17-08-2010 08:32:02 16.7 C 10.23 g/m*3 16.7 C 0 km/h
2562 17-08-2010 08:44:02 16.7 C 10.09 g/m*3 16.7 C 0 km/h
2563 17-08-2010 08:56:02 16.7 C 10.09 g/m*3 16.7 C 0 km/h
2564 17-08-2010 09:08:02 16.8 C 10.01 g/m*3 16.8 C 0 km/h
2565 17-08-2010 09:20:02 16.9 C 9.78 g/m*3 16.9 C 0 km/h
2566 17-08-2010 09:32:02 16.9 C 9.64 g/m*3 16.9 C 0 km/h
2567 17-08-2010 09:44:02 17.1 C 9.46 g/m*3 17.1 C 0 km/h
2568 17-08-2010 09:56:02 17.2 C 9.37 g/m*3 17.2 C 0 km/h
2569 17-08-2010 10:08:02 17 C 9.26 g/m*3 17 C 0 km/h
2570 17-08-2010 10:20:01 17 C 9.26 g/m*3 17 C 0 km/h
2571 17-08-2010 10:32:02 17 C 9.41 g/m*3 17 C 0 km/h
2572 17-08-2010 10:44:02 17 C 9.41 g/m*3 17 C 0 km/h
2573 17-08-2010 10:56:02 17.3 C 9.43 g/m*3 17.3 C 0 km/h
2574 17-08-2010 11:08:02 17.6 C 9.45 g/m*3 17.6 C 0 km/h
2575 17-08-2010 11:20:02 17.3 C 9.58 g/m*3 17.3 C 0 km/h
Sensor: Nr:Datum:Temp:Abs-Feuchte:Windchill:Wind:
Aussen-T/F 2576 17-08-2010 11:32:02 17.6 C 9.3 g/m*3 17.6 C 0 km/h
2577 17-08-2010 11:44:02 17.7 C 8.75 g/m*3 17.7 C 0 km/h
2578 17-08-2010 11:56:02 17.7 C 8.9 g/m*3 17.7 C 0 km/h
2579 17-08-2010 12:08:02 17.6 C 8.85 g/m*3 17.6 C 0 km/h
2580 17-08-2010 12:20:02 16.8 C 9.58 g/m*3 16.8 C 0 km/h
2581 17-08-2010 12:32:02 16 C 10.08 g/m*3 16 C 0 km/h
2582 17-08-2010 12:44:02 16.4 C 11.03 g/m*3 16.4 C 0 km/h
2583 17-08-2010 12:56:02 16.3 C 10.96 g/m*3 16.3 C 0 km/h
2584 17-08-2010 13:08:02 16.5 C 11.23 g/m*3 16.5 C 0 km/h
2585 17-08-2010 13:20:02 16.8 C 11.58 g/m*3 16.8 C 0 km/h
2586 17-08-2010 13:32:02 17.7 C 11.92 g/m*3 17.7 C 0 km/h
2587 17-08-2010 13:44:02 17.9 C 11.76 g/m*3 17.9 C 0 km/h
2588 17-08-2010 13:56:02 17.6 C 12.15 g/m*3 17.6 C 0 km/h
2589 17-08-2010 14:08:01 17.7 C 10.41 g/m*3 17.7 C 0 km/h
2590 17-08-2010 14:20:02 17.3 C 9.28 g/m*3 17.3 C 0 km/h
2591 17-08-2010 14:32:02 17.4 C 9.19 g/m*3 17.4 C 0 km/h
2592 17-08-2010 14:44:02 18.1 C 8.65 g/m*3 18.1 C 0 km/h
2593 17-08-2010 14:56:02 18.2 C 8.24 g/m*3 18.2 C 0 km/h
2594 17-08-2010 15:08:01 17.9 C 7.94 g/m*3 17.9 C 0 km/h
2595 17-08-2010 15:20:01 18.3 C 7.97 g/m*3 18.3 C 0 km/h
2596 17-08-2010 15:32:02 18 C 7.99 g/m*3 18 C 0 km/h
2597 17-08-2010 15:44:02 16 C 9.4 g/m*3 16 C 0 km/h
2598 17-08-2010 15:56:02 15.2 C 9.99 g/m*3 15.2 C 0 km/h
2599 17-08-2010 16:08:02 14.9 C 10.2 g/m*3 14.9 C 0 km/h
2600 17-08-2010 16:20:01 14.6 C 10.01 g/m*3 14.6 C 0 km/h
Sensor: Nr:Datum:Temp:Abs-Feuchte:Windchill:Wind:
Aussen-T/F 2601 17-08-2010 16:32:02 14.4 C 9.64 g/m*3 14.4 C 0 km/h
2602 17-08-2010 16:44:02 14.8 C 9.37 g/m*3 14.8 C 0 km/h
2603 17-08-2010 16:56:02 14.8 C 9.5 g/m*3 14.8 C 0 km/h
2604 17-08-2010 17:08:02 14.5 C 9.45 g/m*3 14.5 C 0 km/h
2605 17-08-2010 17:20:01 14.4 C 9.64 g/m*3 14.4 C 0 km/h
2606 17-08-2010 17:32:02 14.2 C 9.77 g/m*3 14.2 C 0 km/h
2607 17-08-2010 17:44:02 14.3 C 10.32 g/m*3 14.3 C 0 km/h
2608 17-08-2010 17:56:02 14.7 C 10.7 g/m*3 14.7 C 0 km/h
2609 17-08-2010 18:08:02 14.3 C 10.57 g/m*3 14.3 C 0 km/h
2610 17-08-2010 18:20:02 14.4 C 10.75 g/m*3 14.4 C 0 km/h
2611 17-08-2010 18:32:02 14.8 C 11.15 g/m*3 14.8 C 0 km/h
2612 17-08-2010 18:44:02 15.2 C 11.29 g/m*3 15.2 C 0 km/h
2613 17-08-2010 18:56:02 15.3 C 11.23 g/m*3 15.3 C 0 km/h
2614 17-08-2010 19:08:02 15.2 C 11.16 g/m*3 15.2 C 0 km/h
2615 17-08-2010 19:20:02 15 C 11.03 g/m*3 15 C 0 km/h
2616 17-08-2010 19:32:02 14.8 C 11.02 g/m*3 14.8 C 0 km/h
2617 17-08-2010 19:44:02 14.7 C 11.08 g/m*3 14.7 C 0 km/h
2618 17-08-2010 19:56:02 14.5 C 10.94 g/m*3 14.5 C 0 km/h
2619 17-08-2010 20:08:01 14.4 C 11 g/m*3 14.4 C 0 km/h
2620 17-08-2010 20:20:02 14.4 C 11 g/m*3 14.4 C 0 km/h
2621 17-08-2010 20:32:02 14.2 C 10.99 g/m*3 14.2 C 0 km/h
2622 17-08-2010 20:44:02 14.3 C 11.06 g/m*3 14.3 C 0 km/h
2623 17-08-2010 20:56:02 14.3 C 11.06 g/m*3 14.3 C 0 km/h
2624 17-08-2010 21:08:03 14.3 C 11.18 g/m*3 14.3 C 0 km/h
2625 17-08-2010 21:20:02 14.3 C 11.18 g/m*3 14.3 C 0 km/h
Sensor: Nr:Datum:Temp:Abs-Feuchte:Windchill:Wind:
Aussen-T/F 2626 17-08-2010 21:32:02 14.3 C 11.3 g/m*3 14.3 C 0 km/h
2627 17-08-2010 21:44:02 14.4 C 11.37 g/m*3 14.4 C 0 km/h
2628 17-08-2010 21:57:04 14.6 C 11.51 g/m*3 14.6 C 0 km/h
2629 17-08-2010 22:09:05 14.6 C 11.51 g/m*3 14.6 C 0 km/h
2630 17-08-2010 22:21:05 14.4 C 11 g/m*3 14.4 C 0 km/h
2631 17-08-2010 22:33:05 14.6 C 10.64 g/m*3 14.6 C 0 km/h
2632 17-08-2010 22:45:05 14.7 C 10.45 g/m*3 14.7 C 0 km/h
2633 17-08-2010 22:57:05 14.8 C 10.13 g/m*3 14.8 C 0 km/h
2634 17-08-2010 23:09:05 14.9 C 10.2 g/m*3 14.9 C 0 km/h
2635 17-08-2010 23:21:05 14.9 C 10.2 g/m*3 14.9 C 0 km/h
2636 17-08-2010 23:33:05 15 C 10 g/m*3 15 C 0 km/h
2637 17-08-2010 23:45:05 15 C 9.87 g/m*3 15 C 0 km/h
2638 17-08-2010 23:57:05 15.2 C 9.99 g/m*3 15.2 C 0 km/h
2639 18-08-2010 00:09:05 15.3 C 9.79 g/m*3 15.3 C 0 km/h
2640 18-08-2010 00:21:05 15.4 C 9.72 g/m*3 15.4 C 0 km/h
2641 18-08-2010 00:33:05 15.5 C 9.65 g/m*3 15.5 C 0 km/h
2642 18-08-2010 00:45:05 15.7 C 9.63 g/m*3 15.7 C 0 km/h
2643 18-08-2010 00:57:05 15.7 C 9.5 g/m*3 15.7 C 0 km/h
2644 18-08-2010 01:09:05 15.7 C 9.5 g/m*3 15.7 C 0 km/h
2645 18-08-2010 01:21:05 15.8 C 9.42 g/m*3 15.8 C 0 km/h
2646 18-08-2010 01:33:05 15.8 C 9.42 g/m*3 15.8 C 0 km/h
2647 18-08-2010 01:45:05 15.8 C 9.42 g/m*3 15.8 C 0 km/h
2648 18-08-2010 01:57:05 15.7 C 9.37 g/m*3 15.7 C 0 km/h
2649 18-08-2010 02:09:05 15.5 C 9.39 g/m*3 15.5 C 0 km/h
2650 18-08-2010 02:21:05 15.6 C 9.44 g/m*3 15.6 C 0 km/h
Sensor: Nr:Datum:Temp:Abs-Feuchte:Windchill:Wind:
Aussen-T/F 2651 18-08-2010 02:33:05 15.5 C 9.39 g/m*3 15.5 C 0 km/h
2652 18-08-2010 02:45:06 15.6 C 9.44 g/m*3 15.6 C 0 km/h
2653 18-08-2010 02:57:06 15.5 C 9.52 g/m*3 15.5 C 0 km/h
2654 18-08-2010 03:09:06 15.5 C 9.52 g/m*3 15.5 C 0 km/h
2655 18-08-2010 03:21:06 15.4 C 9.46 g/m*3 15.4 C 0 km/h
2656 18-08-2010 03:33:06 15.5 C 9.52 g/m*3 15.5 C 0 km/h
2657 18-08-2010 03:45:06 15.4 C 9.46 g/m*3 15.4 C 0 km/h
2658 18-08-2010 03:57:06 15.5 C 9.52 g/m*3 15.5 C 0 km/h
2659 18-08-2010 04:09:06 15.4 C 9.33 g/m*3 15.4 C 0 km/h
2660 18-08-2010 04:21:06 15.4 C 9.46 g/m*3 15.4 C 0 km/h
2661 18-08-2010 04:33:06 15.2 C 9.48 g/m*3 15.2 C 0 km/h
2662 18-08-2010 04:45:06 15 C 9.62 g/m*3 15 C 0 km/h
2663 18-08-2010 04:57:06 15 C 9.87 g/m*3 15 C 0 km/h
2664 18-08-2010 05:09:06 15 C 9.87 g/m*3 15 C 0 km/h
2665 18-08-2010 05:21:06 15 C 9.75 g/m*3 15 C 0 km/h
2666 18-08-2010 05:33:06 14.9 C 9.81 g/m*3 14.9 C 0 km/h
2667 18-08-2010 05:45:06 14.9 C 9.81 g/m*3 14.9 C 0 km/h
2668 18-08-2010 05:57:06 15 C 9.75 g/m*3 15 C 0 km/h
2669 18-08-2010 06:09:06 15 C 9.62 g/m*3 15 C 0 km/h
2670 18-08-2010 06:21:04 15 C 9.62 g/m*3 15 C 0 km/h
2671 18-08-2010 06:33:04 15 C 9.49 g/m*3 15 C 0 km/h
2672 18-08-2010 06:45:02 15.2 C 9.61 g/m*3 15.2 C 0 km/h
2673 18-08-2010 06:57:02 15.2 C 9.48 g/m*3 15.2 C 0 km/h
2674 18-08-2010 07:09:01 15.2 C 9.48 g/m*3 15.2 C 0 km/h
2675 18-08-2010 07:21:01 15.3 C 9.66 g/m*3 15.3 C 0 km/h
Sensor: Nr:Datum:Temp:Abs-Feuchte:Windchill:Wind:
Aussen-T/F 2676 18-08-2010 07:33:02 15.4 C 9.72 g/m*3 15.4 C 0 km/h
2677 18-08-2010 07:45:02 15.5 C 9.78 g/m*3 15.5 C 0 km/h
2678 18-08-2010 07:57:02 15.8 C 9.83 g/m*3 15.8 C 0 km/h
2679 18-08-2010 08:09:02 15.9 C 9.89 g/m*3 15.9 C 0 km/h
2680 18-08-2010 08:21:01 16 C 9.81 g/m*3 16 C 0 km/h
2681 18-08-2010 08:33:02 16.1 C 9.87 g/m*3 16.1 C 0 km/h
2682 18-08-2010 08:45:02 16.3 C 9.85 g/m*3 16.3 C 0 km/h
2683 18-08-2010 08:57:02 16.5 C 9.97 g/m*3 16.5 C 0 km/h
2684 18-08-2010 09:09:02 16.7 C 10.23 g/m*3 16.7 C 0 km/h
2685 18-08-2010 09:21:02 17 C 10.13 g/m*3 17 C 0 km/h
2686 18-08-2010 09:33:02 17 C 10.13 g/m*3 17 C 0 km/h
2687 18-08-2010 09:45:02 17.5 C 10.14 g/m*3 17.5 C 0 km/h
2688 18-08-2010 09:57:02 17.3 C 10.16 g/m*3 17.3 C 0 km/h
2689 18-08-2010 10:09:02 17.4 C 10.08 g/m*3 17.4 C 0 km/h
2690 18-08-2010 10:21:02 17.8 C 10.32 g/m*3 17.8 C 0 km/h
2691 18-08-2010 10:33:01 18 C 10.14 g/m*3 18 C 0 km/h
2692 18-08-2010 10:45:02 18.5 C 10.28 g/m*3 18.5 C 0 km/h
2693 18-08-2010 10:57:02 19.1 C 10.16 g/m*3 19.1 C 0 km/h
2694 18-08-2010 11:09:01 18.8 C 9.99 g/m*3 18.8 C 0 km/h
2695 18-08-2010 11:21:02 18.9 C 10.21 g/m*3 18.9 C 0 km/h
2696 18-08-2010 11:33:02 18.5 C 10.13 g/m*3 18.5 C 0 km/h
2697 18-08-2010 11:45:02 18.5 C 10.28 g/m*3 18.5 C 0 km/h
2698 18-08-2010 11:57:02 18.8 C 10.31 g/m*3 18.8 C 0 km/h
2699 18-08-2010 12:09:02 19.1 C 10.16 g/m*3 19.1 C 0 km/h
2700 18-08-2010 12:21:02 18.9 C 10.69 g/m*3 18.9 C 0 km/h
Sensor: Nr:Datum:Temp:Abs-Feuchte:Windchill:Wind:
Aussen-T/F 2701 18-08-2010 12:33:02 18.8 C 10.63 g/m*3 18.8 C 0 km/h
2702 18-08-2010 12:45:02 18.3 C 10.94 g/m*3 18.3 C 0 km/h
2703 18-08-2010 12:57:02 19 C 10.92 g/m*3 19 C 0 km/h
2704 18-08-2010 13:09:02 20 C 10.54 g/m*3 20 C 0 km/h
2705 18-08-2010 13:21:02 19.8 C 10.76 g/m*3 19.8 C 0 km/h
2706 18-08-2010 13:33:02 20.4 C 10.26 g/m*3 20.4 C 0 km/h
2707 18-08-2010 13:45:02 21.5 C 9.99 g/m*3 21.5 C 0 km/h
2708 18-08-2010 13:57:02 22.3 C 9.48 g/m*3 22.3 C 0 km/h
2709 18-08-2010 14:09:02 22.2 C 9.03 g/m*3 22.2 C 0 km/h
2710 18-08-2010 14:21:02 22.7 C 9.29 g/m*3 22.7 C 0 km/h
2711 18-08-2010 14:33:02 22.7 C 9.29 g/m*3 22.7 C 0 km/h
2712 18-08-2010 14:45:02 23.2 C 8.73 g/m*3 23.2 C 0 km/h
2713 18-08-2010 14:57:02 23.4 C 8.83 g/m*3 23.4 C 0 km/h
2714 18-08-2010 15:09:02 22.5 C 8.99 g/m*3 22.5 C 0 km/h
2715 18-08-2010 15:21:02 21.3 C 9.51 g/m*3 21.3 C 0 km/h
2716 18-08-2010 15:33:02 22 C 9.12 g/m*3 22 C 0 km/h
2717 18-08-2010 15:45:02 22.4 C 8.74 g/m*3 22.4 C 0 km/h
2718 18-08-2010 15:57:02 23 C 8.63 g/m*3 23 C 0 km/h
2719 18-08-2010 16:09:02 22.7 C 9.09 g/m*3 22.7 C 0 km/h
2720 18-08-2010 16:21:02 22.8 C 9.35 g/m*3 22.8 C 0 km/h
2721 18-08-2010 16:33:02 23.6 C 9.15 g/m*3 23.6 C 0 km/h
2722 18-08-2010 16:45:01 24.5 C 8.73 g/m*3 24.5 C 0 km/h
2723 18-08-2010 16:57:01 24.8 C 8.65 g/m*3 24.8 C 0 km/h
2724 18-08-2010 17:09:01 24 C 8.7 g/m*3 24 C 0 km/h
2725 18-08-2010 17:21:01 23.2 C 8.94 g/m*3 23.2 C 0 km/h
Sensor: Nr:Datum:Temp:Abs-Feuchte:Windchill:Wind:
Aussen-T/F 2726 18-08-2010 17:33:02 23.5 C 8.88 g/m*3 23.5 C 0 km/h
2727 18-08-2010 17:45:02 24.5 C 8.95 g/m*3 24.5 C 0 km/h
2728 18-08-2010 17:57:02 24.2 C 8.8 g/m*3 24.2 C 0 km/h
2729 18-08-2010 18:09:02 22.8 C 9.35 g/m*3 22.8 C 0 km/h
2730 18-08-2010 18:21:01 22.9 C 9.4 g/m*3 22.9 C 0 km/h
2731 18-08-2010 18:33:02 22.2 C 9.03 g/m*3 22.2 C 0 km/h
2732 18-08-2010 18:45:02 22 C 9.12 g/m*3 22 C 0 km/h
2733 18-08-2010 18:57:02 21.9 C 8.88 g/m*3 21.9 C 0 km/h
2734 18-08-2010 19:09:02 21.3 C 8.95 g/m*3 21.3 C 0 km/h
2735 18-08-2010 19:21:01 21.1 C 9.03 g/m*3 21.1 C 0 km/h
2736 18-08-2010 19:33:02 20.8 C 9.23 g/m*3 20.8 C 0 km/h
2737 18-08-2010 19:45:01 20.4 C 9.38 g/m*3 20.4 C 0 km/h
2738 18-08-2010 19:57:01 19.8 C 10.08 g/m*3 19.8 C 0 km/h
2739 18-08-2010 20:09:02 19.2 C 10.22 g/m*3 19.2 C 0 km/h
2740 18-08-2010 20:21:02 19.5 C 10.07 g/m*3 19.5 C 0 km/h
2741 18-08-2010 20:33:02 19.5 C 9.9 g/m*3 19.5 C 0 km/h
2742 18-08-2010 20:45:02 19.5 C 9.9 g/m*3 19.5 C 0 km/h
2743 18-08-2010 20:57:02 19.5 C 9.9 g/m*3 19.5 C 0 km/h
2744 18-08-2010 21:09:01 19.3 C 9.95 g/m*3 19.3 C 0 km/h
2745 18-08-2010 21:21:02 19.1 C 10 g/m*3 19.1 C 0 km/h
2746 18-08-2010 21:33:01 18.7 C 10.25 g/m*3 18.7 C 0 km/h
2747 18-08-2010 21:45:02 18.7 C 10.41 g/m*3 18.7 C 0 km/h
2748 18-08-2010 21:57:02 18.3 C 10.32 g/m*3 18.3 C 0 km/h
2749 18-08-2010 22:09:01 18.1 C 10.51 g/m*3 18.1 C 0 km/h
2750 18-08-2010 22:22:04 17.7 C 10.56 g/m*3 17.7 C 0 km/h
Sensor: Nr:Datum:Temp:Abs-Feuchte:Windchill:Wind:
Aussen-T/F 2751 18-08-2010 22:34:04 17.5 C 10.59 g/m*3 17.5 C 0 km/h
2752 18-08-2010 22:46:04 17.3 C 10.61 g/m*3 17.3 C 0 km/h
2753 18-08-2010 22:58:04 17.4 C 10.67 g/m*3 17.4 C 0 km/h
2754 18-08-2010 23:10:04 17.6 C 10.8 g/m*3 17.6 C 0 km/h
2755 18-08-2010 23:22:04 17.7 C 10.56 g/m*3 17.7 C 0 km/h
2756 18-08-2010 23:34:04 17.6 C 10.2 g/m*3 17.6 C 0 km/h
2757 18-08-2010 23:46:04 17.5 C 9.69 g/m*3 17.5 C 0 km/h
2758 18-08-2010 23:58:04 17.5 C 9.69 g/m*3 17.5 C 0 km/h
2759 19-08-2010 00:10:04 17.4 C 9.19 g/m*3 17.4 C 0 km/h
2760 19-08-2010 00:22:04 17.4 C 9.34 g/m*3 17.4 C 0 km/h
2761 19-08-2010 00:34:04 17.4 C 9.04 g/m*3 17.4 C 0 km/h
2762 19-08-2010 00:46:04 17.3 C 9.13 g/m*3 17.3 C 0 km/h
2763 19-08-2010 00:58:04 17.3 C 8.99 g/m*3 17.3 C 0 km/h
2764 19-08-2010 01:10:04 17.1 C 9.03 g/m*3 17.1 C 0 km/h
2765 19-08-2010 01:22:05 17.1 C 9.17 g/m*3 17.1 C 0 km/h
2766 19-08-2010 01:34:05 16.8 C 9.29 g/m*3 16.8 C 0 km/h
2767 19-08-2010 01:46:05 16.7 C 9.24 g/m*3 16.7 C 0 km/h
2768 19-08-2010 01:58:05 16.6 C 9.18 g/m*3 16.6 C 0 km/h
2769 19-08-2010 02:10:05 16.5 C 8.85 g/m*3 16.5 C 0 km/h
2770 19-08-2010 02:22:05 16.4 C 8.93 g/m*3 16.4 C 0 km/h
2771 19-08-2010 02:34:05 16.3 C 8.6 g/m*3 16.3 C 0 km/h
2772 19-08-2010 02:46:05 16.2 C 8.69 g/m*3 16.2 C 0 km/h
2773 19-08-2010 02:58:05 16.2 C 8.96 g/m*3 16.2 C 0 km/h
2774 19-08-2010 03:10:05 16.1 C 9.18 g/m*3 16.1 C 0 km/h
2775 19-08-2010 03:22:05 16 C 9.26 g/m*3 16 C 0 km/h
Sensor: Nr:Datum:Temp:Abs-Feuchte:Windchill:Wind:
Aussen-T/F 2776 19-08-2010 03:34:05 15.9 C 9.34 g/m*3 15.9 C 0 km/h
2777 19-08-2010 03:46:05 15.8 C 9.15 g/m*3 15.8 C 0 km/h
2778 19-08-2010 03:58:05 15.7 C 9.1 g/m*3 15.7 C 0 km/h
2779 19-08-2010 04:10:05 15.7 C 9.23 g/m*3 15.7 C 0 km/h
2780 19-08-2010 04:22:05 15.6 C 9.18 g/m*3 15.6 C 0 km/h
2781 19-08-2010 04:34:05 15.5 C 9.39 g/m*3 15.5 C 0 km/h
2782 19-08-2010 04:46:05 15.4 C 9.46 g/m*3 15.4 C 0 km/h
2783 19-08-2010 04:58:05 15.5 C 9.65 g/m*3 15.5 C 0 km/h
2784 19-08-2010 05:10:05 15.3 C 9.53 g/m*3 15.3 C 0 km/h
2785 19-08-2010 05:22:05 15.2 C 9.48 g/m*3 15.2 C 0 km/h
2786 19-08-2010 05:34:05 15 C 9.23 g/m*3 15 C 0 km/h
2787 19-08-2010 05:46:05 15 C 9.36 g/m*3 15 C 0 km/h
2788 19-08-2010 05:58:06 15 C 8.98 g/m*3 15 C 0 km/h
2789 19-08-2010 06:10:06 14.8 C 8.99 g/m*3 14.8 C 0 km/h
2790 19-08-2010 06:22:06 14.4 C 8.9 g/m*3 14.4 C 0 km/h
2791 19-08-2010 06:34:06 14.2 C 8.91 g/m*3 14.2 C 0 km/h
2792 19-08-2010 06:46:06 13.7 C 8.76 g/m*3 13.7 C 0 km/h
2793 19-08-2010 06:58:06 13.8 C 8.94 g/m*3 13.8 C 0 km/h
2794 19-08-2010 07:10:06 13.7 C 8.76 g/m*3 13.7 C 0 km/h
2795 19-08-2010 07:22:06 13.9 C 8.15 g/m*3 13.9 C 0 km/h
2796 19-08-2010 07:34:06 13.9 C 8.15 g/m*3 13.9 C 0 km/h
2797 19-08-2010 07:46:01 14 C 8.08 g/m*3 14 C 0 km/h
2798 19-08-2010 07:58:01 14.1 C 7.89 g/m*3 14.1 C 0 km/h
2799 19-08-2010 08:10:02 14.4 C 7.91 g/m*3 14.4 C 0 km/h
2800 19-08-2010 08:22:01 14.6 C 8.01 g/m*3 14.6 C 0 km/h
Sensor: Nr:Datum:Temp:Abs-Feuchte:Windchill:Wind:
Aussen-T/F 2801 19-08-2010 08:34:01 14.8 C 8.11 g/m*3 14.8 C 0 km/h
2802 19-08-2010 08:46:01 14.9 C 8.16 g/m*3 14.9 C 0 km/h
2803 19-08-2010 08:58:01 15.2 C 8.05 g/m*3 15.2 C 0 km/h
2804 19-08-2010 09:10:02 15.3 C 8.23 g/m*3 15.3 C 0 km/h
2805 19-08-2010 09:22:01 15.4 C 8.15 g/m*3 15.4 C 0 km/h
2806 19-08-2010 09:34:01 15.7 C 8.03 g/m*3 15.7 C 0 km/h
2807 19-08-2010 09:46:01 16 C 8.04 g/m*3 16 C 0 km/h
2808 19-08-2010 09:58:01 16.2 C 7.86 g/m*3 16.2 C 0 km/h
2809 19-08-2010 10:10:02 16.6 C 7.91 g/m*3 16.6 C 0 km/h
2810 19-08-2010 10:22:02 17.1 C 7.71 g/m*3 17.1 C 0 km/h
2811 19-08-2010 10:34:02 17.7 C 7.69 g/m*3 17.7 C 0 km/h
2812 19-08-2010 10:46:02 18.8 C 7.73 g/m*3 18.8 C 0 km/h
2813 19-08-2010 10:58:02 19.3 C 7.3 g/m*3 19.3 C 0 km/h
2814 19-08-2010 11:10:02 19.2 C 7.26 g/m*3 19.2 C 0 km/h
2815 19-08-2010 11:22:02 19.5 C 7.38 g/m*3 19.5 C 0 km/h
2816 19-08-2010 11:34:03 20.2 C 6.99 g/m*3 20.2 C 0 km/h
2817 19-08-2010 11:46:02 20.4 C 7.43 g/m*3 20.4 C 0 km/h
2818 19-08-2010 11:58:02 20.7 C 7.2 g/m*3 20.7 C 0 km/h
2819 19-08-2010 12:10:01 20.3 C 7.03 g/m*3 20.3 C 0 km/h
2820 19-08-2010 12:22:02 20.8 C 6.88 g/m*3 20.8 C 0 km/h
2821 19-08-2010 12:34:02 22.1 C 6.64 g/m*3 22.1 C 0 km/h
2822 19-08-2010 12:46:02 22 C 6.4 g/m*3 22 C 0 km/h
2823 19-08-2010 12:58:02 22 C 6.21 g/m*3 22 C 0 km/h
2824 19-08-2010 13:10:03 22.1 C 6.25 g/m*3 22.1 C 0 km/h
2825 19-08-2010 13:22:02 22.1 C 6.05 g/m*3 22.1 C 0 km/h
Sensor: Nr:Datum:Temp:Abs-Feuchte:Windchill:Wind:
Aussen-T/F 2826 19-08-2010 13:34:02 22.6 C 6.23 g/m*3 22.6 C 0 km/h
2827 19-08-2010 13:46:01 22.7 C 6.06 g/m*3 22.7 C 0 km/h
2828 19-08-2010 13:58:01 23.7 C 6.2 g/m*3 23.7 C 0 km/h
2829 19-08-2010 14:10:02 23.3 C 6.27 g/m*3 23.3 C 0 km/h
2830 19-08-2010 14:22:01 22.8 C 6.1 g/m*3 22.8 C 0 km/h
2831 19-08-2010 14:34:01 23.7 C 5.78 g/m*3 23.7 C 0 km/h
2832 19-08-2010 14:46:01 23 C 5.55 g/m*3 23 C 0 km/h
2833 19-08-2010 14:58:01 22.4 C 6.36 g/m*3 22.4 C 0 km/h
2834 19-08-2010 15:10:02 22.4 C 6.95 g/m*3 22.4 C 0 km/h
2835 19-08-2010 15:22:01 23.2 C 6.44 g/m*3 23.2 C 0 km/h
2836 19-08-2010 15:34:01 24.3 C 5.97 g/m*3 24.3 C 0 km/h
2837 19-08-2010 15:46:01 24.6 C 5.63 g/m*3 24.6 C 0 km/h
2838 19-08-2010 15:58:01 24.2 C 5.94 g/m*3 24.2 C 0 km/h
2839 19-08-2010 16:10:01 23.4 C 7.36 g/m*3 23.4 C 0 km/h
2840 19-08-2010 16:22:02 23.5 C 7.4 g/m*3 23.5 C 0 km/h
2841 19-08-2010 16:34:01 23.5 C 7.82 g/m*3 23.5 C 0 km/h
2842 19-08-2010 16:46:03 23.1 C 7.65 g/m*3 23.1 C 0 km/h
2843 19-08-2010 16:58:03 22.9 C 7.97 g/m*3 22.9 C 0 km/h
2844 19-08-2010 17:10:02 22.4 C 8.14 g/m*3 22.4 C 0 km/h
2845 19-08-2010 17:22:02 22.9 C 8.17 g/m*3 22.9 C 0 km/h
2846 19-08-2010 17:34:02 24.1 C 8.1 g/m*3 24.1 C 0 km/h
2847 19-08-2010 17:46:02 24.5 C 7.39 g/m*3 24.5 C 0 km/h
2848 19-08-2010 17:58:02 25.6 C 5.48 g/m*3 25.6 C 0 km/h
2849 19-08-2010 18:10:01 25.1 C 5.32 g/m*3 25.1 C 0 km/h
2850 19-08-2010 18:22:02 25 C 5.75 g/m*3 25 C 0 km/h
Sensor: Nr:Datum:Temp:Abs-Feuchte:Windchill:Wind:
Aussen-T/F 2851 19-08-2010 18:34:02 25.3 C 5.85 g/m*3 25.3 C 0 km/h
2852 19-08-2010 18:46:02 25.7 C 5.99 g/m*3 25.7 C 0 km/h
2853 19-08-2010 18:58:02 26 C 5.84 g/m*3 26 C 0 km/h
2854 19-08-2010 19:10:03 25.8 C 6.98 g/m*3 25.8 C 0 km/h
2855 19-08-2010 19:22:02 25.8 C 6.26 g/m*3 25.8 C 0 km/h
2856 19-08-2010 19:34:02 25.6 C 6.67 g/m*3 25.6 C 0 km/h
2857 19-08-2010 19:46:01 24.9 C 6.87 g/m*3 24.9 C 0 km/h
2858 19-08-2010 19:58:01 24.1 C 6.35 g/m*3 24.1 C 0 km/h
2859 19-08-2010 20:10:02 22.8 C 6.71 g/m*3 22.8 C 0 km/h
2860 19-08-2010 20:22:01 21.3 C 7.08 g/m*3 21.3 C 0 km/h
2861 19-08-2010 20:34:02 20.1 C 7.13 g/m*3 20.1 C 0 km/h
2862 19-08-2010 20:46:01 19.4 C 7.17 g/m*3 19.4 C 0 km/h
2863 19-08-2010 20:58:01 18.9 C 7.45 g/m*3 18.9 C 0 km/h
2864 19-08-2010 21:10:02 18.5 C 7.44 g/m*3 18.5 C 0 km/h
2865 19-08-2010 21:22:01 18.3 C 7.82 g/m*3 18.3 C 0 km/h
2866 19-08-2010 21:34:02 18.2 C 7.77 g/m*3 18.2 C 0 km/h
2867 19-08-2010 21:46:01 17.9 C 8.09 g/m*3 17.9 C 0 km/h
2868 19-08-2010 21:58:01 17.5 C 7.75 g/m*3 17.5 C 0 km/h
2869 19-08-2010 22:10:02 17.3 C 7.96 g/m*3 17.3 C 0 km/h
2870 19-08-2010 22:22:02 17.1 C 8.01 g/m*3 17.1 C 0 km/h
2871 19-08-2010 22:34:02 17 C 7.96 g/m*3 17 C 0 km/h
2872 19-08-2010 22:47:36 16.6 C 8.05 g/m*3 16.6 C 0 km/h
2873 19-08-2010 22:59:36 16.3 C 8.05 g/m*3 16.3 C 0 km/h
2874 19-08-2010 23:11:36 16 C 8.17 g/m*3 16 C 0 km/h
2875 19-08-2010 23:23:36 15.8 C 8.48 g/m*3 15.8 C 0 km/h
Sensor: Nr:Datum:Temp:Abs-Feuchte:Windchill:Wind:
Aussen-T/F 2876 19-08-2010 23:35:36 15.6 C 8.38 g/m*3 15.6 C 0 km/h
2877 19-08-2010 23:47:36 15.5 C 8.46 g/m*3 15.5 C 0 km/h
2878 19-08-2010 23:59:36 15.2 C 8.31 g/m*3 15.2 C 0 km/h
2879 20-08-2010 00:11:36 15.1 C 8.51 g/m*3 15.1 C 0 km/h
2880 20-08-2010 00:23:36 14.9 C 8.54 g/m*3 14.9 C 0 km/h
2881 20-08-2010 00:35:36 14.7 C 8.56 g/m*3 14.7 C 0 km/h
2882 20-08-2010 00:47:36 14.5 C 8.58 g/m*3 14.5 C 0 km/h
2883 20-08-2010 00:59:36 14.4 C 8.53 g/m*3 14.4 C 0 km/h
2884 20-08-2010 01:11:36 14.3 C 8.6 g/m*3 14.3 C 0 km/h
2885 20-08-2010 01:23:36 14.2 C 8.67 g/m*3 14.2 C 0 km/h
2886 20-08-2010 01:35:36 13.9 C 8.63 g/m*3 13.9 C 0 km/h
2887 20-08-2010 01:47:37 14 C 8.56 g/m*3 14 C 0 km/h
2888 20-08-2010 01:59:37 13.8 C 8.58 g/m*3 13.8 C 0 km/h
2889 20-08-2010 02:11:37 13.6 C 8.59 g/m*3 13.6 C 0 km/h
2890 20-08-2010 02:23:37 13.5 C 8.54 g/m*3 13.5 C 0 km/h
2891 20-08-2010 02:35:37 13.3 C 8.66 g/m*3 13.3 C 0 km/h
2892 20-08-2010 02:47:37 13.2 C 8.61 g/m*3 13.2 C 0 km/h
2893 20-08-2010 02:59:37 13.1 C 8.56 g/m*3 13.1 C 0 km/h
2894 20-08-2010 03:11:37 13 C 8.62 g/m*3 13 C 0 km/h
2895 20-08-2010 03:23:03 12.9 C 8.68 g/m*3 12.9 C 0 km/h
2896 20-08-2010 03:35:03 12.8 C 8.62 g/m*3 12.8 C 0 km/h
2897 20-08-2010 03:47:03 12.7 C 8.57 g/m*3 12.7 C 0 km/h
2898 20-08-2010 03:59:03 12.6 C 8.63 g/m*3 12.6 C 0 km/h
2899 20-08-2010 04:11:03 12.4 C 8.63 g/m*3 12.4 C 0 km/h
2900 20-08-2010 04:23:03 12.4 C 8.63 g/m*3 12.4 C 0 km/h
Sensor: Nr:Datum:Temp:Abs-Feuchte:Windchill:Wind:
Aussen-T/F 2901 20-08-2010 04:35:03 12.3 C 8.58 g/m*3 12.3 C 0 km/h
2902 20-08-2010 04:47:03 12.1 C 8.47 g/m*3 12.1 C 0 km/h
2903 20-08-2010 04:59:03 12.1 C 8.58 g/m*3 12.1 C 0 km/h
2904 20-08-2010 05:11:03 12 C 8.53 g/m*3 12 C 0 km/h
2905 20-08-2010 05:23:03 12 C 8.63 g/m*3 12 C 0 km/h
2906 20-08-2010 05:35:03 12 C 8.53 g/m*3 12 C 0 km/h
2907 20-08-2010 05:47:03 11.8 C 8.53 g/m*3 11.8 C 0 km/h
2908 20-08-2010 05:59:03 11.7 C 8.58 g/m*3 11.7 C 0 km/h
2909 20-08-2010 06:11:03 11.6 C 8.52 g/m*3 11.6 C 0 km/h
2910 20-08-2010 06:23:04 11.5 C 8.57 g/m*3 11.5 C 0 km/h
2911 20-08-2010 06:35:04 11.4 C 8.52 g/m*3 11.4 C 0 km/h
2912 20-08-2010 06:47:04 11.4 C 8.52 g/m*3 11.4 C 0 km/h
2913 20-08-2010 06:59:04 11.5 C 8.57 g/m*3 11.5 C 0 km/h
2914 20-08-2010 07:11:04 11.6 C 8.63 g/m*3 11.6 C 0 km/h
2915 20-08-2010 07:23:04 11.6 C 8.73 g/m*3 11.6 C 0 km/h
2916 20-08-2010 07:35:03 11.7 C 8.79 g/m*3 11.7 C 0 km/h
2917 20-08-2010 07:47:03 11.8 C 8.84 g/m*3 11.8 C 0 km/h
2918 20-08-2010 07:59:03 12.1 C 8.9 g/m*3 12.1 C 0 km/h
2919 20-08-2010 08:11:02 12.1 C 9.01 g/m*3 12.1 C 0 km/h
2920 20-08-2010 08:23:02 12.3 C 9.12 g/m*3 12.3 C 0 km/h
2921 20-08-2010 08:35:02 12.5 C 9.24 g/m*3 12.5 C 0 km/h
2922 20-08-2010 08:47:02 12.8 C 9.3 g/m*3 12.8 C 0 km/h
2923 20-08-2010 08:59:02 13 C 9.3 g/m*3 13 C 0 km/h
2924 20-08-2010 09:11:02 13.3 C 9.47 g/m*3 13.3 C 0 km/h
2925 20-08-2010 09:23:02 13.8 C 9.77 g/m*3 13.8 C 0 km/h
Sensor: Nr:Datum:Temp:Abs-Feuchte:Windchill:Wind:
Aussen-T/F 2926 20-08-2010 09:35:02 14.4 C 9.89 g/m*3 14.4 C 0 km/h
2927 20-08-2010 09:47:02 15 C 10 g/m*3 15 C 0 km/h
2928 20-08-2010 09:59:02 16 C 10.08 g/m*3 16 C 0 km/h
2929 20-08-2010 10:11:01 16.8 C 10.29 g/m*3 16.8 C 0 km/h
2930 20-08-2010 10:23:01 17.4 C 10.23 g/m*3 17.4 C 0 km/h
2931 20-08-2010 10:35:02 18.1 C 10.2 g/m*3 18.1 C 0 km/h
2932 20-08-2010 10:47:02 18.6 C 10.35 g/m*3 18.6 C 0 km/h
2933 20-08-2010 10:59:02 19.2 C 10.39 g/m*3 19.2 C 0 km/h
2934 20-08-2010 11:11:02 19.8 C 10.76 g/m*3 19.8 C 0 km/h
2935 20-08-2010 11:23:02 20.5 C 10.68 g/m*3 20.5 C 0 km/h
2936 20-08-2010 11:35:02 20.9 C 10.75 g/m*3 20.9 C 0 km/h
2937 20-08-2010 11:47:02 21.7 C 11.06 g/m*3 21.7 C 0 km/h
2938 20-08-2010 11:59:02 22 C 11.06 g/m*3 22 C 0 km/h
2939 20-08-2010 12:11:02 22.8 C 10.97 g/m*3 22.8 C 0 km/h
2940 20-08-2010 12:23:02 23.2 C 10.6 g/m*3 23.2 C 0 km/h
2941 20-08-2010 12:35:02 23.7 C 11.12 g/m*3 23.7 C 0 km/h
2942 20-08-2010 12:47:01 24.1 C 10.72 g/m*3 24.1 C 0 km/h
2943 20-08-2010 12:59:01 25 C 10.82 g/m*3 25 C 0 km/h
2944 20-08-2010 13:11:01 25.6 C 9.52 g/m*3 25.6 C 0 km/h
2945 20-08-2010 13:23:01 26.4 C 9.71 g/m*3 26.4 C 0 km/h
2946 20-08-2010 13:35:01 27 C 9.01 g/m*3 27 C 0 km/h
2947 20-08-2010 13:47:02 27.5 C 9 g/m*3 27.5 C 0 km/h
2948 20-08-2010 13:59:02 27.3 C 7.85 g/m*3 27.3 C 0 km/h
2949 20-08-2010 14:11:02 27.8 C 8.07 g/m*3 27.8 C 0 km/h
2950 20-08-2010 14:23:03 28.4 C 8.06 g/m*3 28.4 C 0 km/h
Sensor: Nr:Datum:Temp:Abs-Feuchte:Windchill:Wind:
Aussen-T/F 2951 20-08-2010 14:35:02 28.1 C 7.11 g/m*3 28.1 C 0 km/h
2952 20-08-2010 14:47:02 28.6 C 8.43 g/m*3 28.6 C 0 km/h
2953 20-08-2010 14:59:02 28.9 C 7.43 g/m*3 28.9 C 0 km/h
2954 20-08-2010 15:11:02 28.9 C 7.43 g/m*3 28.9 C 0 km/h
2955 20-08-2010 15:23:02 29 C 7.18 g/m*3 29 C 0 km/h
2956 20-08-2010 15:35:01 29.5 C 7.67 g/m*3 29.5 C 0 km/h
2957 20-08-2010 15:47:02 30.1 C 7.32 g/m*3 30.1 C 0 km/h
2958 20-08-2010 15:59:02 30.2 C 7.66 g/m*3 30.2 C 0 km/h
2959 20-08-2010 16:11:01 30.4 C 7.75 g/m*3 30.4 C 0 km/h
2960 20-08-2010 16:23:02 30.5 C 7.48 g/m*3 30.5 C 0 km/h
2961 20-08-2010 16:35:02 30.9 C 7.96 g/m*3 30.9 C 0 km/h
2962 20-08-2010 16:47:02 31 C 7.36 g/m*3 31 C 0 km/h
2963 20-08-2010 16:59:02 30.8 C 7.28 g/m*3 30.8 C 0 km/h
2964 20-08-2010 17:11:02 30.9 C 7.64 g/m*3 30.9 C 0 km/h
2965 20-08-2010 17:23:02 31.2 C 7.12 g/m*3 31.2 C 0 km/h
2966 20-08-2010 17:35:02 31.3 C 7.48 g/m*3 31.3 C 0 km/h
2967 20-08-2010 17:47:02 31.4 C 7.19 g/m*3 31.4 C 0 km/h
2968 20-08-2010 17:59:02 31 C 7.04 g/m*3 31 C 0 km/h
2969 20-08-2010 18:11:02 31.3 C 7.48 g/m*3 31.3 C 0 km/h
2970 20-08-2010 18:23:02 31.4 C 7.52 g/m*3 31.4 C 0 km/h
2971 20-08-2010 18:35:02 31.5 C 7.56 g/m*3 31.5 C 0 km/h
2972 20-08-2010 18:47:02 31 C 7.36 g/m*3 31 C 0 km/h
2973 20-08-2010 18:59:02 30.9 C 8.28 g/m*3 30.9 C 0 km/h
2974 20-08-2010 19:11:02 30.6 C 8.46 g/m*3 30.6 C 0 km/h
2975 20-08-2010 19:23:03 30.3 C 8.63 g/m*3 30.3 C 0 km/h
Sensor: Nr:Datum:Temp:Abs-Feuchte:Windchill:Wind:
Aussen-T/F 2976 20-08-2010 19:35:01 30 C 8.49 g/m*3 30 C 0 km/h
2977 20-08-2010 19:47:02 29 C 8.04 g/m*3 29 C 0 km/h
2978 20-08-2010 19:59:02 28 C 8.43 g/m*3 28 C 0 km/h
2979 20-08-2010 20:11:02 26.6 C 8.81 g/m*3 26.6 C 0 km/h
2980 20-08-2010 20:23:02 25.6 C 9.05 g/m*3 25.6 C 0 km/h
2981 20-08-2010 20:35:01 25 C 9.21 g/m*3 25 C 0 km/h
2982 20-08-2010 20:47:02 24.5 C 8.95 g/m*3 24.5 C 0 km/h
2983 20-08-2010 20:59:03 23.8 C 9.25 g/m*3 23.8 C 0 km/h
2984 20-08-2010 21:11:01 23.4 C 9.25 g/m*3 23.4 C 0 km/h
2985 20-08-2010 21:23:01 23.3 C 9.41 g/m*3 23.3 C 0 km/h
2986 20-08-2010 21:35:01 23.2 C 9.56 g/m*3 23.2 C 0 km/h
2987 20-08-2010 21:47:02 22.9 C 9.81 g/m*3 22.9 C 0 km/h
2988 20-08-2010 21:59:02 22.6 C 9.84 g/m*3 22.6 C 0 km/h
2989 20-08-2010 22:11:02 22.5 C 9.99 g/m*3 22.5 C 0 km/h
2990 20-08-2010 22:23:03 22.1 C 9.96 g/m*3 22.1 C 0 km/h
2991 20-08-2010 22:35:02 21.9 C 10.42 g/m*3 21.9 C 0 km/h
2992 20-08-2010 22:48:02 21.6 C 10.43 g/m*3 21.6 C 0 km/h
2993 20-08-2010 23:00:02 21.4 C 10.5 g/m*3 21.4 C 0 km/h
2994 20-08-2010 23:12:02 21.1 C 10.69 g/m*3 21.1 C 0 km/h
2995 20-08-2010 23:24:02 20.9 C 10.75 g/m*3 20.9 C 0 km/h
2996 20-08-2010 23:36:02 20.7 C 10.62 g/m*3 20.7 C 0 km/h
2997 20-08-2010 23:48:02 20.4 C 10.61 g/m*3 20.4 C 0 km/h
2998 21-08-2010 00:00:02 20.2 C 10.67 g/m*3 20.2 C 0 km/h
2999 21-08-2010 00:12:02 20 C 10.71 g/m*3 20 C 0 km/h
3000 21-08-2010 00:24:02 19.7 C 10.7 g/m*3 19.7 C 0 km/h
Sensor: Nr:Datum:Temp:Abs-Feuchte:Windchill:Wind:
Aussen-T/F 3001 21-08-2010 00:36:02 19.6 C 10.8 g/m*3 19.6 C 0 km/h
3002 21-08-2010 00:48:02 19.3 C 10.95 g/m*3 19.3 C 0 km/h
3003 21-08-2010 01:00:02 19.1 C 10.98 g/m*3 19.1 C 0 km/h
3004 21-08-2010 01:12:02 19 C 10.92 g/m*3 19 C 0 km/h
3005 21-08-2010 01:24:02 18.8 C 11.11 g/m*3 18.8 C 0 km/h
3006 21-08-2010 01:36:02 18.7 C 11.05 g/m*3 18.7 C 0 km/h
3007 21-08-2010 01:48:02 18.6 C 10.98 g/m*3 18.6 C 0 km/h
3008 21-08-2010 02:00:02 18.4 C 11.01 g/m*3 18.4 C 0 km/h
3009 21-08-2010 02:12:02 18.2 C 11.04 g/m*3 18.2 C 0 km/h
3010 21-08-2010 02:24:03 18.1 C 10.97 g/m*3 18.1 C 0 km/h
3011 21-08-2010 02:36:03 18.1 C 11.12 g/m*3 18.1 C 0 km/h
3012 21-08-2010 02:48:03 18 C 11.06 g/m*3 18 C 0 km/h
3013 21-08-2010 03:00:03 17.9 C 11.15 g/m*3 17.9 C 0 km/h
3014 21-08-2010 03:12:03 17.8 C 11.08 g/m*3 17.8 C 0 km/h
3015 21-08-2010 03:24:03 17.7 C 11.16 g/m*3 17.7 C 0 km/h
3016 21-08-2010 03:36:03 17.5 C 11.03 g/m*3 17.5 C 0 km/h
3017 21-08-2010 03:48:03 17.4 C 11.12 g/m*3 17.4 C 0 km/h
3018 21-08-2010 04:00:03 17.3 C 11.2 g/m*3 17.3 C 0 km/h
3019 21-08-2010 04:12:03 17.2 C 11.13 g/m*3 17.2 C 0 km/h
3020 21-08-2010 04:24:03 17.1 C 11.06 g/m*3 17.1 C 0 km/h
3021 21-08-2010 04:36:03 16.9 C 11.08 g/m*3 16.9 C 0 km/h
3022 21-08-2010 04:48:03 16.8 C 11.15 g/m*3 16.8 C 0 km/h
3023 21-08-2010 05:00:03 16.7 C 11.08 g/m*3 16.7 C 0 km/h
3024 21-08-2010 05:12:03 16.5 C 10.95 g/m*3 16.5 C 0 km/h
3025 21-08-2010 05:24:03 16.5 C 10.95 g/m*3 16.5 C 0 km/h
Sensor: Nr:Datum:Temp:Abs-Feuchte:Windchill:Wind:
Aussen-T/F 3026 21-08-2010 05:36:03 16.3 C 10.82 g/m*3 16.3 C 0 km/h
3027 21-08-2010 05:48:03 16.3 C 10.96 g/m*3 16.3 C 0 km/h
3028 21-08-2010 06:00:03 16.2 C 10.89 g/m*3 16.2 C 0 km/h
3029 21-08-2010 06:12:03 16.1 C 10.83 g/m*3 16.1 C 0 km/h
3030 21-08-2010 06:24:04 16 C 10.9 g/m*3 16 C 0 km/h
3031 21-08-2010 06:36:04 16 C 10.9 g/m*3 16 C 0 km/h
3032 21-08-2010 06:48:04 15.9 C 10.97 g/m*3 15.9 C 0 km/h
3033 21-08-2010 07:00:04 15.8 C 10.9 g/m*3 15.8 C 0 km/h
3034 21-08-2010 07:12:04 15.9 C 11.1 g/m*3 15.9 C 0 km/h
3035 21-08-2010 07:24:04 16 C 11.04 g/m*3 16 C 0 km/h
3036 21-08-2010 07:36:04 16.1 C 11.1 g/m*3 16.1 C 0 km/h
3037 21-08-2010 07:48:04 16.2 C 11.17 g/m*3 16.2 C 0 km/h
3038 21-08-2010 08:00:04 16.4 C 11.31 g/m*3 16.4 C 0 km/h
3039 21-08-2010 08:12:02 16.6 C 11.58 g/m*3 16.6 C 0 km/h
3040 21-08-2010 08:24:02 16.7 C 11.51 g/m*3 16.7 C 0 km/h
3041 21-08-2010 08:36:02 17 C 11.58 g/m*3 17 C 0 km/h
3042 21-08-2010 08:48:01 17.2 C 11.72 g/m*3 17.2 C 0 km/h
3043 21-08-2010 09:00:01 17.5 C 11.78 g/m*3 17.5 C 0 km/h
3044 21-08-2010 09:12:02 17.9 C 12.06 g/m*3 17.9 C 0 km/h
3045 21-08-2010 09:24:02 18.4 C 12.27 g/m*3 18.4 C 0 km/h
3046 21-08-2010 09:36:01 18.9 C 12.47 g/m*3 18.9 C 0 km/h
3047 21-08-2010 09:48:02 19.4 C 12.51 g/m*3 19.4 C 0 km/h
3048 21-08-2010 10:00:02 20.2 C 12.76 g/m*3 20.2 C 0 km/h
3049 21-08-2010 10:12:02 20.8 C 12.86 g/m*3 20.8 C 0 km/h
3050 21-08-2010 10:24:02 21.3 C 12.86 g/m*3 21.3 C 0 km/h
Sensor: Nr:Datum:Temp:Abs-Feuchte:Windchill:Wind:
Aussen-T/F 3051 21-08-2010 10:36:01 22 C 12.81 g/m*3 22 C 0 km/h
3052 21-08-2010 10:48:02 22.7 C 12.93 g/m*3 22.7 C 0 km/h
3053 21-08-2010 11:00:02 23.3 C 12.96 g/m*3 23.3 C 0 km/h
3054 21-08-2010 11:12:01 24 C 12.84 g/m*3 24 C 0 km/h
3055 21-08-2010 11:24:02 24.7 C 12.68 g/m*3 24.7 C 0 km/h
3056 21-08-2010 11:36:02 25.5 C 11.6 g/m*3 25.5 C 0 km/h
3057 21-08-2010 11:48:01 26.3 C 10.4 g/m*3 26.3 C 0 km/h
3058 21-08-2010 12:00:01 26.8 C 9.93 g/m*3 26.8 C 0 km/h
3059 21-08-2010 12:12:01 27.2 C 9.89 g/m*3 27.2 C 0 km/h
3060 21-08-2010 12:24:01 27.7 C 9.9 g/m*3 27.7 C 0 km/h
3061 21-08-2010 12:36:01 27.9 C 10.01 g/m*3 27.9 C 0 km/h
3062 21-08-2010 12:48:02 28.1 C 9.3 g/m*3 28.1 C 0 km/h
3063 21-08-2010 13:00:02 28.4 C 9.73 g/m*3 28.4 C 0 km/h
3064 21-08-2010 13:12:02 28.8 C 9.38 g/m*3 28.8 C 0 km/h
3065 21-08-2010 13:24:01 29.2 C 9 g/m*3 29.2 C 0 km/h
3066 21-08-2010 13:36:02 29.5 C 8.85 g/m*3 29.5 C 0 km/h
3067 21-08-2010 13:48:01 29.7 C 8.95 g/m*3 29.7 C 0 km/h
3068 21-08-2010 14:00:01 29.9 C 9.05 g/m*3 29.9 C 0 km/h
3069 21-08-2010 14:12:02 30.3 C 8.94 g/m*3 30.3 C 0 km/h
3070 21-08-2010 14:24:01 30.3 C 8.63 g/m*3 30.3 C 0 km/h
3071 21-08-2010 14:36:02 30.6 C 8.46 g/m*3 30.6 C 0 km/h
3072 21-08-2010 14:48:01 31 C 8.32 g/m*3 31 C 0 km/h
3073 21-08-2010 15:00:01 30.8 C 8.55 g/m*3 30.8 C 0 km/h
3074 21-08-2010 15:12:02 31.4 C 8.83 g/m*3 31.4 C 0 km/h
3075 21-08-2010 15:24:02 31.4 C 8.17 g/m*3 31.4 C 0 km/h
Sensor: Nr:Datum:Temp:Abs-Feuchte:Windchill:Wind:
Aussen-T/F 3076 21-08-2010 15:36:02 31.2 C 9.06 g/m*3 31.2 C 0 km/h
3077 21-08-2010 15:48:02 31.6 C 7.93 g/m*3 31.6 C 0 km/h
3078 21-08-2010 16:00:02 32.1 C 7.81 g/m*3 32.1 C 0 km/h
3079 21-08-2010 16:12:02 32.2 C 7.51 g/m*3 32.2 C 0 km/h
3080 21-08-2010 16:24:02 32.5 C 7.28 g/m*3 32.5 C 0 km/h
3081 21-08-2010 16:36:01 32.1 C 7.81 g/m*3 32.1 C 0 km/h
3082 21-08-2010 16:48:02 31.8 C 9.02 g/m*3 31.8 C 0 km/h
3083 21-08-2010 17:00:02 32.1 C 8.15 g/m*3 32.1 C 0 km/h
3084 21-08-2010 17:12:01 32.4 C 7.59 g/m*3 32.4 C 0 km/h
3085 21-08-2010 17:24:02 32.3 C 7.55 g/m*3 32.3 C 0 km/h
3086 21-08-2010 17:36:02 32.8 C 7.4 g/m*3 32.8 C 0 km/h
3087 21-08-2010 17:48:02 32.3 C 7.2 g/m*3 32.3 C 0 km/h
3088 21-08-2010 18:00:02 32.6 C 7.32 g/m*3 32.6 C 0 km/h
3089 21-08-2010 18:12:02 32.5 C 7.63 g/m*3 32.5 C 0 km/h
3090 21-08-2010 18:24:02 32.7 C 7.36 g/m*3 32.7 C 0 km/h
3091 21-08-2010 18:36:02 32.3 C 7.55 g/m*3 32.3 C 0 km/h
3092 21-08-2010 18:48:02 32 C 7.09 g/m*3 32 C 0 km/h
3093 21-08-2010 19:00:02 31.9 C 7.05 g/m*3 31.9 C 0 km/h
3094 21-08-2010 19:12:02 32 C 7.76 g/m*3 32 C 0 km/h
3095 21-08-2010 19:24:01 31.7 C 7.64 g/m*3 31.7 C 0 km/h
3096 21-08-2010 19:36:02 31.5 C 8.22 g/m*3 31.5 C 0 km/h
3097 21-08-2010 19:48:02 31.2 C 9.06 g/m*3 31.2 C 0 km/h
3098 21-08-2010 20:00:02 30.6 C 8.46 g/m*3 30.6 C 0 km/h
3099 21-08-2010 20:12:02 30 C 9.4 g/m*3 30 C 0 km/h
3100 21-08-2010 20:24:01 28.5 C 9.22 g/m*3 28.5 C 0 km/h
Sensor: Nr:Datum:Temp:Abs-Feuchte:Windchill:Wind:
Aussen-T/F 3101 21-08-2010 20:36:02 28.1 C 9.57 g/m*3 28.1 C 0 km/h
3102 21-08-2010 20:48:02 26.9 C 9.73 g/m*3 26.9 C 0 km/h
3103 21-08-2010 21:00:02 26.5 C 10.01 g/m*3 26.5 C 0 km/h
3104 21-08-2010 21:12:02 26.2 C 10.09 g/m*3 26.2 C 0 km/h
3105 21-08-2010 21:24:02 25.8 C 10.35 g/m*3 25.8 C 0 km/h
3106 21-08-2010 21:36:02 25.3 C 10.3 g/m*3 25.3 C 0 km/h
3107 21-08-2010 21:48:02 24.8 C 10.47 g/m*3 24.8 C 0 km/h
3108 21-08-2010 22:00:02 24.8 C 10.7 g/m*3 24.8 C 0 km/h
3109 21-08-2010 22:12:02 24.5 C 10.74 g/m*3 24.5 C 0 km/h
3110 21-08-2010 22:24:02 24.4 C 10.9 g/m*3 24.4 C 0 km/h
3111 21-08-2010 22:36:02 24.1 C 10.94 g/m*3 24.1 C 0 km/h
3112 21-08-2010 22:48:01 23.9 C 11.03 g/m*3 23.9 C 0 km/h
3113 21-08-2010 23:00:01 23.6 C 10.85 g/m*3 23.6 C 0 km/h
3114 21-08-2010 23:12:02 23.4 C 11.35 g/m*3 23.4 C 0 km/h
3115 21-08-2010 23:24:01 23.3 C 11.08 g/m*3 23.3 C 0 km/h
3116 21-08-2010 23:36:02 22.9 C 11.44 g/m*3 22.9 C 0 km/h
3117 21-08-2010 23:48:01 22.6 C 11.45 g/m*3 22.6 C 0 km/h
3118 22-08-2010 00:00:01 22.3 C 11.26 g/m*3 22.3 C 0 km/h
3119 22-08-2010 00:13:04 22.3 C 11.45 g/m*3 22.3 C 0 km/h
3120 22-08-2010 00:25:04 22 C 11.45 g/m*3 22 C 0 km/h
3121 22-08-2010 00:37:04 21.8 C 11.51 g/m*3 21.8 C 0 km/h
3122 22-08-2010 00:49:04 21.6 C 11.57 g/m*3 21.6 C 0 km/h
3123 22-08-2010 01:01:04 21.5 C 11.69 g/m*3 21.5 C 0 km/h
3124 22-08-2010 01:13:04 21.2 C 11.49 g/m*3 21.2 C 0 km/h
3125 22-08-2010 01:25:04 21 C 11.54 g/m*3 21 C 0 km/h
Sensor: Nr:Datum:Temp:Abs-Feuchte:Windchill:Wind:
Aussen-T/F 3126 22-08-2010 01:37:04 20.9 C 11.84 g/m*3 20.9 C 0 km/h
3127 22-08-2010 01:49:04 20.6 C 11.81 g/m*3 20.6 C 0 km/h
3128 22-08-2010 02:01:05 20.5 C 11.74 g/m*3 20.5 C 0 km/h
3129 22-08-2010 02:13:05 20.4 C 11.85 g/m*3 20.4 C 0 km/h
3130 22-08-2010 02:25:05 20.1 C 11.82 g/m*3 20.1 C 0 km/h
3131 22-08-2010 02:37:05 19.9 C 12.03 g/m*3 19.9 C 0 km/h
3132 22-08-2010 02:49:05 19.8 C 11.96 g/m*3 19.8 C 0 km/h
3133 22-08-2010 03:01:05 19.7 C 12.06 g/m*3 19.7 C 0 km/h
3134 22-08-2010 03:13:05 19.7 C 12.23 g/m*3 19.7 C 0 km/h
3135 22-08-2010 03:25:05 19.5 C 12.08 g/m*3 19.5 C 0 km/h
3136 22-08-2010 03:37:05 19.3 C 11.94 g/m*3 19.3 C 0 km/h
3137 22-08-2010 03:49:05 19.4 C 12.18 g/m*3 19.4 C 0 km/h
3138 22-08-2010 04:01:05 19.3 C 12.11 g/m*3 19.3 C 0 km/h
3139 22-08-2010 04:13:05 19.3 C 12.27 g/m*3 19.3 C 0 km/h
3140 22-08-2010 04:25:05 19.2 C 12.04 g/m*3 19.2 C 0 km/h
3141 22-08-2010 04:37:05 19.1 C 11.97 g/m*3 19.1 C 0 km/h
3142 22-08-2010 04:49:05 18.9 C 12.15 g/m*3 18.9 C 0 km/h
3143 22-08-2010 05:01:05 18.8 C 12.08 g/m*3 18.8 C 0 km/h
3144 22-08-2010 05:13:05 18.6 C 11.94 g/m*3 18.6 C 0 km/h
3145 22-08-2010 05:25:05 18.5 C 12.18 g/m*3 18.5 C 0 km/h
3146 22-08-2010 05:37:05 18.5 C 12.18 g/m*3 18.5 C 0 km/h
3147 22-08-2010 05:49:05 18.3 C 12.04 g/m*3 18.3 C 0 km/h
3148 22-08-2010 06:01:06 18.1 C 12.05 g/m*3 18.1 C 0 km/h
3149 22-08-2010 06:13:06 18 C 11.98 g/m*3 18 C 0 km/h
3150 22-08-2010 06:25:06 18 C 11.98 g/m*3 18 C 0 km/h
Sensor: Nr:Datum:Temp:Abs-Feuchte:Windchill:Wind:
Aussen-T/F 3151 22-08-2010 06:37:06 17.9 C 12.06 g/m*3 17.9 C 0 km/h
3152 22-08-2010 06:49:06 18 C 11.98 g/m*3 18 C 0 km/h
3153 22-08-2010 07:01:06 18 C 11.98 g/m*3 18 C 0 km/h
3154 22-08-2010 07:13:06 18.1 C 12.05 g/m*3 18.1 C 0 km/h
3155 22-08-2010 07:25:06 18.1 C 12.05 g/m*3 18.1 C 0 km/h
3156 22-08-2010 07:37:06 18.5 C 12.34 g/m*3 18.5 C 0 km/h
3157 22-08-2010 07:49:06 18.8 C 12.56 g/m*3 18.8 C 0 km/h
3158 22-08-2010 08:01:06 18.9 C 12.47 g/m*3 18.9 C 0 km/h
3159 22-08-2010 08:13:06 18.7 C 12.49 g/m*3 18.7 C 0 km/h
3160 22-08-2010 08:25:06 18.8 C 12.72 g/m*3 18.8 C 0 km/h
3161 22-08-2010 08:37:06 19.1 C 12.79 g/m*3 19.1 C 0 km/h
3162 22-08-2010 08:49:01 19.3 C 12.61 g/m*3 19.3 C 0 km/h
3163 22-08-2010 09:01:01 19.4 C 12.51 g/m*3 19.4 C 0 km/h
3164 22-08-2010 09:13:01 20 C 12.62 g/m*3 20 C 0 km/h
3165 22-08-2010 09:25:02 20.3 C 12.66 g/m*3 20.3 C 0 km/h
3166 22-08-2010 09:37:01 20.6 C 12.71 g/m*3 20.6 C 0 km/h
3167 22-08-2010 09:49:01 21.3 C 12.68 g/m*3 21.3 C 0 km/h
3168 22-08-2010 10:01:01 21.6 C 12.71 g/m*3 21.6 C 0 km/h
3169 22-08-2010 10:13:01 22.2 C 12.37 g/m*3 22.2 C 0 km/h
3170 22-08-2010 10:25:02 23.7 C 13.05 g/m*3 23.7 C 0 km/h
3171 22-08-2010 10:37:01 24.2 C 12.32 g/m*3 24.2 C 0 km/h
3172 22-08-2010 10:49:03 23.8 C 12.91 g/m*3 23.8 C 0 km/h
3173 22-08-2010 11:01:02 23.8 C 12.91 g/m*3 23.8 C 0 km/h
3174 22-08-2010 11:13:02 24.1 C 12.91 g/m*3 24.1 C 0 km/h
3175 22-08-2010 11:25:02 25 C 12.2 g/m*3 25 C 0 km/h
Sensor: Nr:Datum:Temp:Abs-Feuchte:Windchill:Wind:
Aussen-T/F 3176 22-08-2010 11:37:02 25.5 C 13.26 g/m*3 25.5 C 0 km/h
3177 22-08-2010 11:49:02 26 C 12.17 g/m*3 26 C 0 km/h
3178 22-08-2010 12:01:01 26.7 C 12.15 g/m*3 26.7 C 0 km/h
3179 22-08-2010 12:13:01 27.3 C 12.04 g/m*3 27.3 C 0 km/h
3180 22-08-2010 12:25:02 27.9 C 11.63 g/m*3 27.9 C 0 km/h
3181 22-08-2010 12:37:02 27.6 C 11.17 g/m*3 27.6 C 0 km/h
3182 22-08-2010 12:49:02 27.8 C 11.3 g/m*3 27.8 C 0 km/h
3183 22-08-2010 13:01:03 27.7 C 11.23 g/m*3 27.7 C 0 km/h
3184 22-08-2010 13:13:03 28 C 11.15 g/m*3 28 C 0 km/h
3185 22-08-2010 13:25:02 28.7 C 10.17 g/m*3 28.7 C 0 km/h
3186 22-08-2010 13:37:02 28.9 C 10.28 g/m*3 28.9 C 0 km/h
3187 22-08-2010 13:49:02 28.9 C 9.71 g/m*3 28.9 C 0 km/h
3188 22-08-2010 14:01:02 29.6 C 10.68 g/m*3 29.6 C 0 km/h
3189 22-08-2010 14:13:02 29.7 C 10.14 g/m*3 29.7 C 0 km/h
3190 22-08-2010 14:25:01 29.6 C 10.39 g/m*3 29.6 C 0 km/h
3191 22-08-2010 14:37:02 27.7 C 10.43 g/m*3 27.7 C 0 km/h
3192 22-08-2010 14:49:02 27.1 C 10.61 g/m*3 27.1 C 0 km/h
3193 22-08-2010 15:01:02 26 C 11.2 g/m*3 26 C 0 km/h
3194 22-08-2010 15:13:03 25.9 C 11.62 g/m*3 25.9 C 0 km/h
3195 22-08-2010 15:25:01 25.4 C 12.24 g/m*3 25.4 C 0 km/h
3196 22-08-2010 15:37:02 25.1 C 13.2 g/m*3 25.1 C 0 km/h
3197 22-08-2010 15:49:01 26.4 C 12.7 g/m*3 26.4 C 0 km/h
3198 22-08-2010 16:01:02 27.7 C 11.77 g/m*3 27.7 C 0 km/h
3199 22-08-2010 16:13:02 27.9 C 11.63 g/m*3 27.9 C 0 km/h
3200 22-08-2010 16:25:02 27.9 C 12.17 g/m*3 27.9 C 0 km/h
Sensor: Nr:Datum:Temp:Abs-Feuchte:Windchill:Wind:
Aussen-T/F 3201 22-08-2010 16:37:02 28 C 11.97 g/m*3 28 C 0 km/h
3202 22-08-2010 16:49:01 27.5 C 11.91 g/m*3 27.5 C 0 km/h
3203 22-08-2010 17:01:02 27 C 12.1 g/m*3 27 C 0 km/h
3204 22-08-2010 17:13:02 26.8 C 12.22 g/m*3 26.8 C 0 km/h
3205 22-08-2010 17:25:02 26.7 C 12.66 g/m*3 26.7 C 0 km/h
3206 22-08-2010 17:37:02 26.4 C 11.45 g/m*3 26.4 C 0 km/h
3207 22-08-2010 17:49:02 26.5 C 11.01 g/m*3 26.5 C 0 km/h
3208 22-08-2010 18:01:01 26.4 C 10.7 g/m*3 26.4 C 0 km/h
3209 22-08-2010 18:13:01 26.6 C 11.08 g/m*3 26.6 C 0 km/h
3210 22-08-2010 18:25:02 26.5 C 12.02 g/m*3 26.5 C 0 km/h
3211 22-08-2010 18:37:01 26 C 12.17 g/m*3 26 C 0 km/h
3212 22-08-2010 18:49:02 25.9 C 12.59 g/m*3 25.9 C 0 km/h
3213 22-08-2010 19:01:01 25.9 C 12.59 g/m*3 25.9 C 0 km/h
3214 22-08-2010 19:13:01 26.2 C 12.31 g/m*3 26.2 C 0 km/h
3215 22-08-2010 19:25:01 25.6 C 11.67 g/m*3 25.6 C 0 km/h
3216 22-08-2010 19:37:02 25.3 C 10.53 g/m*3 25.3 C 0 km/h
3217 22-08-2010 19:49:02 24.6 C 10.8 g/m*3 24.6 C 0 km/h
3218 22-08-2010 20:01:02 24.6 C 10.8 g/m*3 24.6 C 0 km/h
3219 22-08-2010 20:13:02 24.6 C 10.58 g/m*3 24.6 C 0 km/h
3220 22-08-2010 20:25:02 24.5 C 10.52 g/m*3 24.5 C 0 km/h
3221 22-08-2010 20:37:02 24.3 C 10.62 g/m*3 24.3 C 0 km/h
3222 22-08-2010 20:49:02 24.1 C 10.72 g/m*3 24.1 C 0 km/h
3223 22-08-2010 21:01:01 23.8 C 11.19 g/m*3 23.8 C 0 km/h
3224 22-08-2010 21:13:01 23.2 C 11.23 g/m*3 23.2 C 0 km/h
3225 22-08-2010 21:25:01 22.9 C 11.44 g/m*3 22.9 C 0 km/h
Sensor: Nr:Datum:Temp:Abs-Feuchte:Windchill:Wind:
Aussen-T/F 3226 22-08-2010 21:37:02 22.9 C 11.85 g/m*3 22.9 C 0 km/h <